<?xml version="1.0" encoding="UTF-8" standalone="no" ?><gpx xmlns="http://www.topografix.com/GPX/1/1" xmlns:gpxx="http://www.garmin.com/xmlschemas/GpxExtensions/v3" xmlns:gpxtrkx="http://www.garmin.com/xmlschemas/TrackStatsExtension/v1" xmlns:wptx1="http://www.garmin.com/xmlschemas/WaypointExtension/v1" xmlns:gpxtpx="http://www.garmin.com/xmlschemas/TrackPointExtension/v1" creator="eTrex 20" version="1.1" xmlns:xsi="http://www.w3.org/2001/XMLSchema-instance" xsi:schemaLocation="http://www.topografix.com/GPX/1/1 http://www.topografix.com/GPX/1/1/gpx.xsd http://www.garmin.com/xmlschemas/GpxExtensions/v3 http://www8.garmin.com/xmlschemas/GpxExtensionsv3.xsd http://www.garmin.com/xmlschemas/TrackStatsExtension/v1 http://www8.garmin.com/xmlschemas/TrackStatsExtension.xsd http://www.garmin.com/xmlschemas/WaypointExtension/v1 http://www8.garmin.com/xmlschemas/WaypointExtensionv1.xsd http://www.garmin.com/xmlschemas/TrackPointExtension/v1 http://www.garmin.com/xmlschemas/TrackPointExtensionv1.xsd"><metadata><link href="http://www.garmin.com"><text>Garmin International</text></link><time>2015-04-01T15:32:40Z</time></metadata><trk><name>2015-04-01 18:32:35</name><extensions><gpxx:TrackExtension><gpxx:DisplayColor>Cyan</gpxx:DisplayColor></gpxx:TrackExtension><gpxtrkx:TrackStatsExtension><gpxtrkx:Distance>16334</gpxtrkx:Distance></gpxtrkx:TrackStatsExtension></extensions><trkseg><trkpt lat="13.2684457675" lon="38.1080665346"><ele>3619.50</ele><time>2015-03-31T11:59:32Z</time></trkpt><trkpt lat="13.2684433367" lon="38.1080739945"><ele>3618.54</ele><time>2015-03-31T11:59:36Z</time></trkpt><trkpt lat="13.2682579290" lon="38.1086089276"><ele>3629.11</ele><time>2015-03-31T12:34:31Z</time></trkpt><trkpt lat="13.2682685740" lon="38.1086029764"><ele>3631.52</ele><time>2015-03-31T12:35:06Z</time></trkpt><trkpt lat="13.2682697475" lon="38.1086187344"><ele>3633.92</ele><time>2015-03-31T12:35:37Z</time></trkpt><trkpt lat="13.2682636287" lon="38.1085982826"><ele>3635.36</ele><time>2015-03-31T12:36:03Z</time></trkpt><trkpt lat="13.2682607789" lon="38.1085979473"><ele>3632.48</ele><time>2015-03-31T12:36:45Z</time></trkpt><trkpt lat="13.2682513073" lon="38.1086032279"><ele>3628.63</ele><time>2015-03-31T12:37:09Z</time></trkpt><trkpt lat="13.2682530675" lon="38.1085996237"><ele>3625.75</ele><time>2015-03-31T12:37:32Z</time></trkpt><trkpt lat="13.2682477869" lon="38.1085956004"><ele>3625.27</ele><time>2015-03-31T12:38:00Z</time></trkpt><trkpt lat="13.2682516426" lon="38.1086117774"><ele>3626.23</ele><time>2015-03-31T12:38:21Z</time></trkpt><trkpt lat="13.2682108227" lon="38.1085906550"><ele>3626.23</ele><time>2015-03-31T12:38:32Z</time></trkpt><trkpt lat="13.2681658957" lon="38.1085836980"><ele>3625.27</ele><time>2015-03-31T12:38:41Z</time></trkpt><trkpt lat="13.2681625430" lon="38.1085835304"><ele>3620.94</ele><time>2015-04-01T05:03:50Z</time></trkpt><trkpt lat="13.2686855737" lon="38.1087862048"><ele>3629.59</ele><time>2015-04-01T05:04:06Z</time></trkpt><trkpt lat="13.2686925307" lon="38.1087911502"><ele>3630.56</ele><time>2015-04-01T05:04:22Z</time></trkpt><trkpt lat="13.2687348593" lon="38.1086092629"><ele>3632.48</ele><time>2015-04-01T05:04:47Z</time></trkpt><trkpt lat="13.2686978113" lon="38.1087963469"><ele>3630.56</ele><time>2015-04-01T05:05:12Z</time></trkpt><trkpt lat="13.2687849831" lon="38.1088546850"><ele>3630.56</ele><time>2015-04-01T05:05:24Z</time></trkpt><trkpt lat="13.2687921915" lon="38.1088600494"><ele>3630.56</ele><time>2015-04-01T05:05:25Z</time></trkpt><trkpt lat="13.2689086162" lon="38.1088660005"><ele>3630.08</ele><time>2015-04-01T05:05:35Z</time></trkpt><trkpt lat="13.2689956203" lon="38.1088903081"><ele>3630.56</ele><time>2015-04-01T05:05:48Z</time></trkpt><trkpt lat="13.2690325007" lon="38.1090023741"><ele>3631.52</ele><time>2015-04-01T05:06:04Z</time></trkpt><trkpt lat="13.2691599056" lon="38.1089946628"><ele>3640.65</ele><time>2015-04-01T05:06:18Z</time></trkpt><trkpt lat="13.2692302298" lon="38.1090560183"><ele>3646.42</ele><time>2015-04-01T05:06:30Z</time></trkpt><trkpt lat="13.2692500111" lon="38.1090804096"><ele>3646.90</ele><time>2015-04-01T05:06:33Z</time></trkpt><trkpt lat="13.2693215925" lon="38.1091294438"><ele>3647.86</ele><time>2015-04-01T05:06:41Z</time></trkpt><trkpt lat="13.2694425434" lon="38.1091724429"><ele>3650.26</ele><time>2015-04-01T05:06:54Z</time></trkpt><trkpt lat="13.2695368398" lon="38.1092758756"><ele>3658.92</ele><time>2015-04-01T05:07:10Z</time></trkpt><trkpt lat="13.2696025539" lon="38.1093939766"><ele>3666.61</ele><time>2015-04-01T05:07:26Z</time></trkpt><trkpt lat="13.2696187310" lon="38.1094245706"><ele>3667.57</ele><time>2015-04-01T05:07:30Z</time></trkpt><trkpt lat="13.2697110996" lon="38.1095235609"><ele>3670.93</ele><time>2015-04-01T05:07:46Z</time></trkpt><trkpt lat="13.2697182242" lon="38.1095308531"><ele>3670.93</ele><time>2015-04-01T05:07:47Z</time></trkpt><trkpt lat="13.2698168792" lon="38.1096084695"><ele>3672.85</ele><time>2015-04-01T05:08:04Z</time></trkpt><trkpt lat="13.2699049730" lon="38.1096789613"><ele>3669.49</ele><time>2015-04-01T05:08:20Z</time></trkpt><trkpt lat="13.2700024545" lon="38.1097523030"><ele>3664.68</ele><time>2015-04-01T05:08:36Z</time></trkpt><trkpt lat="13.2700728625" lon="38.1098157540"><ele>3663.24</ele><time>2015-04-01T05:08:52Z</time></trkpt><trkpt lat="13.2701518200" lon="38.1098791212"><ele>3658.43</ele><time>2015-04-01T05:09:06Z</time></trkpt><trkpt lat="13.2702271733" lon="38.1099006627"><ele>3653.63</ele><time>2015-04-01T05:09:22Z</time></trkpt><trkpt lat="13.2703065500" lon="38.1099113077"><ele>3650.74</ele><time>2015-04-01T05:09:36Z</time></trkpt><trkpt lat="13.2703716774" lon="38.1099612638"><ele>3645.94</ele><time>2015-04-01T05:09:52Z</time></trkpt><trkpt lat="13.2703561708" lon="38.1099951267"><ele>3643.05</ele><time>2015-04-01T05:10:07Z</time></trkpt><trkpt lat="13.2703546621" lon="38.1100551412"><ele>3639.69</ele><time>2015-04-01T05:10:23Z</time></trkpt><trkpt lat="13.2703361381" lon="38.1101356074"><ele>3636.32</ele><time>2015-04-01T05:10:41Z</time></trkpt><trkpt lat="13.2703420892" lon="38.1102180853"><ele>3632.96</ele><time>2015-04-01T05:10:57Z</time></trkpt><trkpt lat="13.2703770418" lon="38.1103228591"><ele>3630.56</ele><time>2015-04-01T05:11:12Z</time></trkpt><trkpt lat="13.2704280037" lon="38.1104236934"><ele>3632.00</ele><time>2015-04-01T05:11:28Z</time></trkpt><trkpt lat="13.2704657223" lon="38.1105229352"><ele>3632.00</ele><time>2015-04-01T05:11:41Z</time></trkpt><trkpt lat="13.2704897784" lon="38.1105604023"><ele>3632.96</ele><time>2015-04-01T05:11:58Z</time></trkpt><trkpt lat="13.2705777045" lon="38.1106572133"><ele>3634.88</ele><time>2015-04-01T05:12:17Z</time></trkpt><trkpt lat="13.2706211228" lon="38.1107118633"><ele>3635.36</ele><time>2015-04-01T05:12:35Z</time></trkpt><trkpt lat="13.2706830651" lon="38.1107870489"><ele>3635.36</ele><time>2015-04-01T05:12:51Z</time></trkpt><trkpt lat="13.2707586698" lon="38.1108696107"><ele>3636.32</ele><time>2015-04-01T05:13:08Z</time></trkpt><trkpt lat="13.2708466798" lon="38.1109438743"><ele>3637.77</ele><time>2015-04-01T05:13:25Z</time></trkpt><trkpt lat="13.2709105499" lon="38.1110520009"><ele>3639.21</ele><time>2015-04-01T05:13:42Z</time></trkpt><trkpt lat="13.2709625177" lon="38.1111309584"><ele>3639.69</ele><time>2015-04-01T05:13:55Z</time></trkpt><trkpt lat="13.2710133120" lon="38.1112007797"><ele>3640.17</ele><time>2015-04-01T05:14:09Z</time></trkpt><trkpt lat="13.2710605860" lon="38.1113032065"><ele>3639.69</ele><time>2015-04-01T05:14:24Z</time></trkpt><trkpt lat="13.2711180858" lon="38.1114125904"><ele>3641.13</ele><time>2015-04-01T05:14:41Z</time></trkpt><trkpt lat="13.2711347658" lon="38.1115347985"><ele>3641.13</ele><time>2015-04-01T05:14:55Z</time></trkpt><trkpt lat="13.2711827941" lon="38.1116612814"><ele>3643.53</ele><time>2015-04-01T05:15:12Z</time></trkpt><trkpt lat="13.2712327503" lon="38.1117755268"><ele>3644.98</ele><time>2015-04-01T05:15:30Z</time></trkpt><trkpt lat="13.2712599915" lon="38.1118449289"><ele>3646.42</ele><time>2015-04-01T05:15:40Z</time></trkpt><trkpt lat="13.2713137195" lon="38.1119615212"><ele>3647.86</ele><time>2015-04-01T05:15:57Z</time></trkpt><trkpt lat="13.2713534497" lon="38.1120559014"><ele>3648.82</ele><time>2015-04-01T05:16:12Z</time></trkpt><trkpt lat="13.2713998016" lon="38.1121508684"><ele>3649.78</ele><time>2015-04-01T05:16:27Z</time></trkpt><trkpt lat="13.2714293059" lon="38.1122523732"><ele>3651.22</ele><time>2015-04-01T05:16:40Z</time></trkpt><trkpt lat="13.2714953553" lon="38.1124172453"><ele>3653.15</ele><time>2015-04-01T05:16:57Z</time></trkpt><trkpt lat="13.2715190761" lon="38.1124978792"><ele>3653.63</ele><time>2015-04-01T05:17:11Z</time></trkpt><trkpt lat="13.2716005482" lon="38.1125715561"><ele>3654.59</ele><time>2015-04-01T05:17:26Z</time></trkpt><trkpt lat="13.2716210838" lon="38.1126463227"><ele>3655.55</ele><time>2015-04-01T05:17:40Z</time></trkpt><trkpt lat="13.2716562040" lon="38.1127438881"><ele>3655.55</ele><time>2015-04-01T05:17:55Z</time></trkpt><trkpt lat="13.2717046514" lon="38.1127847079"><ele>3654.11</ele><time>2015-04-01T05:18:16Z</time></trkpt><trkpt lat="13.2717468962" lon="38.1128468178"><ele>3654.59</ele><time>2015-04-01T05:18:25Z</time></trkpt><trkpt lat="13.2717557810" lon="38.1128650904"><ele>3655.07</ele><time>2015-04-01T05:18:27Z</time></trkpt><trkpt lat="13.2718549389" lon="38.1130085047"><ele>3655.55</ele><time>2015-04-01T05:18:45Z</time></trkpt><trkpt lat="13.2719393447" lon="38.1131425314"><ele>3656.03</ele><time>2015-04-01T05:19:03Z</time></trkpt><trkpt lat="13.2720145304" lon="38.1132778991"><ele>3656.99</ele><time>2015-04-01T05:19:19Z</time></trkpt><trkpt lat="13.2720859442" lon="38.1133775599"><ele>3657.95</ele><time>2015-04-01T05:19:33Z</time></trkpt><trkpt lat="13.2721506525" lon="38.1134885363"><ele>3657.95</ele><time>2015-04-01T05:19:48Z</time></trkpt><trkpt lat="13.2721836772" lon="38.1135099940"><ele>3657.95</ele><time>2015-04-01T05:20:06Z</time></trkpt><trkpt lat="13.2722009439" lon="38.1134996843"><ele>3657.95</ele><time>2015-04-01T05:20:36Z</time></trkpt><trkpt lat="13.2721975911" lon="38.1135470420"><ele>3657.95</ele><time>2015-04-01T05:20:54Z</time></trkpt><trkpt lat="13.2722436916" lon="38.1136388239"><ele>3657.95</ele><time>2015-04-01T05:21:08Z</time></trkpt><trkpt lat="13.2723187935" lon="38.1138156820"><ele>3657.95</ele><time>2015-04-01T05:21:26Z</time></trkpt><trkpt lat="13.2723614573" lon="38.1139129959"><ele>3659.40</ele><time>2015-04-01T05:21:40Z</time></trkpt><trkpt lat="13.2724271715" lon="38.1140315160"><ele>3660.36</ele><time>2015-04-01T05:21:54Z</time></trkpt><trkpt lat="13.2725179475" lon="38.1141782831"><ele>3661.80</ele><time>2015-04-01T05:22:11Z</time></trkpt><trkpt lat="13.2726134174" lon="38.1142569892"><ele>3663.24</ele><time>2015-04-01T05:22:26Z</time></trkpt><trkpt lat="13.2726634573" lon="38.1143129803"><ele>3662.76</ele><time>2015-04-01T05:22:40Z</time></trkpt><trkpt lat="13.2727040257" lon="38.1143413112"><ele>3661.80</ele><time>2015-04-01T05:23:00Z</time></trkpt><trkpt lat="13.2727694046" lon="38.1144390441"><ele>3662.76</ele><time>2015-04-01T05:23:16Z</time></trkpt><trkpt lat="13.2728623599" lon="38.1145501882"><ele>3664.20</ele><time>2015-04-01T05:23:32Z</time></trkpt><trkpt lat="13.2729015872" lon="38.1145873200"><ele>3667.09</ele><time>2015-04-01T05:23:49Z</time></trkpt><trkpt lat="13.2729975600" lon="38.1146874838"><ele>3667.57</ele><time>2015-04-01T05:24:03Z</time></trkpt><trkpt lat="13.2731607556" lon="38.1148607377"><ele>3668.53</ele><time>2015-04-01T05:24:26Z</time></trkpt><trkpt lat="13.2732796948" lon="38.1149858795"><ele>3671.41</ele><time>2015-04-01T05:24:44Z</time></trkpt><trkpt lat="13.2734059263" lon="38.1151160505"><ele>3674.78</ele><time>2015-04-01T05:25:02Z</time></trkpt><trkpt lat="13.2734822854" lon="38.1152053177"><ele>3676.70</ele><time>2015-04-01T05:25:14Z</time></trkpt><trkpt lat="13.2735692896" lon="38.1153319683"><ele>3679.58</ele><time>2015-04-01T05:25:31Z</time></trkpt><trkpt lat="13.2736706268" lon="38.1154599600"><ele>3681.51</ele><time>2015-04-01T05:25:48Z</time></trkpt><trkpt lat="13.2736888994" lon="38.1155576929"><ele>3680.54</ele><time>2015-04-01T05:26:04Z</time></trkpt><trkpt lat="13.2737717126" lon="38.1156566832"><ele>3681.03</ele><time>2015-04-01T05:26:17Z</time></trkpt><trkpt lat="13.2738523465" lon="38.1157357246"><ele>3682.47</ele><time>2015-04-01T05:26:33Z</time></trkpt><trkpt lat="13.2738883048" lon="38.1157850102"><ele>3682.47</ele><time>2015-04-01T05:27:01Z</time></trkpt><trkpt lat="13.2738792524" lon="38.1158070546"><ele>3680.54</ele><time>2015-04-01T05:27:26Z</time></trkpt><trkpt lat="13.2738952618" lon="38.1158111617"><ele>3682.47</ele><time>2015-04-01T05:27:45Z</time></trkpt><trkpt lat="13.2738941722" lon="38.1158189569"><ele>3682.95</ele><time>2015-04-01T05:28:03Z</time></trkpt><trkpt lat="13.2738917414" lon="38.1158221420"><ele>3683.91</ele><time>2015-04-01T05:28:17Z</time></trkpt><trkpt lat="13.2739151269" lon="38.1158925500"><ele>3683.43</ele><time>2015-04-01T05:28:32Z</time></trkpt><trkpt lat="13.2739530969" lon="38.1159793027"><ele>3682.95</ele><time>2015-04-01T05:28:46Z</time></trkpt><trkpt lat="13.2739887200" lon="38.1159959827"><ele>3682.47</ele><time>2015-04-01T05:28:56Z</time></trkpt><trkpt lat="13.2739961799" lon="38.1160170212"><ele>3681.99</ele><time>2015-04-01T05:28:58Z</time></trkpt><trkpt lat="13.2740646601" lon="38.1160876807"><ele>3681.99</ele><time>2015-04-01T05:29:11Z</time></trkpt><trkpt lat="13.2741380855" lon="38.1161808874"><ele>3682.47</ele><time>2015-04-01T05:29:24Z</time></trkpt><trkpt lat="13.2742105890" lon="38.1162756030"><ele>3682.47</ele><time>2015-04-01T05:29:36Z</time></trkpt><trkpt lat="13.2742804103" lon="38.1163842324"><ele>3681.51</ele><time>2015-04-01T05:29:49Z</time></trkpt><trkpt lat="13.2743722759" lon="38.1165244617"><ele>3681.99</ele><time>2015-04-01T05:30:04Z</time></trkpt><trkpt lat="13.2744681649" lon="38.1166703068"><ele>3681.51</ele><time>2015-04-01T05:30:19Z</time></trkpt><trkpt lat="13.2745681610" lon="38.1168080214"><ele>3681.51</ele><time>2015-04-01T05:30:34Z</time></trkpt><trkpt lat="13.2746795565" lon="38.1169452332"><ele>3681.51</ele><time>2015-04-01T05:30:49Z</time></trkpt><trkpt lat="13.2747599389" lon="38.1170438882"><ele>3681.03</ele><time>2015-04-01T05:31:01Z</time></trkpt><trkpt lat="13.2748675626" lon="38.1171968579"><ele>3681.99</ele><time>2015-04-01T05:31:18Z</time></trkpt><trkpt lat="13.2749643736" lon="38.1173085887"><ele>3682.95</ele><time>2015-04-01T05:31:32Z</time></trkpt><trkpt lat="13.2750719134" lon="38.1174194813"><ele>3682.47</ele><time>2015-04-01T05:31:46Z</time></trkpt><trkpt lat="13.2751311734" lon="38.1174398493"><ele>3681.51</ele><time>2015-04-01T05:31:55Z</time></trkpt><trkpt lat="13.2752149086" lon="38.1175728701"><ele>3681.99</ele><time>2015-04-01T05:32:09Z</time></trkpt><trkpt lat="13.2753183413" lon="38.1177037954"><ele>3682.47</ele><time>2015-04-01T05:32:24Z</time></trkpt><trkpt lat="13.2754090335" lon="38.1177745387"><ele>3681.03</ele><time>2015-04-01T05:32:37Z</time></trkpt><trkpt lat="13.2754283119" lon="38.1178093236"><ele>3680.06</ele><time>2015-04-01T05:32:42Z</time></trkpt><trkpt lat="13.2754328381" lon="38.1178236566"><ele>3680.54</ele><time>2015-04-01T05:32:44Z</time></trkpt><trkpt lat="13.2754394598" lon="38.1178591959"><ele>3679.58</ele><time>2015-04-01T05:32:49Z</time></trkpt><trkpt lat="13.2755119633" lon="38.1179996766"><ele>3678.14</ele><time>2015-04-01T05:33:05Z</time></trkpt><trkpt lat="13.2755306549" lon="38.1180352159"><ele>3678.14</ele><time>2015-04-01T05:33:09Z</time></trkpt><trkpt lat="13.2755595725" lon="38.1180629600"><ele>3678.62</ele><time>2015-04-01T05:33:13Z</time></trkpt><trkpt lat="13.2756584790" lon="38.1180892792"><ele>3679.58</ele><time>2015-04-01T05:33:28Z</time></trkpt><trkpt lat="13.2757088542" lon="38.1181410793"><ele>3677.66</ele><time>2015-04-01T05:33:42Z</time></trkpt><trkpt lat="13.2757679466" lon="38.1182092242"><ele>3676.22</ele><time>2015-04-01T05:33:53Z</time></trkpt><trkpt lat="13.2758380193" lon="38.1183046941"><ele>3674.30</ele><time>2015-04-01T05:34:09Z</time></trkpt><trkpt lat="13.2758614048" lon="38.1183288340"><ele>3673.82</ele><time>2015-04-01T05:34:13Z</time></trkpt><trkpt lat="13.2759371772" lon="38.1184274890"><ele>3672.85</ele><time>2015-04-01T05:34:29Z</time></trkpt><trkpt lat="13.2760269474" lon="38.1184806302"><ele>3671.41</ele><time>2015-04-01T05:34:44Z</time></trkpt><trkpt lat="13.2760414481" lon="38.1185009982"><ele>3672.37</ele><time>2015-04-01T05:34:47Z</time></trkpt><trkpt lat="13.2761375047" lon="38.1186510343"><ele>3671.41</ele><time>2015-04-01T05:35:03Z</time></trkpt><trkpt lat="13.2761903107" lon="38.1187384576"><ele>3670.45</ele><time>2015-04-01T05:35:13Z</time></trkpt><trkpt lat="13.2762404345" lon="38.1188296527"><ele>3668.05</ele><time>2015-04-01T05:35:29Z</time></trkpt><trkpt lat="13.2762846071" lon="38.1188901700"><ele>3666.12</ele><time>2015-04-01T05:35:41Z</time></trkpt><trkpt lat="13.2763064001" lon="38.1189193390"><ele>3666.12</ele><time>2015-04-01T05:35:46Z</time></trkpt><trkpt lat="13.2763359882" lon="38.1189152319"><ele>3666.12</ele><time>2015-04-01T05:35:49Z</time></trkpt><trkpt lat="13.2763635647" lon="38.1189474184"><ele>3666.12</ele><time>2015-04-01T05:35:53Z</time></trkpt><trkpt lat="13.2764178794" lon="38.1190621667"><ele>3666.12</ele><time>2015-04-01T05:36:09Z</time></trkpt><trkpt lat="13.2764220703" lon="38.1191312335"><ele>3667.09</ele><time>2015-04-01T05:36:18Z</time></trkpt><trkpt lat="13.2764039654" lon="38.1191832852"><ele>3668.05</ele><time>2015-04-01T05:36:25Z</time></trkpt><trkpt lat="13.2763198111" lon="38.1192948483"><ele>3669.97</ele><time>2015-04-01T05:36:41Z</time></trkpt><trkpt lat="13.2762853615" lon="38.1193909887"><ele>3672.37</ele><time>2015-04-01T05:36:55Z</time></trkpt><trkpt lat="13.2761896402" lon="38.1195318047"><ele>3674.78</ele><time>2015-04-01T05:37:10Z</time></trkpt><trkpt lat="13.2761407737" lon="38.1196627300"><ele>3676.22</ele><time>2015-04-01T05:37:27Z</time></trkpt><trkpt lat="13.2761149574" lon="38.1197294500"><ele>3677.66</ele><time>2015-04-01T05:37:42Z</time></trkpt><trkpt lat="13.2760737184" lon="38.1198291108"><ele>3680.06</ele><time>2015-04-01T05:37:58Z</time></trkpt><trkpt lat="13.2760383468" lon="38.1198938191"><ele>3681.99</ele><time>2015-04-01T05:38:11Z</time></trkpt><trkpt lat="13.2760080881" lon="38.1199998502"><ele>3685.35</ele><time>2015-04-01T05:38:27Z</time></trkpt><trkpt lat="13.2759847026" lon="38.1200722698"><ele>3686.31</ele><time>2015-04-01T05:38:44Z</time></trkpt><trkpt lat="13.2759888098" lon="38.1200931408"><ele>3685.83</ele><time>2015-04-01T05:38:56Z</time></trkpt><trkpt lat="13.2759525999" lon="38.1201544125"><ele>3686.31</ele><time>2015-04-01T05:39:13Z</time></trkpt><trkpt lat="13.2759597246" lon="38.1202726811"><ele>3685.35</ele><time>2015-04-01T05:39:28Z</time></trkpt><trkpt lat="13.2759292983" lon="38.1203383114"><ele>3685.35</ele><time>2015-04-01T05:39:43Z</time></trkpt><trkpt lat="13.2759697828" lon="38.1203560811"><ele>3684.39</ele><time>2015-04-01T05:39:58Z</time></trkpt><trkpt lat="13.2759463135" lon="38.1204197835"><ele>3685.35</ele><time>2015-04-01T05:40:10Z</time></trkpt><trkpt lat="13.2759058289" lon="38.1204713322"><ele>3686.79</ele><time>2015-04-01T05:40:21Z</time></trkpt><trkpt lat="13.2758312300" lon="38.1205704901"><ele>3688.24</ele><time>2015-04-01T05:40:37Z</time></trkpt><trkpt lat="13.2758142985" lon="38.1206560694"><ele>3689.20</ele><time>2015-04-01T05:40:48Z</time></trkpt><trkpt lat="13.2757976186" lon="38.1208059378"><ele>3691.12</ele><time>2015-04-01T05:41:06Z</time></trkpt><trkpt lat="13.2757808547" lon="38.1208841410"><ele>3693.04</ele><time>2015-04-01T05:41:21Z</time></trkpt><trkpt lat="13.2757655159" lon="38.1209560577"><ele>3693.52</ele><time>2015-04-01T05:41:40Z</time></trkpt><trkpt lat="13.2757937629" lon="38.1210561376"><ele>3694.96</ele><time>2015-04-01T05:41:54Z</time></trkpt><trkpt lat="13.2758091856" lon="38.1211926788"><ele>3696.41</ele><time>2015-04-01T05:42:11Z</time></trkpt><trkpt lat="13.2758357562" lon="38.1213247776"><ele>3698.33</ele><time>2015-04-01T05:42:28Z</time></trkpt><trkpt lat="13.2758376841" lon="38.1213754881"><ele>3700.25</ele><time>2015-04-01T05:42:44Z</time></trkpt><trkpt lat="13.2758555375" lon="38.1214958522"><ele>3701.69</ele><time>2015-04-01T05:43:00Z</time></trkpt><trkpt lat="13.2758913282" lon="38.1216152105"><ele>3703.14</ele><time>2015-04-01T05:43:15Z</time></trkpt><trkpt lat="13.2759283762" lon="38.1217317190"><ele>3704.58</ele><time>2015-04-01T05:43:33Z</time></trkpt><trkpt lat="13.2759348303" lon="38.1217744667"><ele>3706.50</ele><time>2015-04-01T05:43:50Z</time></trkpt><trkpt lat="13.2759690285" lon="38.1218809169"><ele>3706.50</ele><time>2015-04-01T05:44:04Z</time></trkpt><trkpt lat="13.2760088425" lon="38.1219963357"><ele>3706.50</ele><time>2015-04-01T05:44:20Z</time></trkpt><trkpt lat="13.2760253549" lon="38.1220188830"><ele>3707.46</ele><time>2015-04-01T05:44:24Z</time></trkpt><trkpt lat="13.2760768197" lon="38.1221581064"><ele>3708.42</ele><time>2015-04-01T05:44:42Z</time></trkpt><trkpt lat="13.2761357445" lon="38.1222918816"><ele>3710.83</ele><time>2015-04-01T05:45:00Z</time></trkpt><trkpt lat="13.2761769835" lon="38.1224381458"><ele>3711.79</ele><time>2015-04-01T05:45:17Z</time></trkpt><trkpt lat="13.2762022130" lon="38.1225792132"><ele>3712.27</ele><time>2015-04-01T05:45:35Z</time></trkpt><trkpt lat="13.2761821803" lon="38.1227230467"><ele>3713.23</ele><time>2015-04-01T05:45:54Z</time></trkpt><trkpt lat="13.2761542685" lon="38.1227606814"><ele>3714.19</ele><time>2015-04-01T05:46:08Z</time></trkpt><trkpt lat="13.2761643268" lon="38.1227563228"><ele>3716.59</ele><time>2015-04-01T05:46:38Z</time></trkpt><trkpt lat="13.2761666737" lon="38.1227599271"><ele>3716.11</ele><time>2015-04-01T05:46:55Z</time></trkpt><trkpt lat="13.2761556935" lon="38.1227693148"><ele>3716.59</ele><time>2015-04-01T05:47:16Z</time></trkpt><trkpt lat="13.2761540171" lon="38.1227626093"><ele>3717.56</ele><time>2015-04-01T05:47:41Z</time></trkpt><trkpt lat="13.2761610579" lon="38.1227552332"><ele>3719.00</ele><time>2015-04-01T05:48:13Z</time></trkpt><trkpt lat="13.2761582918" lon="38.1227828935"><ele>3718.52</ele><time>2015-04-01T05:48:35Z</time></trkpt><trkpt lat="13.2761644106" lon="38.1227816362"><ele>3718.04</ele><time>2015-04-01T05:48:59Z</time></trkpt><trkpt lat="13.2761528436" lon="38.1228010822"><ele>3717.07</ele><time>2015-04-01T05:49:23Z</time></trkpt><trkpt lat="13.2761774026" lon="38.1227914430"><ele>3716.11</ele><time>2015-04-01T05:49:40Z</time></trkpt><trkpt lat="13.2761667576" lon="38.1227897666"><ele>3716.59</ele><time>2015-04-01T05:50:03Z</time></trkpt><trkpt lat="13.2761787437" lon="38.1228023395"><ele>3715.15</ele><time>2015-04-01T05:50:28Z</time></trkpt><trkpt lat="13.2761828508" lon="38.1228066143"><ele>3715.63</ele><time>2015-04-01T05:51:00Z</time></trkpt><trkpt lat="13.2761759777" lon="38.1227942090"><ele>3715.15</ele><time>2015-04-01T05:51:04Z</time></trkpt><trkpt lat="13.2761672605" lon="38.1227799598"><ele>3714.19</ele><time>2015-04-01T05:51:16Z</time></trkpt><trkpt lat="13.2761808392" lon="38.1228039321"><ele>3714.19</ele><time>2015-04-01T05:51:19Z</time></trkpt><trkpt lat="13.2762655802" lon="38.1229179259"><ele>3715.15</ele><time>2015-04-01T05:51:32Z</time></trkpt><trkpt lat="13.2763806637" lon="38.1230125576"><ele>3716.11</ele><time>2015-04-01T05:51:48Z</time></trkpt><trkpt lat="13.2764878683" lon="38.1231221091"><ele>3716.11</ele><time>2015-04-01T05:52:04Z</time></trkpt><trkpt lat="13.2765768003" lon="38.1232716423"><ele>3718.04</ele><time>2015-04-01T05:52:23Z</time></trkpt><trkpt lat="13.2766570989" lon="38.1234114524"><ele>3717.56</ele><time>2015-04-01T05:52:39Z</time></trkpt><trkpt lat="13.2767590228" lon="38.1235624943"><ele>3716.59</ele><time>2015-04-01T05:52:56Z</time></trkpt><trkpt lat="13.2768348791" lon="38.1236742251"><ele>3715.63</ele><time>2015-04-01T05:53:10Z</time></trkpt><trkpt lat="13.2768988330" lon="38.1237726286"><ele>3715.15</ele><time>2015-04-01T05:53:23Z</time></trkpt><trkpt lat="13.2769119088" lon="38.1237888057"><ele>3715.15</ele><time>2015-04-01T05:53:25Z</time></trkpt><trkpt lat="13.2769737672" lon="38.1239300407"><ele>3716.59</ele><time>2015-04-01T05:53:42Z</time></trkpt><trkpt lat="13.2770411577" lon="38.1240542606"><ele>3717.56</ele><time>2015-04-01T05:53:58Z</time></trkpt><trkpt lat="13.2770968135" lon="38.1241761334"><ele>3717.56</ele><time>2015-04-01T05:54:12Z</time></trkpt><trkpt lat="13.2771147508" lon="38.1242153607"><ele>3717.56</ele><time>2015-04-01T05:54:16Z</time></trkpt><trkpt lat="13.2771683950" lon="38.1243253313"><ele>3719.00</ele><time>2015-04-01T05:54:31Z</time></trkpt><trkpt lat="13.2771832310" lon="38.1243577693"><ele>3719.48</ele><time>2015-04-01T05:54:35Z</time></trkpt><trkpt lat="13.2772373781" lon="38.1245072186"><ele>3719.48</ele><time>2015-04-01T05:54:52Z</time></trkpt><trkpt lat="13.2773083728" lon="38.1246878486"><ele>3719.48</ele><time>2015-04-01T05:55:12Z</time></trkpt><trkpt lat="13.2773804571" lon="38.1247971486"><ele>3720.92</ele><time>2015-04-01T05:55:28Z</time></trkpt><trkpt lat="13.2773974724" lon="38.1248593424"><ele>3720.92</ele><time>2015-04-01T05:55:35Z</time></trkpt><trkpt lat="13.2774346042" lon="38.1249881722"><ele>3722.36</ele><time>2015-04-01T05:55:50Z</time></trkpt><trkpt lat="13.2774433214" lon="38.1250873301"><ele>3722.36</ele><time>2015-04-01T05:56:05Z</time></trkpt><trkpt lat="13.2774994802" lon="38.1251828000"><ele>3723.32</ele><time>2015-04-01T05:56:19Z</time></trkpt><trkpt lat="13.2775496040" lon="38.1252902560"><ele>3724.77</ele><time>2015-04-01T05:56:34Z</time></trkpt><trkpt lat="13.2775873225" lon="38.1254185829"><ele>3725.73</ele><time>2015-04-01T05:56:50Z</time></trkpt><trkpt lat="13.2776452415" lon="38.1255418807"><ele>3726.69</ele><time>2015-04-01T05:57:05Z</time></trkpt><trkpt lat="13.2777028251" lon="38.1256629992"><ele>3728.13</ele><time>2015-04-01T05:57:21Z</time></trkpt><trkpt lat="13.2777458243" lon="38.1257535238"><ele>3728.61</ele><time>2015-04-01T05:57:36Z</time></trkpt><trkpt lat="13.2777594868" lon="38.1258194894"><ele>3730.53</ele><time>2015-04-01T05:57:47Z</time></trkpt><trkpt lat="13.2777791005" lon="38.1259174738"><ele>3731.49</ele><time>2015-04-01T05:58:02Z</time></trkpt><trkpt lat="13.2778450660" lon="38.1260327250"><ele>3733.90</ele><time>2015-04-01T05:58:19Z</time></trkpt><trkpt lat="13.2779066730" lon="38.1261381693"><ele>3735.34</ele><time>2015-04-01T05:58:36Z</time></trkpt><trkpt lat="13.2779464033" lon="38.1262483913"><ele>3738.70</ele><time>2015-04-01T05:58:51Z</time></trkpt><trkpt lat="13.2779671904" lon="38.1263570208"><ele>3739.67</ele><time>2015-04-01T05:59:06Z</time></trkpt><trkpt lat="13.2779655140" lon="38.1264290214"><ele>3740.15</ele><time>2015-04-01T05:59:21Z</time></trkpt><trkpt lat="13.2780244388" lon="38.1265240721"><ele>3743.51</ele><time>2015-04-01T05:59:38Z</time></trkpt><trkpt lat="13.2780886441" lon="38.1266370602"><ele>3745.91</ele><time>2015-04-01T05:59:54Z</time></trkpt><trkpt lat="13.2781198248" lon="38.1266938895"><ele>3747.84</ele><time>2015-04-01T06:00:09Z</time></trkpt><trkpt lat="13.2781396899" lon="38.1267335359"><ele>3749.28</ele><time>2015-04-01T06:00:28Z</time></trkpt><trkpt lat="13.2781347446" lon="38.1267330330"><ele>3749.76</ele><time>2015-04-01T06:00:49Z</time></trkpt><trkpt lat="13.2781816833" lon="38.1267675664"><ele>3748.80</ele><time>2015-04-01T06:01:10Z</time></trkpt><trkpt lat="13.2782412786" lon="38.1268486194"><ele>3750.72</ele><time>2015-04-01T06:01:26Z</time></trkpt><trkpt lat="13.2782879658" lon="38.1269204523"><ele>3751.20</ele><time>2015-04-01T06:01:41Z</time></trkpt><trkpt lat="13.2783446275" lon="38.1270424090"><ele>3753.12</ele><time>2015-04-01T06:02:00Z</time></trkpt><trkpt lat="13.2783780713" lon="38.1271247193"><ele>3755.53</ele><time>2015-04-01T06:02:14Z</time></trkpt><trkpt lat="13.2783996966" lon="38.1271899305"><ele>3756.97</ele><time>2015-04-01T06:02:27Z</time></trkpt><trkpt lat="13.2784110121" lon="38.1272679660"><ele>3757.93</ele><time>2015-04-01T06:02:40Z</time></trkpt><trkpt lat="13.2784186397" lon="38.1273624301"><ele>3756.97</ele><time>2015-04-01T06:02:56Z</time></trkpt><trkpt lat="13.2784445398" lon="38.1274698861"><ele>3758.41</ele><time>2015-04-01T06:03:10Z</time></trkpt><trkpt lat="13.2784468029" lon="38.1274940260"><ele>3758.41</ele><time>2015-04-01T06:03:13Z</time></trkpt><trkpt lat="13.2784722839" lon="38.1276205089"><ele>3759.85</ele><time>2015-04-01T06:03:29Z</time></trkpt><trkpt lat="13.2784918137" lon="38.1276637595"><ele>3760.33</ele><time>2015-04-01T06:03:35Z</time></trkpt><trkpt lat="13.2785561867" lon="38.1277922541"><ele>3762.26</ele><time>2015-04-01T06:03:52Z</time></trkpt><trkpt lat="13.2785735372" lon="38.1278264523"><ele>3764.66</ele><time>2015-04-01T06:04:08Z</time></trkpt><trkpt lat="13.2785989344" lon="38.1278751511"><ele>3764.18</ele><time>2015-04-01T06:04:34Z</time></trkpt><trkpt lat="13.2785762195" lon="38.1279993709"><ele>3764.18</ele><time>2015-04-01T06:04:53Z</time></trkpt><trkpt lat="13.2785716094" lon="38.1280993670"><ele>3765.14</ele><time>2015-04-01T06:05:08Z</time></trkpt><trkpt lat="13.2786051370" lon="38.1282184739"><ele>3766.10</ele><time>2015-04-01T06:05:24Z</time></trkpt><trkpt lat="13.2786364853" lon="38.1283493992"><ele>3767.06</ele><time>2015-04-01T06:05:41Z</time></trkpt><trkpt lat="13.2786637265" lon="38.1284954119"><ele>3769.47</ele><time>2015-04-01T06:05:59Z</time></trkpt><trkpt lat="13.2786988467" lon="38.1286445260"><ele>3771.87</ele><time>2015-04-01T06:06:16Z</time></trkpt><trkpt lat="13.2787467912" lon="38.1287708413"><ele>3771.87</ele><time>2015-04-01T06:06:33Z</time></trkpt><trkpt lat="13.2787661534" lon="38.1288264133"><ele>3773.31</ele><time>2015-04-01T06:06:48Z</time></trkpt><trkpt lat="13.2787943166" lon="38.1289203744"><ele>3774.27</ele><time>2015-04-01T06:07:05Z</time></trkpt><trkpt lat="13.2788366452" lon="38.1290668063"><ele>3776.20</ele><time>2015-04-01T06:07:23Z</time></trkpt><trkpt lat="13.2788999286" lon="38.1292101368"><ele>3777.16</ele><time>2015-04-01T06:07:40Z</time></trkpt><trkpt lat="13.2789293490" lon="38.1293515395"><ele>3778.12</ele><time>2015-04-01T06:07:55Z</time></trkpt><trkpt lat="13.2789806463" lon="38.1294859014"><ele>3778.60</ele><time>2015-04-01T06:08:11Z</time></trkpt><trkpt lat="13.2789893635" lon="38.1295099575"><ele>3779.08</ele><time>2015-04-01T06:08:14Z</time></trkpt><trkpt lat="13.2790359668" lon="38.1296682078"><ele>3780.04</ele><time>2015-04-01T06:08:32Z</time></trkpt><trkpt lat="13.2790746074" lon="38.1297998037"><ele>3780.04</ele><time>2015-04-01T06:08:46Z</time></trkpt><trkpt lat="13.2791376393" lon="38.1299521029"><ele>3779.56</ele><time>2015-04-01T06:09:03Z</time></trkpt><trkpt lat="13.2791537326" lon="38.1299761590"><ele>3779.56</ele><time>2015-04-01T06:09:06Z</time></trkpt><trkpt lat="13.2792308461" lon="38.1301009655"><ele>3782.44</ele><time>2015-04-01T06:09:24Z</time></trkpt><trkpt lat="13.2792689838" lon="38.1302048173"><ele>3782.44</ele><time>2015-04-01T06:09:36Z</time></trkpt><trkpt lat="13.2793354522" lon="38.1303551886"><ele>3784.85</ele><time>2015-04-01T06:09:54Z</time></trkpt><trkpt lat="13.2793556526" lon="38.1304266863"><ele>3783.89</ele><time>2015-04-01T06:10:02Z</time></trkpt><trkpt lat="13.2794128172" lon="38.1305837631"><ele>3783.89</ele><time>2015-04-01T06:10:19Z</time></trkpt><trkpt lat="13.2794487756" lon="38.1306931470"><ele>3784.85</ele><time>2015-04-01T06:10:33Z</time></trkpt><trkpt lat="13.2794963010" lon="38.1307845935"><ele>3787.25</ele><time>2015-04-01T06:10:50Z</time></trkpt><trkpt lat="13.2795035932" lon="38.1308223121"><ele>3787.73</ele><time>2015-04-01T06:11:11Z</time></trkpt><trkpt lat="13.2795599196" lon="38.1309325341"><ele>3788.69</ele><time>2015-04-01T06:11:25Z</time></trkpt><trkpt lat="13.2796118874" lon="38.1310861744"><ele>3791.10</ele><time>2015-04-01T06:11:43Z</time></trkpt><trkpt lat="13.2796255499" lon="38.1311863381"><ele>3792.06</ele><time>2015-04-01T06:11:53Z</time></trkpt><trkpt lat="13.2796807028" lon="38.1313230470"><ele>3793.98</ele><time>2015-04-01T06:12:10Z</time></trkpt><trkpt lat="13.2797235344" lon="38.1314383820"><ele>3794.46</ele><time>2015-04-01T06:12:27Z</time></trkpt><trkpt lat="13.2797648571" lon="38.1315231230"><ele>3795.90</ele><time>2015-04-01T06:12:40Z</time></trkpt><trkpt lat="13.2797709759" lon="38.1315443292"><ele>3796.86</ele><time>2015-04-01T06:12:59Z</time></trkpt><trkpt lat="13.2797967084" lon="38.1316174194"><ele>3796.38</ele><time>2015-04-01T06:13:12Z</time></trkpt><trkpt lat="13.2797915116" lon="38.1316999812"><ele>3795.90</ele><time>2015-04-01T06:13:25Z</time></trkpt><trkpt lat="13.2797793578" lon="38.1317169126"><ele>3795.42</ele><time>2015-04-01T06:13:40Z</time></trkpt><trkpt lat="13.2797932718" lon="38.1317769270"><ele>3796.86</ele><time>2015-04-01T06:13:55Z</time></trkpt><trkpt lat="13.2797875721" lon="38.1317842193"><ele>3797.35</ele><time>2015-04-01T06:14:13Z</time></trkpt><trkpt lat="13.2798459940" lon="38.1318079401"><ele>3797.35</ele><time>2015-04-01T06:14:32Z</time></trkpt><trkpt lat="13.2799166534" lon="38.1319537852"><ele>3799.75</ele><time>2015-04-01T06:14:49Z</time></trkpt><trkpt lat="13.2799313217" lon="38.1319821998"><ele>3801.19</ele><time>2015-04-01T06:15:02Z</time></trkpt><trkpt lat="13.2799535338" lon="38.1320018973"><ele>3801.19</ele><time>2015-04-01T06:15:18Z</time></trkpt><trkpt lat="13.2799714711" lon="38.1320350058"><ele>3801.19</ele><time>2015-04-01T06:15:31Z</time></trkpt><trkpt lat="13.2799952757" lon="38.1320991274"><ele>3801.67</ele><time>2015-04-01T06:15:46Z</time></trkpt><trkpt lat="13.2800381072" lon="38.1321961898"><ele>3803.59</ele><time>2015-04-01T06:16:00Z</time></trkpt><trkpt lat="13.2800672762" lon="38.1322765723"><ele>3804.07</ele><time>2015-04-01T06:16:13Z</time></trkpt><trkpt lat="13.2801215071" lon="38.1324015465"><ele>3806.00</ele><time>2015-04-01T06:16:29Z</time></trkpt><trkpt lat="13.2801504247" lon="38.1324691884"><ele>3807.92</ele><time>2015-04-01T06:16:46Z</time></trkpt><trkpt lat="13.2801811025" lon="38.1325375009"><ele>3809.84</ele><time>2015-04-01T06:17:02Z</time></trkpt><trkpt lat="13.2801842038" lon="38.1325455476"><ele>3812.25</ele><time>2015-04-01T06:17:29Z</time></trkpt><trkpt lat="13.2802058291" lon="38.1325541809"><ele>3812.25</ele><time>2015-04-01T06:17:47Z</time></trkpt><trkpt lat="13.2802277897" lon="38.1325837690"><ele>3812.73</ele><time>2015-04-01T06:17:51Z</time></trkpt><trkpt lat="13.2803010475" lon="38.1327346433"><ele>3815.61</ele><time>2015-04-01T06:18:09Z</time></trkpt><trkpt lat="13.2803362515" lon="38.1328893732"><ele>3817.05</ele><time>2015-04-01T06:18:26Z</time></trkpt><trkpt lat="13.2803416997" lon="38.1329081487"><ele>3816.57</ele><time>2015-04-01T06:18:53Z</time></trkpt><trkpt lat="13.2803476509" lon="38.1329133455"><ele>3817.05</ele><time>2015-04-01T06:19:10Z</time></trkpt><trkpt lat="13.2803558651" lon="38.1329156924"><ele>3818.01</ele><time>2015-04-01T06:19:30Z</time></trkpt><trkpt lat="13.2803678513" lon="38.1329361442"><ele>3818.97</ele><time>2015-04-01T06:19:57Z</time></trkpt><trkpt lat="13.2804640755" lon="38.1330893654"><ele>3820.42</ele><time>2015-04-01T06:20:13Z</time></trkpt><trkpt lat="13.2805347349" lon="38.1332268286"><ele>3820.90</ele><time>2015-04-01T06:20:28Z</time></trkpt><trkpt lat="13.2806089986" lon="38.1333618611"><ele>3819.94</ele><time>2015-04-01T06:20:43Z</time></trkpt><trkpt lat="13.2806966733" lon="38.1334584206"><ele>3820.90</ele><time>2015-04-01T06:20:57Z</time></trkpt><trkpt lat="13.2807497308" lon="38.1335563213"><ele>3822.82</ele><time>2015-04-01T06:21:13Z</time></trkpt><trkpt lat="13.2807638962" lon="38.1335856579"><ele>3822.82</ele><time>2015-04-01T06:21:17Z</time></trkpt><trkpt lat="13.2808518223" lon="38.1337258872"><ele>3824.74</ele><time>2015-04-01T06:21:35Z</time></trkpt><trkpt lat="13.2809147704" lon="38.1338557228"><ele>3825.70</ele><time>2015-04-01T06:21:50Z</time></trkpt><trkpt lat="13.2809762936" lon="38.1339643523"><ele>3825.70</ele><time>2015-04-01T06:22:06Z</time></trkpt><trkpt lat="13.2810065523" lon="38.1341388635"><ele>3825.22</ele><time>2015-04-01T06:22:23Z</time></trkpt><trkpt lat="13.2810430136" lon="38.1342216767"><ele>3826.18</ele><time>2015-04-01T06:22:32Z</time></trkpt><trkpt lat="13.2810772117" lon="38.1343701202"><ele>3829.07</ele><time>2015-04-01T06:22:47Z</time></trkpt><trkpt lat="13.2810979150" lon="38.1344215851"><ele>3830.03</ele><time>2015-04-01T06:22:53Z</time></trkpt><trkpt lat="13.2811813988" lon="38.1346228346"><ele>3832.43</ele><time>2015-04-01T06:23:12Z</time></trkpt><trkpt lat="13.2812230568" lon="38.1347468868"><ele>3832.43</ele><time>2015-04-01T06:23:27Z</time></trkpt><trkpt lat="13.2812642958" lon="38.1348283589"><ele>3832.91</ele><time>2015-04-01T06:23:36Z</time></trkpt><trkpt lat="13.2813418284" lon="38.1349723600"><ele>3833.39</ele><time>2015-04-01T06:23:53Z</time></trkpt><trkpt lat="13.2813845761" lon="38.1350985914"><ele>3833.39</ele><time>2015-04-01T06:24:05Z</time></trkpt><trkpt lat="13.2814458478" lon="38.1351980008"><ele>3834.84</ele><time>2015-04-01T06:24:18Z</time></trkpt><trkpt lat="13.2815135736" lon="38.1353212148"><ele>3837.24</ele><time>2015-04-01T06:24:33Z</time></trkpt><trkpt lat="13.2815864123" lon="38.1354539841"><ele>3838.68</ele><time>2015-04-01T06:24:46Z</time></trkpt><trkpt lat="13.2816838939" lon="38.1356481928"><ele>3838.20</ele><time>2015-04-01T06:25:03Z</time></trkpt><trkpt lat="13.2817933615" lon="38.1358003244"><ele>3840.12</ele><time>2015-04-01T06:25:20Z</time></trkpt><trkpt lat="13.2818089519" lon="38.1358372048"><ele>3841.08</ele><time>2015-04-01T06:25:37Z</time></trkpt><trkpt lat="13.2818378694" lon="38.1358795334"><ele>3841.57</ele><time>2015-04-01T06:25:52Z</time></trkpt><trkpt lat="13.2818980515" lon="38.1359509472"><ele>3842.53</ele><time>2015-04-01T06:26:09Z</time></trkpt><trkpt lat="13.2819104567" lon="38.1359708961"><ele>3843.01</ele><time>2015-04-01T06:26:12Z</time></trkpt><trkpt lat="13.2819744106" lon="38.1361064315"><ele>3843.97</ele><time>2015-04-01T06:26:28Z</time></trkpt><trkpt lat="13.2820670307" lon="38.1362426374"><ele>3845.89</ele><time>2015-04-01T06:26:47Z</time></trkpt><trkpt lat="13.2821039949" lon="38.1363523565"><ele>3846.85</ele><time>2015-04-01T06:27:02Z</time></trkpt><trkpt lat="13.2821791805" lon="38.1364465691"><ele>3847.33</ele><time>2015-04-01T06:27:15Z</time></trkpt><trkpt lat="13.2822397817" lon="38.1365594734"><ele>3848.29</ele><time>2015-04-01T06:27:30Z</time></trkpt><trkpt lat="13.2823041547" lon="38.1367012113"><ele>3849.74</ele><time>2015-04-01T06:27:48Z</time></trkpt><trkpt lat="13.2823291328" lon="38.1367998663"><ele>3850.70</ele><time>2015-04-01T06:28:06Z</time></trkpt><trkpt lat="13.2823918294" lon="38.1369124353"><ele>3851.18</ele><time>2015-04-01T06:28:21Z</time></trkpt><trkpt lat="13.2824202441" lon="38.1369610503"><ele>3851.66</ele><time>2015-04-01T06:28:27Z</time></trkpt><trkpt lat="13.2824564539" lon="38.1370323803"><ele>3851.66</ele><time>2015-04-01T06:28:41Z</time></trkpt><trkpt lat="13.2825002912" lon="38.1371881999"><ele>3854.06</ele><time>2015-04-01T06:28:59Z</time></trkpt><trkpt lat="13.2825547736" lon="38.1372539140"><ele>3854.06</ele><time>2015-04-01T06:29:12Z</time></trkpt><trkpt lat="13.2825836074" lon="38.1372865196"><ele>3855.50</ele><time>2015-04-01T06:29:28Z</time></trkpt><trkpt lat="13.2826318871" lon="38.1373870187"><ele>3856.47</ele><time>2015-04-01T06:29:42Z</time></trkpt><trkpt lat="13.2826825976" lon="38.1374814827"><ele>3856.95</ele><time>2015-04-01T06:29:55Z</time></trkpt><trkpt lat="13.2826876268" lon="38.1375021022"><ele>3857.43</ele><time>2015-04-01T06:29:57Z</time></trkpt><trkpt lat="13.2827420253" lon="38.1376497913"><ele>3857.43</ele><time>2015-04-01T06:30:14Z</time></trkpt><trkpt lat="13.2827994414" lon="38.1377629470"><ele>3858.39</ele><time>2015-04-01T06:30:30Z</time></trkpt><trkpt lat="13.2828304544" lon="38.1378507894"><ele>3859.83</ele><time>2015-04-01T06:30:47Z</time></trkpt><trkpt lat="13.2828167081" lon="38.1378407311"><ele>3860.31</ele><time>2015-04-01T06:31:06Z</time></trkpt><trkpt lat="13.2828159537" lon="38.1378388032"><ele>3861.27</ele><time>2015-04-01T06:31:30Z</time></trkpt><trkpt lat="13.2828411832" lon="38.1378754321"><ele>3861.75</ele><time>2015-04-01T06:31:58Z</time></trkpt><trkpt lat="13.2828504033" lon="38.1378856581"><ele>3861.27</ele><time>2015-04-01T06:32:16Z</time></trkpt><trkpt lat="13.2828464638" lon="38.1378933694"><ele>3859.83</ele><time>2015-04-01T06:32:49Z</time></trkpt><trkpt lat="13.2829100825" lon="38.1380218640"><ele>3860.79</ele><time>2015-04-01T06:33:05Z</time></trkpt><trkpt lat="13.2829645649" lon="38.1381461676"><ele>3861.27</ele><time>2015-04-01T06:33:21Z</time></trkpt><trkpt lat="13.2830378227" lon="38.1382274721"><ele>3862.71</ele><time>2015-04-01T06:33:35Z</time></trkpt><trkpt lat="13.2831513137" lon="38.1383671146"><ele>3863.68</ele><time>2015-04-01T06:33:53Z</time></trkpt><trkpt lat="13.2832619548" lon="38.1384688709"><ele>3865.12</ele><time>2015-04-01T06:34:09Z</time></trkpt><trkpt lat="13.2832836639" lon="38.1384782586"><ele>3865.60</ele><time>2015-04-01T06:34:12Z</time></trkpt><trkpt lat="13.2833843306" lon="38.1386038195"><ele>3867.04</ele><time>2015-04-01T06:34:31Z</time></trkpt><trkpt lat="13.2834759448" lon="38.1387066655"><ele>3868.00</ele><time>2015-04-01T06:34:46Z</time></trkpt><trkpt lat="13.2835641224" lon="38.1387950946"><ele>3867.52</ele><time>2015-04-01T06:34:59Z</time></trkpt><trkpt lat="13.2836773619" lon="38.1389073282"><ele>3869.44</ele><time>2015-04-01T06:35:17Z</time></trkpt><trkpt lat="13.2837642822" lon="38.1390093360"><ele>3870.41</ele><time>2015-04-01T06:35:31Z</time></trkpt><trkpt lat="13.2838805392" lon="38.1391523313"><ele>3871.37</ele><time>2015-04-01T06:35:49Z</time></trkpt><trkpt lat="13.2839894202" lon="38.1392501481"><ele>3872.33</ele><time>2015-04-01T06:36:04Z</time></trkpt><trkpt lat="13.2841027435" lon="38.1393737812"><ele>3872.81</ele><time>2015-04-01T06:36:22Z</time></trkpt><trkpt lat="13.2841814496" lon="38.1394495536"><ele>3873.77</ele><time>2015-04-01T06:36:37Z</time></trkpt><trkpt lat="13.2842255384" lon="38.1394886132"><ele>3875.21</ele><time>2015-04-01T06:36:52Z</time></trkpt><trkpt lat="13.2843159791" lon="38.1395864300"><ele>3876.17</ele><time>2015-04-01T06:37:10Z</time></trkpt><trkpt lat="13.2844170649" lon="38.1396652199"><ele>3877.62</ele><time>2015-04-01T06:37:27Z</time></trkpt><trkpt lat="13.2844893169" lon="38.1397281680"><ele>3878.58</ele><time>2015-04-01T06:37:42Z</time></trkpt><trkpt lat="13.2845709566" lon="38.1398008391"><ele>3880.50</ele><time>2015-04-01T06:37:59Z</time></trkpt><trkpt lat="13.2846351620" lon="38.1398758572"><ele>3881.46</ele><time>2015-04-01T06:38:15Z</time></trkpt><trkpt lat="13.2846719585" lon="38.1399521325"><ele>3883.38</ele><time>2015-04-01T06:38:30Z</time></trkpt><trkpt lat="13.2846964337" lon="38.1400597561"><ele>3884.34</ele><time>2015-04-01T06:38:48Z</time></trkpt><trkpt lat="13.2847240102" lon="38.1401280686"><ele>3885.31</ele><time>2015-04-01T06:38:56Z</time></trkpt><trkpt lat="13.2848028000" lon="38.1402692199"><ele>3886.27</ele><time>2015-04-01T06:39:13Z</time></trkpt><trkpt lat="13.2848331425" lon="38.1403524522"><ele>3888.19</ele><time>2015-04-01T06:39:28Z</time></trkpt><trkpt lat="13.2848863676" lon="38.1404815335"><ele>3889.15</ele><time>2015-04-01T06:39:43Z</time></trkpt><trkpt lat="13.2849536743" lon="38.1406057533"><ele>3891.07</ele><time>2015-04-01T06:39:59Z</time></trkpt><trkpt lat="13.2849979308" lon="38.1407213397"><ele>3891.55</ele><time>2015-04-01T06:40:13Z</time></trkpt><trkpt lat="13.2850485574" lon="38.1408471521"><ele>3892.52</ele><time>2015-04-01T06:40:27Z</time></trkpt><trkpt lat="13.2851219829" lon="38.1409986131"><ele>3892.52</ele><time>2015-04-01T06:40:44Z</time></trkpt><trkpt lat="13.2851560973" lon="38.1410964299"><ele>3893.00</ele><time>2015-04-01T06:40:54Z</time></trkpt><trkpt lat="13.2851719391" lon="38.1411281973"><ele>3893.48</ele><time>2015-04-01T06:40:57Z</time></trkpt><trkpt lat="13.2852054667" lon="38.1412806641"><ele>3893.96</ele><time>2015-04-01T06:41:11Z</time></trkpt><trkpt lat="13.2852529921" lon="38.1413845997"><ele>3893.96</ele><time>2015-04-01T06:41:23Z</time></trkpt><trkpt lat="13.2852810714" lon="38.1414415967"><ele>3893.96</ele><time>2015-04-01T06:41:31Z</time></trkpt><trkpt lat="13.2852912974" lon="38.1415626314"><ele>3894.44</ele><time>2015-04-01T06:41:44Z</time></trkpt><trkpt lat="13.2853692491" lon="38.1416944787"><ele>3894.44</ele><time>2015-04-01T06:42:00Z</time></trkpt><trkpt lat="13.2853795588" lon="38.1416929699"><ele>3894.92</ele><time>2015-04-01T06:42:06Z</time></trkpt><trkpt lat="13.2854354661" lon="38.1417140085"><ele>3895.88</ele><time>2015-04-01T06:42:21Z</time></trkpt><trkpt lat="13.2854282577" lon="38.1417173613"><ele>3893.96</ele><time>2015-04-01T06:42:42Z</time></trkpt><trkpt lat="13.2854238991" lon="38.1416886952"><ele>3892.52</ele><time>2015-04-01T06:43:00Z</time></trkpt><trkpt lat="13.2854451053" lon="38.1416881923"><ele>3892.04</ele><time>2015-04-01T06:43:14Z</time></trkpt><trkpt lat="13.2854640484" lon="38.1416632980"><ele>3892.04</ele><time>2015-04-01T06:43:36Z</time></trkpt><trkpt lat="13.2854380645" lon="38.1416402478"><ele>3892.04</ele><time>2015-04-01T06:44:00Z</time></trkpt><trkpt lat="13.2854286768" lon="38.1416700874"><ele>3888.67</ele><time>2015-04-01T06:44:21Z</time></trkpt><trkpt lat="13.2854294311" lon="38.1416678242"><ele>3888.67</ele><time>2015-04-01T06:44:44Z</time></trkpt><trkpt lat="13.2854484580" lon="38.1416817382"><ele>3890.11</ele><time>2015-04-01T06:45:05Z</time></trkpt><trkpt lat="13.2854327001" lon="38.1416920479"><ele>3890.59</ele><time>2015-04-01T06:45:24Z</time></trkpt><trkpt lat="13.2854358852" lon="38.1417067163"><ele>3889.63</ele><time>2015-04-01T06:45:39Z</time></trkpt><trkpt lat="13.2854233962" lon="38.1417086441"><ele>3889.15</ele><time>2015-04-01T06:45:55Z</time></trkpt><trkpt lat="13.2854554150" lon="38.1417071354"><ele>3887.23</ele><time>2015-04-01T06:46:08Z</time></trkpt><trkpt lat="13.2854684070" lon="38.1416692492"><ele>3885.79</ele><time>2015-04-01T06:46:19Z</time></trkpt><trkpt lat="13.2854318619" lon="38.1416705903"><ele>3885.31</ele><time>2015-04-01T06:46:35Z</time></trkpt><trkpt lat="13.2854382321" lon="38.1416995917"><ele>3884.82</ele><time>2015-04-01T06:47:01Z</time></trkpt><trkpt lat="13.2854271680" lon="38.1417060457"><ele>3884.82</ele><time>2015-04-01T06:47:26Z</time></trkpt><trkpt lat="13.2854248211" lon="38.1417118292"><ele>3884.82</ele><time>2015-04-01T06:47:27Z</time></trkpt><trkpt lat="13.2854382321" lon="38.1417548284"><ele>3884.82</ele><time>2015-04-01T06:47:31Z</time></trkpt><trkpt lat="13.2855288405" lon="38.1418451015"><ele>3886.27</ele><time>2015-04-01T06:47:45Z</time></trkpt><trkpt lat="13.2855459396" lon="38.1418414973"><ele>3887.23</ele><time>2015-04-01T06:48:11Z</time></trkpt><trkpt lat="13.2855463587" lon="38.1418332830"><ele>3891.55</ele><time>2015-04-01T06:48:48Z</time></trkpt><trkpt lat="13.2855481189" lon="38.1418330316"><ele>3893.48</ele><time>2015-04-01T06:49:05Z</time></trkpt><trkpt lat="13.2855469454" lon="38.1418369710"><ele>3894.44</ele><time>2015-04-01T06:49:23Z</time></trkpt><trkpt lat="13.2855353784" lon="38.1418269966"><ele>3895.40</ele><time>2015-04-01T06:49:53Z</time></trkpt><trkpt lat="13.2855143398" lon="38.1418124959"><ele>3895.40</ele><time>2015-04-01T06:49:56Z</time></trkpt><trkpt lat="13.2854587678" lon="38.1417630427"><ele>3894.92</ele><time>2015-04-01T06:50:09Z</time></trkpt><trkpt lat="13.2854321133" lon="38.1416928023"><ele>3893.48</ele><time>2015-04-01T06:50:21Z</time></trkpt><trkpt lat="13.2854830753" lon="38.1417746097"><ele>3892.04</ele><time>2015-04-01T06:50:29Z</time></trkpt><trkpt lat="13.2854912058" lon="38.1417820696"><ele>3891.55</ele><time>2015-04-01T06:50:34Z</time></trkpt><trkpt lat="13.2854682393" lon="38.1418286730"><ele>3891.07</ele><time>2015-04-01T06:50:38Z</time></trkpt><trkpt lat="13.2854604442" lon="38.1418899447"><ele>3891.07</ele><time>2015-04-01T06:50:43Z</time></trkpt><trkpt lat="13.2854476199" lon="38.1419340335"><ele>3891.07</ele><time>2015-04-01T06:50:47Z</time></trkpt><trkpt lat="13.2854228932" lon="38.1419939641"><ele>3890.11</ele><time>2015-04-01T06:50:52Z</time></trkpt><trkpt lat="13.2854162715" lon="38.1421119813"><ele>3890.11</ele><time>2015-04-01T06:51:01Z</time></trkpt><trkpt lat="13.2854883559" lon="38.1421828084"><ele>3890.59</ele><time>2015-04-01T06:51:09Z</time></trkpt><trkpt lat="13.2854892779" lon="38.1422685552"><ele>3890.59</ele><time>2015-04-01T06:51:16Z</time></trkpt><trkpt lat="13.2854999229" lon="38.1423200201"><ele>3890.59</ele><time>2015-04-01T06:51:20Z</time></trkpt><trkpt lat="13.2856245618" lon="38.1425184198"><ele>3890.59</ele><time>2015-04-01T06:51:38Z</time></trkpt><trkpt lat="13.2856279984" lon="38.1425278913"><ele>3890.59</ele><time>2015-04-01T06:51:41Z</time></trkpt><trkpt lat="13.2856347878" lon="38.1425666157"><ele>3890.59</ele><time>2015-04-01T06:51:45Z</time></trkpt><trkpt lat="13.2856519707" lon="38.1426156498"><ele>3890.59</ele><time>2015-04-01T06:51:50Z</time></trkpt><trkpt lat="13.2857020106" lon="38.1426563859"><ele>3890.59</ele><time>2015-04-01T06:52:08Z</time></trkpt><trkpt lat="13.2857169304" lon="38.1426754128"><ele>3891.07</ele><time>2015-04-01T06:52:23Z</time></trkpt><trkpt lat="13.2857086323" lon="38.1426998880"><ele>3890.59</ele><time>2015-04-01T06:52:37Z</time></trkpt><trkpt lat="13.2857261505" lon="38.1427583937"><ele>3891.07</ele><time>2015-04-01T06:52:46Z</time></trkpt><trkpt lat="13.2857164275" lon="38.1427276321"><ele>3890.59</ele><time>2015-04-01T06:53:03Z</time></trkpt><trkpt lat="13.2857063692" lon="38.1427225191"><ele>3891.07</ele><time>2015-04-01T06:53:31Z</time></trkpt><trkpt lat="13.2857048605" lon="38.1427191664"><ele>3890.11</ele><time>2015-04-01T06:54:06Z</time></trkpt><trkpt lat="13.2857133262" lon="38.1427132990"><ele>3891.55</ele><time>2015-04-01T06:54:45Z</time></trkpt><trkpt lat="13.2857191097" lon="38.1427298114"><ele>3891.55</ele><time>2015-04-01T06:55:06Z</time></trkpt><trkpt lat="13.2856761105" lon="38.1427286379"><ele>3889.63</ele><time>2015-04-01T06:55:23Z</time></trkpt><trkpt lat="13.2856525574" lon="38.1427359302"><ele>3889.15</ele><time>2015-04-01T06:55:41Z</time></trkpt><trkpt lat="13.2856528927" lon="38.1427625846"><ele>3887.71</ele><time>2015-04-01T06:55:55Z</time></trkpt><trkpt lat="13.2856567483" lon="38.1427704636"><ele>3887.71</ele><time>2015-04-01T06:55:56Z</time></trkpt><trkpt lat="13.2857276592" lon="38.1428622454"><ele>3887.71</ele><time>2015-04-01T06:56:10Z</time></trkpt><trkpt lat="13.2857503742" lon="38.1428868044"><ele>3886.75</ele><time>2015-04-01T06:56:37Z</time></trkpt><trkpt lat="13.2857456803" lon="38.1428938452"><ele>3886.75</ele><time>2015-04-01T06:56:39Z</time></trkpt><trkpt lat="13.2857722510" lon="38.1429343298"><ele>3886.75</ele><time>2015-04-01T06:56:43Z</time></trkpt><trkpt lat="13.2858509570" lon="38.1430199090"><ele>3885.31</ele><time>2015-04-01T06:56:56Z</time></trkpt><trkpt lat="13.2858798746" lon="38.1430686079"><ele>3886.75</ele><time>2015-04-01T06:57:14Z</time></trkpt><trkpt lat="13.2859147433" lon="38.1430946756"><ele>3889.63</ele><time>2015-04-01T06:57:27Z</time></trkpt><trkpt lat="13.2860118058" lon="38.1432001200"><ele>3892.04</ele><time>2015-04-01T06:57:39Z</time></trkpt><trkpt lat="13.2860663719" lon="38.1433346495"><ele>3894.44</ele><time>2015-04-01T06:57:53Z</time></trkpt><trkpt lat="13.2860687189" lon="38.1433451269"><ele>3895.88</ele><time>2015-04-01T06:58:04Z</time></trkpt><trkpt lat="13.2860940322" lon="38.1434130203"><ele>3896.36</ele><time>2015-04-01T06:58:10Z</time></trkpt><trkpt lat="13.2861623447" lon="38.1435755454"><ele>3898.28</ele><time>2015-04-01T06:58:25Z</time></trkpt><trkpt lat="13.2861685473" lon="38.1435814127"><ele>3897.32</ele><time>2015-04-01T06:58:38Z</time></trkpt><trkpt lat="13.2861757558" lon="38.1436831690"><ele>3896.84</ele><time>2015-04-01T06:58:54Z</time></trkpt><trkpt lat="13.2861921005" lon="38.1437117513"><ele>3897.32</ele><time>2015-04-01T06:58:57Z</time></trkpt><trkpt lat="13.2862117141" lon="38.1437816564"><ele>3898.76</ele><time>2015-04-01T06:59:04Z</time></trkpt><trkpt lat="13.2861941960" lon="38.1438095681"><ele>3899.24</ele><time>2015-04-01T06:59:08Z</time></trkpt><trkpt lat="13.2861940283" lon="38.1438320316"><ele>3899.73</ele><time>2015-04-01T06:59:10Z</time></trkpt><trkpt lat="13.2861839700" lon="38.1438955665"><ele>3899.73</ele><time>2015-04-01T06:59:15Z</time></trkpt><trkpt lat="13.2861965429" lon="38.1439611129"><ele>3899.73</ele><time>2015-04-01T06:59:20Z</time></trkpt><trkpt lat="13.2862167433" lon="38.1441597641"><ele>3902.13</ele><time>2015-04-01T06:59:37Z</time></trkpt><trkpt lat="13.2862189226" lon="38.1441668049"><ele>3902.13</ele><time>2015-04-01T06:59:38Z</time></trkpt><trkpt lat="13.2862682082" lon="38.1442685612"><ele>3904.05</ele><time>2015-04-01T06:59:53Z</time></trkpt><trkpt lat="13.2862729859" lon="38.1442893483"><ele>3904.05</ele><time>2015-04-01T07:00:04Z</time></trkpt><trkpt lat="13.2862568088" lon="38.1443522125"><ele>3903.09</ele><time>2015-04-01T07:00:17Z</time></trkpt><trkpt lat="13.2862539589" lon="38.1443849858"><ele>3904.53</ele><time>2015-04-01T07:00:27Z</time></trkpt><trkpt lat="13.2862698007" lon="38.1444147415"><ele>3904.53</ele><time>2015-04-01T07:00:30Z</time></trkpt><trkpt lat="13.2862687111" lon="38.1444340199"><ele>3905.01</ele><time>2015-04-01T07:00:32Z</time></trkpt><trkpt lat="13.2862560544" lon="38.1444627699"><ele>3905.01</ele><time>2015-04-01T07:00:35Z</time></trkpt><trkpt lat="13.2862538751" lon="38.1445535459"><ele>3905.01</ele><time>2015-04-01T07:00:51Z</time></trkpt><trkpt lat="13.2862548809" lon="38.1446615048"><ele>3904.53</ele><time>2015-04-01T07:01:04Z</time></trkpt><trkpt lat="13.2862361893" lon="38.1447290629"><ele>3901.65</ele><time>2015-04-01T07:01:20Z</time></trkpt><trkpt lat="13.2862400450" lon="38.1448115408"><ele>3899.24</ele><time>2015-04-01T07:01:34Z</time></trkpt><trkpt lat="13.2862806972" lon="38.1449165661"><ele>3898.28</ele><time>2015-04-01T07:01:47Z</time></trkpt><trkpt lat="13.2862737402" lon="38.1449943502"><ele>3900.69</ele><time>2015-04-01T07:02:02Z</time></trkpt><trkpt lat="13.2862726506" lon="38.1450370140"><ele>3903.09</ele><time>2015-04-01T07:02:12Z</time></trkpt><trkpt lat="13.2862930186" lon="38.1451790035"><ele>3904.53</ele><time>2015-04-01T07:02:26Z</time></trkpt><trkpt lat="13.2862936892" lon="38.1451842841"><ele>3904.53</ele><time>2015-04-01T07:02:27Z</time></trkpt><trkpt lat="13.2863034960" lon="38.1452177279"><ele>3904.05</ele><time>2015-04-01T07:02:31Z</time></trkpt><trkpt lat="13.2862936053" lon="38.1453552749"><ele>3903.57</ele><time>2015-04-01T07:02:46Z</time></trkpt><trkpt lat="13.2862734050" lon="38.1454592943"><ele>3904.05</ele><time>2015-04-01T07:03:02Z</time></trkpt><trkpt lat="13.2862721477" lon="38.1454775669"><ele>3906.45</ele><time>2015-04-01T07:03:17Z</time></trkpt><trkpt lat="13.2862663642" lon="38.1454881281"><ele>3906.94</ele><time>2015-04-01T07:03:20Z</time></trkpt><trkpt lat="13.2862668671" lon="38.1455238350"><ele>3907.42</ele><time>2015-04-01T07:03:23Z</time></trkpt><trkpt lat="13.2862365246" lon="38.1456613820"><ele>3910.30</ele><time>2015-04-01T07:03:37Z</time></trkpt><trkpt lat="13.2862386201" lon="38.1456880365"><ele>3910.78</ele><time>2015-04-01T07:03:40Z</time></trkpt><trkpt lat="13.2862709742" lon="38.1457806565"><ele>3913.66</ele><time>2015-04-01T07:03:55Z</time></trkpt><trkpt lat="13.2863422204" lon="38.1458253320"><ele>3917.03</ele><time>2015-04-01T07:04:09Z</time></trkpt><trkpt lat="13.2863683719" lon="38.1458839215"><ele>3920.39</ele><time>2015-04-01T07:04:24Z</time></trkpt><trkpt lat="13.2863800228" lon="38.1459037866"><ele>3923.28</ele><time>2015-04-01T07:04:41Z</time></trkpt><trkpt lat="13.2864029054" lon="38.1459123362"><ele>3927.12</ele><time>2015-04-01T07:05:01Z</time></trkpt><trkpt lat="13.2864426356" lon="38.1459475402"><ele>3929.53</ele><time>2015-04-01T07:05:18Z</time></trkpt><trkpt lat="13.2865076791" lon="38.1459966581"><ele>3927.12</ele><time>2015-04-01T07:05:31Z</time></trkpt><trkpt lat="13.2865362614" lon="38.1460141763"><ele>3924.24</ele><time>2015-04-01T07:05:47Z</time></trkpt><trkpt lat="13.2865515165" lon="38.1460268330"><ele>3924.72</ele><time>2015-04-01T07:06:17Z</time></trkpt><trkpt lat="13.2865884807" lon="38.1460255757"><ele>3923.76</ele><time>2015-04-01T07:06:29Z</time></trkpt><trkpt lat="13.2866500877" lon="38.1460324489"><ele>3923.28</ele><time>2015-04-01T07:06:43Z</time></trkpt><trkpt lat="13.2866694499" lon="38.1460128352"><ele>3923.28</ele><time>2015-04-01T07:06:59Z</time></trkpt><trkpt lat="13.2866782509" lon="38.1460176129"><ele>3920.87</ele><time>2015-04-01T07:07:21Z</time></trkpt><trkpt lat="13.2866824418" lon="38.1460092310"><ele>3919.91</ele><time>2015-04-01T07:07:42Z</time></trkpt><trkpt lat="13.2866930868" lon="38.1460094824"><ele>3919.43</ele><time>2015-04-01T07:07:57Z</time></trkpt><trkpt lat="13.2867047377" lon="38.1460031122"><ele>3919.43</ele><time>2015-04-01T07:08:12Z</time></trkpt><trkpt lat="13.2867025584" lon="38.1459806487"><ele>3920.39</ele><time>2015-04-01T07:08:39Z</time></trkpt><trkpt lat="13.2866913266" lon="38.1459682435"><ele>3923.28</ele><time>2015-04-01T07:09:06Z</time></trkpt><trkpt lat="13.2866981160" lon="38.1459856778"><ele>3925.20</ele><time>2015-04-01T07:09:24Z</time></trkpt><trkpt lat="13.2866985351" lon="38.1459917966"><ele>3927.60</ele><time>2015-04-01T07:09:54Z</time></trkpt><trkpt lat="13.2866998762" lon="38.1459943950"><ele>3928.56</ele><time>2015-04-01T07:10:23Z</time></trkpt><trkpt lat="13.2866743952" lon="38.1459872704"><ele>3929.53</ele><time>2015-04-01T07:10:52Z</time></trkpt><trkpt lat="13.2866660133" lon="38.1460000947"><ele>3928.08</ele><time>2015-04-01T07:11:06Z</time></trkpt><trkpt lat="13.2866728026" lon="38.1460140087"><ele>3926.64</ele><time>2015-04-01T07:11:29Z</time></trkpt><trkpt lat="13.2866869681" lon="38.1460132543"><ele>3924.72</ele><time>2015-04-01T07:11:45Z</time></trkpt><trkpt lat="13.2866730541" lon="38.1460032798"><ele>3923.76</ele><time>2015-04-01T07:12:14Z</time></trkpt><trkpt lat="13.2866764907" lon="38.1460089795"><ele>3922.32</ele><time>2015-04-01T07:12:45Z</time></trkpt><trkpt lat="13.2866861299" lon="38.1459972449"><ele>3922.80</ele><time>2015-04-01T07:13:15Z</time></trkpt><trkpt lat="13.2866750658" lon="38.1460130867"><ele>3924.24</ele><time>2015-04-01T07:13:37Z</time></trkpt><trkpt lat="13.2866768260" lon="38.1460047886"><ele>3924.72</ele><time>2015-04-01T07:13:58Z</time></trkpt><trkpt lat="13.2866733056" lon="38.1459762063"><ele>3924.72</ele><time>2015-04-01T07:14:17Z</time></trkpt><trkpt lat="13.2866848726" lon="38.1459873542"><ele>3924.72</ele><time>2015-04-01T07:14:33Z</time></trkpt><trkpt lat="13.2866682764" lon="38.1459862646"><ele>3924.72</ele><time>2015-04-01T07:14:55Z</time></trkpt><trkpt lat="13.2866574638" lon="38.1459912937"><ele>3925.68</ele><time>2015-04-01T07:15:34Z</time></trkpt><trkpt lat="13.2866547816" lon="38.1459989212"><ele>3926.64</ele><time>2015-04-01T07:15:56Z</time></trkpt><trkpt lat="13.2866581343" lon="38.1459997594"><ele>3926.64</ele><time>2015-04-01T07:16:14Z</time></trkpt><trkpt lat="13.2866525184" lon="38.1460057106"><ele>3927.12</ele><time>2015-04-01T07:16:34Z</time></trkpt><trkpt lat="13.2866473217" lon="38.1460097339"><ele>3928.08</ele><time>2015-04-01T07:16:55Z</time></trkpt><trkpt lat="13.2866076753" lon="38.1460148469"><ele>3927.60</ele><time>2015-04-01T07:17:15Z</time></trkpt><trkpt lat="13.2866018917" lon="38.1460200436"><ele>3928.56</ele><time>2015-04-01T07:17:34Z</time></trkpt><trkpt lat="13.2865868043" lon="38.1460146792"><ele>3929.05</ele><time>2015-04-01T07:17:58Z</time></trkpt><trkpt lat="13.2865376025" lon="38.1459803134"><ele>3926.64</ele><time>2015-04-01T07:18:13Z</time></trkpt><trkpt lat="13.2865049969" lon="38.1459679082"><ele>3925.20</ele><time>2015-04-01T07:18:29Z</time></trkpt><trkpt lat="13.2864526100" lon="38.1459467858"><ele>3925.20</ele><time>2015-04-01T07:18:43Z</time></trkpt><trkpt lat="13.2864356786" lon="38.1459342968"><ele>3924.24</ele><time>2015-04-01T07:18:57Z</time></trkpt><trkpt lat="13.2864259556" lon="38.1459169462"><ele>3923.76</ele><time>2015-04-01T07:19:18Z</time></trkpt><trkpt lat="13.2864205912" lon="38.1459171977"><ele>3923.28</ele><time>2015-04-01T07:19:38Z</time></trkpt><trkpt lat="13.2864101976" lon="38.1459044572"><ele>3921.84</ele><time>2015-04-01T07:19:53Z</time></trkpt><trkpt lat="13.2863974571" lon="38.1459171139"><ele>3919.91</ele><time>2015-04-01T07:20:11Z</time></trkpt><trkpt lat="13.2863793522" lon="38.1459099893"><ele>3917.99</ele><time>2015-04-01T07:20:27Z</time></trkpt><trkpt lat="13.2863757480" lon="38.1459046248"><ele>3918.95</ele><time>2015-04-01T07:20:51Z</time></trkpt><trkpt lat="13.2863749098" lon="38.1458740309"><ele>3918.47</ele><time>2015-04-01T07:20:55Z</time></trkpt><trkpt lat="13.2863425557" lon="38.1458306126"><ele>3916.55</ele><time>2015-04-01T07:21:04Z</time></trkpt><trkpt lat="13.2862968743" lon="38.1457995158"><ele>3915.11</ele><time>2015-04-01T07:21:12Z</time></trkpt><trkpt lat="13.2862874866" lon="38.1457784772"><ele>3914.63</ele><time>2015-04-01T07:21:14Z</time></trkpt><trkpt lat="13.2862489298" lon="38.1456845161"><ele>3912.70</ele><time>2015-04-01T07:21:23Z</time></trkpt><trkpt lat="13.2862718124" lon="38.1455735397"><ele>3911.74</ele><time>2015-04-01T07:21:37Z</time></trkpt><trkpt lat="13.2862793561" lon="38.1455204822"><ele>3912.22</ele><time>2015-04-01T07:22:01Z</time></trkpt><trkpt lat="13.2862706389" lon="38.1454663351"><ele>3910.78</ele><time>2015-04-01T07:22:16Z</time></trkpt><trkpt lat="13.2862828765" lon="38.1454146188"><ele>3908.86</ele><time>2015-04-01T07:22:31Z</time></trkpt><trkpt lat="13.2862967066" lon="38.1452732161"><ele>3906.45</ele><time>2015-04-01T07:22:46Z</time></trkpt><trkpt lat="13.2862975448" lon="38.1452423707"><ele>3905.97</ele><time>2015-04-01T07:22:48Z</time></trkpt><trkpt lat="13.2862835471" lon="38.1451137923"><ele>3904.05</ele><time>2015-04-01T07:23:01Z</time></trkpt><trkpt lat="13.2862715609" lon="38.1450163946"><ele>3904.53</ele><time>2015-04-01T07:23:16Z</time></trkpt><trkpt lat="13.2862784341" lon="38.1449417956"><ele>3902.61</ele><time>2015-04-01T07:23:29Z</time></trkpt><trkpt lat="13.2862860616" lon="38.1449207570"><ele>3901.17</ele><time>2015-04-01T07:23:40Z</time></trkpt><trkpt lat="13.2862753328" lon="38.1448464934"><ele>3899.73</ele><time>2015-04-01T07:23:54Z</time></trkpt><trkpt lat="13.2862586528" lon="38.1448323280"><ele>3899.73</ele><time>2015-04-01T07:23:57Z</time></trkpt><trkpt lat="13.2862583175" lon="38.1447593216"><ele>3900.21</ele><time>2015-04-01T07:24:12Z</time></trkpt><trkpt lat="13.2862701360" lon="38.1446963735"><ele>3902.13</ele><time>2015-04-01T07:24:22Z</time></trkpt><trkpt lat="13.2862866484" lon="38.1445706449"><ele>3903.57</ele><time>2015-04-01T07:24:34Z</time></trkpt><trkpt lat="13.2862951979" lon="38.1445113011"><ele>3904.05</ele><time>2015-04-01T07:24:40Z</time></trkpt><trkpt lat="13.2862591557" lon="38.1444010790"><ele>3904.05</ele><time>2015-04-01T07:24:54Z</time></trkpt><trkpt lat="13.2862302382" lon="38.1443797890"><ele>3903.09</ele><time>2015-04-01T07:25:04Z</time></trkpt><trkpt lat="13.2862736564" lon="38.1443445012"><ele>3901.65</ele><time>2015-04-01T07:25:20Z</time></trkpt><trkpt lat="13.2862780988" lon="38.1443393882"><ele>3901.65</ele><time>2015-04-01T07:25:21Z</time></trkpt><trkpt lat="13.2862954494" lon="38.1442247238"><ele>3901.65</ele><time>2015-04-01T07:25:37Z</time></trkpt><trkpt lat="13.2862635981" lon="38.1441236380"><ele>3902.13</ele><time>2015-04-01T07:25:50Z</time></trkpt><trkpt lat="13.2862561382" lon="38.1440682337"><ele>3901.65</ele><time>2015-04-01T07:26:03Z</time></trkpt><trkpt lat="13.2862184197" lon="38.1439782120"><ele>3901.17</ele><time>2015-04-01T07:26:12Z</time></trkpt><trkpt lat="13.2862122171" lon="38.1438272540"><ele>3900.21</ele><time>2015-04-01T07:26:25Z</time></trkpt><trkpt lat="13.2861841377" lon="38.1436347216"><ele>3899.24</ele><time>2015-04-01T07:26:41Z</time></trkpt><trkpt lat="13.2861338463" lon="38.1434328854"><ele>3898.28</ele><time>2015-04-01T07:26:56Z</time></trkpt><trkpt lat="13.2860814594" lon="38.1433392595"><ele>3897.80</ele><time>2015-04-01T07:27:05Z</time></trkpt><trkpt lat="13.2860440761" lon="38.1432675105"><ele>3897.32</ele><time>2015-04-01T07:27:11Z</time></trkpt><trkpt lat="13.2859594189" lon="38.1431038957"><ele>3895.88</ele><time>2015-04-01T07:27:29Z</time></trkpt><trkpt lat="13.2859558985" lon="38.1430656742"><ele>3896.84</ele><time>2015-04-01T07:27:55Z</time></trkpt><trkpt lat="13.2859673817" lon="38.1430444680"><ele>3897.80</ele><time>2015-04-01T07:28:21Z</time></trkpt><trkpt lat="13.2859294116" lon="38.1430374272"><ele>3896.84</ele><time>2015-04-01T07:28:35Z</time></trkpt><trkpt lat="13.2858939562" lon="38.1430546939"><ele>3896.36</ele><time>2015-04-01T07:28:49Z</time></trkpt><trkpt lat="13.2858639490" lon="38.1430414505"><ele>3894.92</ele><time>2015-04-01T07:29:02Z</time></trkpt><trkpt lat="13.2858374622" lon="38.1430266984"><ele>3893.96</ele><time>2015-04-01T07:29:05Z</time></trkpt><trkpt lat="13.2858269848" lon="38.1429707911"><ele>3893.00</ele><time>2015-04-01T07:29:09Z</time></trkpt><trkpt lat="13.2857750170" lon="38.1428713817"><ele>3890.11</ele><time>2015-04-01T07:29:22Z</time></trkpt><trkpt lat="13.2857127395" lon="38.1427859701"><ele>3887.71</ele><time>2015-04-01T07:29:38Z</time></trkpt><trkpt lat="13.2856968977" lon="38.1427547056"><ele>3889.63</ele><time>2015-04-01T07:30:03Z</time></trkpt><trkpt lat="13.2856985740" lon="38.1427450664"><ele>3893.00</ele><time>2015-04-01T07:30:19Z</time></trkpt><trkpt lat="13.2857099734" lon="38.1427152269"><ele>3893.48</ele><time>2015-04-01T07:30:35Z</time></trkpt><trkpt lat="13.2857036032" lon="38.1426939368"><ele>3896.84</ele><time>2015-04-01T07:30:49Z</time></trkpt><trkpt lat="13.2856753562" lon="38.1426443998"><ele>3896.36</ele><time>2015-04-01T07:31:05Z</time></trkpt><trkpt lat="13.2856606878" lon="38.1426244508"><ele>3897.32</ele><time>2015-04-01T07:31:18Z</time></trkpt><trkpt lat="13.2856492884" lon="38.1426102854"><ele>3896.84</ele><time>2015-04-01T07:31:24Z</time></trkpt><trkpt lat="13.2856357098" lon="38.1425295677"><ele>3895.40</ele><time>2015-04-01T07:31:38Z</time></trkpt><trkpt lat="13.2855411619" lon="38.1423906796"><ele>3894.44</ele><time>2015-04-01T07:31:52Z</time></trkpt><trkpt lat="13.2855249848" lon="38.1423714012"><ele>3895.88</ele><time>2015-04-01T07:32:06Z</time></trkpt><trkpt lat="13.2854983304" lon="38.1423244625"><ele>3896.36</ele><time>2015-04-01T07:32:15Z</time></trkpt><trkpt lat="13.2854925469" lon="38.1422789488"><ele>3896.36</ele><time>2015-04-01T07:32:19Z</time></trkpt><trkpt lat="13.2854521461" lon="38.1421538070"><ele>3894.92</ele><time>2015-04-01T07:32:32Z</time></trkpt><trkpt lat="13.2854278386" lon="38.1420935411"><ele>3893.48</ele><time>2015-04-01T07:32:37Z</time></trkpt><trkpt lat="13.2854344603" lon="38.1420436688"><ele>3892.52</ele><time>2015-04-01T07:32:41Z</time></trkpt><trkpt lat="13.2854704186" lon="38.1418756954"><ele>3891.55</ele><time>2015-04-01T07:32:56Z</time></trkpt><trkpt lat="13.2854757831" lon="38.1418201234"><ele>3891.55</ele><time>2015-04-01T07:33:01Z</time></trkpt><trkpt lat="13.2855167706" lon="38.1417768728"><ele>3891.55</ele><time>2015-04-01T07:33:13Z</time></trkpt><trkpt lat="13.2855047006" lon="38.1417659763"><ele>3891.07</ele><time>2015-04-01T07:33:32Z</time></trkpt><trkpt lat="13.2855055388" lon="38.1417633779"><ele>3892.04</ele><time>2015-04-01T07:33:51Z</time></trkpt><trkpt lat="13.2855135854" lon="38.1417612825"><ele>3891.55</ele><time>2015-04-01T07:34:16Z</time></trkpt><trkpt lat="13.2855103165" lon="38.1417655572"><ele>3892.04</ele><time>2015-04-01T07:34:34Z</time></trkpt><trkpt lat="13.2854705863" lon="38.1417602766"><ele>3893.00</ele><time>2015-04-01T07:34:45Z</time></trkpt><trkpt lat="13.2854565047" lon="38.1417554989"><ele>3893.00</ele><time>2015-04-01T07:34:47Z</time></trkpt><trkpt lat="13.2854427584" lon="38.1417449377"><ele>3892.52</ele><time>2015-04-01T07:34:49Z</time></trkpt><trkpt lat="13.2854320295" lon="38.1417281739"><ele>3892.52</ele><time>2015-04-01T07:34:51Z</time></trkpt><trkpt lat="13.2853663992" lon="38.1417101528"><ele>3892.04</ele><time>2015-04-01T07:35:05Z</time></trkpt><trkpt lat="13.2853521500" lon="38.1417194568"><ele>3893.48</ele><time>2015-04-01T07:35:32Z</time></trkpt><trkpt lat="13.2853450254" lon="38.1417265814"><ele>3894.44</ele><time>2015-04-01T07:35:55Z</time></trkpt><trkpt lat="13.2853493840" lon="38.1417208817"><ele>3893.48</ele><time>2015-04-01T07:36:23Z</time></trkpt><trkpt lat="13.2853487972" lon="38.1417158525"><ele>3894.92</ele><time>2015-04-01T07:36:46Z</time></trkpt><trkpt lat="13.2853438519" lon="38.1417227257"><ele>3894.92</ele><time>2015-04-01T07:37:18Z</time></trkpt><trkpt lat="13.2853593584" lon="38.1417208817"><ele>3893.00</ele><time>2015-04-01T07:37:50Z</time></trkpt><trkpt lat="13.2853772119" lon="38.1417214684"><ele>3888.19</ele><time>2015-04-01T07:38:18Z</time></trkpt><trkpt lat="13.2853679080" lon="38.1417289283"><ele>3891.55</ele><time>2015-04-01T07:38:54Z</time></trkpt><trkpt lat="13.2853598613" lon="38.1417245697"><ele>3893.48</ele><time>2015-04-01T07:39:25Z</time></trkpt><trkpt lat="13.2852869388" lon="38.1416053791"><ele>3892.52</ele><time>2015-04-01T07:39:40Z</time></trkpt><trkpt lat="13.2852902915" lon="38.1414514873"><ele>3891.07</ele><time>2015-04-01T07:39:57Z</time></trkpt><trkpt lat="13.2852233201" lon="38.1412947457"><ele>3890.11</ele><time>2015-04-01T07:40:14Z</time></trkpt><trkpt lat="13.2851654012" lon="38.1411065720"><ele>3889.63</ele><time>2015-04-01T07:40:31Z</time></trkpt><trkpt lat="13.2850867789" lon="38.1409031432"><ele>3889.63</ele><time>2015-04-01T07:40:52Z</time></trkpt><trkpt lat="13.2849998586" lon="38.1406959426"><ele>3890.11</ele><time>2015-04-01T07:41:11Z</time></trkpt><trkpt lat="13.2849405985" lon="38.1405559648"><ele>3889.15</ele><time>2015-04-01T07:41:26Z</time></trkpt><trkpt lat="13.2848809194" lon="38.1404252071"><ele>3887.23</ele><time>2015-04-01T07:41:41Z</time></trkpt><trkpt lat="13.2848335616" lon="38.1402811222"><ele>3884.82</ele><time>2015-04-01T07:41:55Z</time></trkpt><trkpt lat="13.2847843599" lon="38.1401765160"><ele>3882.42</ele><time>2015-04-01T07:42:10Z</time></trkpt><trkpt lat="13.2847459707" lon="38.1401320919"><ele>3880.50</ele><time>2015-04-01T07:42:37Z</time></trkpt><trkpt lat="13.2846944220" lon="38.1399368774"><ele>3878.58</ele><time>2015-04-01T07:42:56Z</time></trkpt><trkpt lat="13.2846003771" lon="38.1397753581"><ele>3875.69</ele><time>2015-04-01T07:43:14Z</time></trkpt><trkpt lat="13.2844913285" lon="38.1396818161"><ele>3872.81</ele><time>2015-04-01T07:43:31Z</time></trkpt><trkpt lat="13.2843734790" lon="38.1395974942"><ele>3870.41</ele><time>2015-04-01T07:43:49Z</time></trkpt><trkpt lat="13.2843622472" lon="38.1395796407"><ele>3869.92</ele><time>2015-04-01T07:44:07Z</time></trkpt><trkpt lat="13.2843510993" lon="38.1395850051"><ele>3872.81</ele><time>2015-04-01T07:44:34Z</time></trkpt><trkpt lat="13.2843390293" lon="38.1395792216"><ele>3873.29</ele><time>2015-04-01T07:45:04Z</time></trkpt><trkpt lat="13.2843410410" lon="38.1395850889"><ele>3873.29</ele><time>2015-04-01T07:45:29Z</time></trkpt><trkpt lat="13.2843269594" lon="38.1395613682"><ele>3874.25</ele><time>2015-04-01T07:45:55Z</time></trkpt><trkpt lat="13.2842533663" lon="38.1394923013"><ele>3870.89</ele><time>2015-04-01T07:46:10Z</time></trkpt><trkpt lat="13.2842199225" lon="38.1394528225"><ele>3869.92</ele><time>2015-04-01T07:46:16Z</time></trkpt><trkpt lat="13.2841920946" lon="38.1394041236"><ele>3868.96</ele><time>2015-04-01T07:46:22Z</time></trkpt><trkpt lat="13.2840109617" lon="38.1392037123"><ele>3866.56</ele><time>2015-04-01T07:46:42Z</time></trkpt><trkpt lat="13.2838864904" lon="38.1391051412"><ele>3864.64</ele><time>2015-04-01T07:46:58Z</time></trkpt><trkpt lat="13.2836752664" lon="38.1389798317"><ele>3860.31</ele><time>2015-04-01T07:47:18Z</time></trkpt><trkpt lat="13.2836201973" lon="38.1389922369"><ele>3860.31</ele><time>2015-04-01T07:47:35Z</time></trkpt><trkpt lat="13.2835814729" lon="38.1389617268"><ele>3860.79</ele><time>2015-04-01T07:47:51Z</time></trkpt><trkpt lat="13.2834711671" lon="38.1389102619"><ele>3859.35</ele><time>2015-04-01T07:48:12Z</time></trkpt><trkpt lat="13.2833013497" lon="38.1388648320"><ele>3856.95</ele><time>2015-04-01T07:48:30Z</time></trkpt><trkpt lat="13.2831811532" lon="38.1387596391"><ele>3854.06</ele><time>2015-04-01T07:48:45Z</time></trkpt><trkpt lat="13.2830555923" lon="38.1386087649"><ele>3852.14</ele><time>2015-04-01T07:49:02Z</time></trkpt><trkpt lat="13.2830296922" lon="38.1385791767"><ele>3851.66</ele><time>2015-04-01T07:49:06Z</time></trkpt><trkpt lat="13.2829875313" lon="38.1385169830"><ele>3850.22</ele><time>2015-04-01T07:49:13Z</time></trkpt><trkpt lat="13.2829524949" lon="38.1384985428"><ele>3849.74</ele><time>2015-04-01T07:49:17Z</time></trkpt><trkpt lat="13.2828323822" lon="38.1384170707"><ele>3847.81</ele><time>2015-04-01T07:49:32Z</time></trkpt><trkpt lat="13.2828031294" lon="38.1383796874"><ele>3847.81</ele><time>2015-04-01T07:49:40Z</time></trkpt><trkpt lat="13.2827316318" lon="38.1382528692"><ele>3848.29</ele><time>2015-04-01T07:49:58Z</time></trkpt><trkpt lat="13.2826737966" lon="38.1381560583"><ele>3847.33</ele><time>2015-04-01T07:50:12Z</time></trkpt><trkpt lat="13.2826042268" lon="38.1381569803"><ele>3846.37</ele><time>2015-04-01T07:50:26Z</time></trkpt><trkpt lat="13.2825388480" lon="38.1381324213"><ele>3843.97</ele><time>2015-04-01T07:50:40Z</time></trkpt><trkpt lat="13.2824330684" lon="38.1381020788"><ele>3842.05</ele><time>2015-04-01T07:50:55Z</time></trkpt><trkpt lat="13.2823601458" lon="38.1380798668"><ele>3841.08</ele><time>2015-04-01T07:51:02Z</time></trkpt><trkpt lat="13.2821601536" lon="38.1380652823"><ele>3839.16</ele><time>2015-04-01T07:51:18Z</time></trkpt><trkpt lat="13.2819860615" lon="38.1379729137"><ele>3837.72</ele><time>2015-04-01T07:51:33Z</time></trkpt><trkpt lat="13.2817938644" lon="38.1379287411"><ele>3836.76</ele><time>2015-04-01T07:51:50Z</time></trkpt><trkpt lat="13.2817234565" lon="38.1378870830"><ele>3835.80</ele><time>2015-04-01T07:52:07Z</time></trkpt><trkpt lat="13.2816095464" lon="38.1379047688"><ele>3835.80</ele><time>2015-04-01T07:52:19Z</time></trkpt><trkpt lat="13.2814588398" lon="38.1379533000"><ele>3835.80</ele><time>2015-04-01T07:52:32Z</time></trkpt><trkpt lat="13.2812175248" lon="38.1379373744"><ele>3834.84</ele><time>2015-04-01T07:52:52Z</time></trkpt><trkpt lat="13.2811630424" lon="38.1379865762"><ele>3834.84</ele><time>2015-04-01T07:53:07Z</time></trkpt><trkpt lat="13.2811382320" lon="38.1380093750"><ele>3833.88</ele><time>2015-04-01T07:53:20Z</time></trkpt><trkpt lat="13.2810231484" lon="38.1380117219"><ele>3830.51</ele><time>2015-04-01T07:53:38Z</time></trkpt><trkpt lat="13.2809405867" lon="38.1379901804"><ele>3826.67</ele><time>2015-04-01T07:53:56Z</time></trkpt><trkpt lat="13.2808243297" lon="38.1379438285"><ele>3821.38</ele><time>2015-04-01T07:54:13Z</time></trkpt><trkpt lat="13.2807147782" lon="38.1378725823"><ele>3817.05</ele><time>2015-04-01T07:54:28Z</time></trkpt><trkpt lat="13.2806838490" lon="38.1378497835"><ele>3815.61</ele><time>2015-04-01T07:54:32Z</time></trkpt><trkpt lat="13.2805374172" lon="38.1378077064"><ele>3811.76</ele><time>2015-04-01T07:54:47Z</time></trkpt><trkpt lat="13.2805033028" lon="38.1378094666"><ele>3811.28</ele><time>2015-04-01T07:54:50Z</time></trkpt><trkpt lat="13.2803423703" lon="38.1377562415"><ele>3808.88</ele><time>2015-04-01T07:55:05Z</time></trkpt><trkpt lat="13.2802435476" lon="38.1377582531"><ele>3806.96</ele><time>2015-04-01T07:55:20Z</time></trkpt><trkpt lat="13.2801696192" lon="38.1377725024"><ele>3805.04</ele><time>2015-04-01T07:55:37Z</time></trkpt><trkpt lat="13.2800567988" lon="38.1377432495"><ele>3802.63</ele><time>2015-04-01T07:55:53Z</time></trkpt><trkpt lat="13.2799081039" lon="38.1377777830"><ele>3797.83</ele><time>2015-04-01T07:56:13Z</time></trkpt><trkpt lat="13.2797843870" lon="38.1377866678"><ele>3794.46</ele><time>2015-04-01T07:56:31Z</time></trkpt><trkpt lat="13.2797068544" lon="38.1377626956"><ele>3792.54</ele><time>2015-04-01T07:56:47Z</time></trkpt><trkpt lat="13.2796018291" lon="38.1377613544"><ele>3788.69</ele><time>2015-04-01T07:57:03Z</time></trkpt><trkpt lat="13.2795724925" lon="38.1377756037"><ele>3788.21</ele><time>2015-04-01T07:57:07Z</time></trkpt><trkpt lat="13.2793622743" lon="38.1377571635"><ele>3783.89</ele><time>2015-04-01T07:57:25Z</time></trkpt><trkpt lat="13.2792535610" lon="38.1377876736"><ele>3781.48</ele><time>2015-04-01T07:57:36Z</time></trkpt><trkpt lat="13.2791307662" lon="38.1377908587"><ele>3780.04</ele><time>2015-04-01T07:57:47Z</time></trkpt><trkpt lat="13.2788843382" lon="38.1378211174"><ele>3779.08</ele><time>2015-04-01T07:58:07Z</time></trkpt><trkpt lat="13.2787715178" lon="38.1378622726"><ele>3779.08</ele><time>2015-04-01T07:58:17Z</time></trkpt><trkpt lat="13.2787162811" lon="38.1378888432"><ele>3778.60</ele><time>2015-04-01T07:58:22Z</time></trkpt><trkpt lat="13.2785716932" lon="38.1379040144"><ele>3777.64</ele><time>2015-04-01T07:58:37Z</time></trkpt><trkpt lat="13.2785673346" lon="38.1381119695"><ele>3777.16</ele><time>2015-04-01T07:58:56Z</time></trkpt><trkpt lat="13.2785274368" lon="38.1382623408"><ele>3775.72</ele><time>2015-04-01T07:59:10Z</time></trkpt><trkpt lat="13.2785402611" lon="38.1383363530"><ele>3776.20</ele><time>2015-04-01T07:59:18Z</time></trkpt><trkpt lat="13.2785770576" lon="38.1385295559"><ele>3774.75</ele><time>2015-04-01T07:59:35Z</time></trkpt><trkpt lat="13.2785650715" lon="38.1386429630"><ele>3773.31</ele><time>2015-04-01T07:59:48Z</time></trkpt><trkpt lat="13.2785869483" lon="38.1387599744"><ele>3771.39</ele><time>2015-04-01T08:00:02Z</time></trkpt><trkpt lat="13.2785697654" lon="38.1388256047"><ele>3769.47</ele><time>2015-04-01T08:00:20Z</time></trkpt><trkpt lat="13.2785527501" lon="38.1389098428"><ele>3768.51</ele><time>2015-04-01T08:00:35Z</time></trkpt><trkpt lat="13.2785511576" lon="38.1391015369"><ele>3766.58</ele><time>2015-04-01T08:00:52Z</time></trkpt><trkpt lat="13.2785685081" lon="38.1392007787"><ele>3766.58</ele><time>2015-04-01T08:01:02Z</time></trkpt><trkpt lat="13.2785791531" lon="38.1392446999"><ele>3766.58</ele><time>2015-04-01T08:01:06Z</time></trkpt><trkpt lat="13.2785478048" lon="38.1394116674"><ele>3767.54</ele><time>2015-04-01T08:01:21Z</time></trkpt><trkpt lat="13.2785335556" lon="38.1394951511"><ele>3768.02</ele><time>2015-04-01T08:01:28Z</time></trkpt><trkpt lat="13.2785319630" lon="38.1395613682"><ele>3768.02</ele><time>2015-04-01T08:01:33Z</time></trkpt><trkpt lat="13.2785167079" lon="38.1396124139"><ele>3768.02</ele><time>2015-04-01T08:01:37Z</time></trkpt><trkpt lat="13.2785014529" lon="38.1396712549"><ele>3768.02</ele><time>2015-04-01T08:01:43Z</time></trkpt><trkpt lat="13.2784715295" lon="38.1397765316"><ele>3767.06</ele><time>2015-04-01T08:01:57Z</time></trkpt><trkpt lat="13.2784822583" lon="38.1398467720"><ele>3766.58</ele><time>2015-04-01T08:02:11Z</time></trkpt><trkpt lat="13.2784795761" lon="38.1399036851"><ele>3766.10</ele><time>2015-04-01T08:02:26Z</time></trkpt><trkpt lat="13.2784778997" lon="38.1400025077"><ele>3764.18</ele><time>2015-04-01T08:02:41Z</time></trkpt><trkpt lat="13.2784880418" lon="38.1400896795"><ele>3762.26</ele><time>2015-04-01T08:02:55Z</time></trkpt><trkpt lat="13.2785000280" lon="38.1401971355"><ele>3760.81</ele><time>2015-04-01T08:03:07Z</time></trkpt><trkpt lat="13.2785246707" lon="38.1403188407"><ele>3756.97</ele><time>2015-04-01T08:03:23Z</time></trkpt><trkpt lat="13.2785638981" lon="38.1404458266"><ele>3751.20</ele><time>2015-04-01T08:03:41Z</time></trkpt><trkpt lat="13.2785968389" lon="38.1406130455"><ele>3746.40</ele><time>2015-04-01T08:03:59Z</time></trkpt><trkpt lat="13.2786295284" lon="38.1407503411"><ele>3743.99</ele><time>2015-04-01T08:04:16Z</time></trkpt><trkpt lat="13.2786542550" lon="38.1409066636"><ele>3740.15</ele><time>2015-04-01T08:04:33Z</time></trkpt><trkpt lat="13.2786426879" lon="38.1410613935"><ele>3737.26</ele><time>2015-04-01T08:04:51Z</time></trkpt><trkpt lat="13.2786277682" lon="38.1411732920"><ele>3733.90</ele><time>2015-04-01T08:05:06Z</time></trkpt><trkpt lat="13.2786304504" lon="38.1412837654"><ele>3731.98</ele><time>2015-04-01T08:05:20Z</time></trkpt><trkpt lat="13.2786524948" lon="38.1413453724"><ele>3731.49</ele><time>2015-04-01T08:05:35Z</time></trkpt><trkpt lat="13.2786902972" lon="38.1414024532"><ele>3727.17</ele><time>2015-04-01T08:05:51Z</time></trkpt><trkpt lat="13.2786996011" lon="38.1414134335"><ele>3723.80</ele><time>2015-04-01T08:06:09Z</time></trkpt><trkpt lat="13.2786475495" lon="38.1414545048"><ele>3721.40</ele><time>2015-04-01T08:06:27Z</time></trkpt><trkpt lat="13.2786554284" lon="38.1415161118"><ele>3718.52</ele><time>2015-04-01T08:06:42Z</time></trkpt><trkpt lat="13.2786659896" lon="38.1416019425"><ele>3713.71</ele><time>2015-04-01T08:07:02Z</time></trkpt><trkpt lat="13.2786899619" lon="38.1416671537"><ele>3707.94</ele><time>2015-04-01T08:07:19Z</time></trkpt><trkpt lat="13.2786780596" lon="38.1416821573"><ele>3706.98</ele><time>2015-04-01T08:07:23Z</time></trkpt><trkpt lat="13.2786344737" lon="38.1418329477"><ele>3702.66</ele><time>2015-04-01T08:07:41Z</time></trkpt><trkpt lat="13.2786086574" lon="38.1419540662"><ele>3698.33</ele><time>2015-04-01T08:07:57Z</time></trkpt><trkpt lat="13.2786172908" lon="38.1420607679"><ele>3694.00</ele><time>2015-04-01T08:08:14Z</time></trkpt><trkpt lat="13.2786170393" lon="38.1421862449"><ele>3688.72</ele><time>2015-04-01T08:08:30Z</time></trkpt><trkpt lat="13.2786338869" lon="38.1422814634"><ele>3686.31</ele><time>2015-04-01T08:08:44Z</time></trkpt><trkpt lat="13.2786852680" lon="38.1424034201"><ele>3683.91</ele><time>2015-04-01T08:08:59Z</time></trkpt><trkpt lat="13.2787459530" lon="38.1424858980"><ele>3680.06</ele><time>2015-04-01T08:09:16Z</time></trkpt><trkpt lat="13.2786986791" lon="38.1425032485"><ele>3678.62</ele><time>2015-04-01T08:09:32Z</time></trkpt><trkpt lat="13.2787043788" lon="38.1425035000"><ele>3679.58</ele><time>2015-04-01T08:09:52Z</time></trkpt><trkpt lat="13.2787008584" lon="38.1425018236"><ele>3680.54</ele><time>2015-04-01T08:10:07Z</time></trkpt><trkpt lat="13.2786908001" lon="38.1425269693"><ele>3680.54</ele><time>2015-04-01T08:10:45Z</time></trkpt><trkpt lat="13.2786773890" lon="38.1425112952"><ele>3681.51</ele><time>2015-04-01T08:11:21Z</time></trkpt><trkpt lat="13.2786780596" lon="38.1425081100"><ele>3681.51</ele><time>2015-04-01T08:11:56Z</time></trkpt><trkpt lat="13.2786823343" lon="38.1425080262"><ele>3681.03</ele><time>2015-04-01T08:12:32Z</time></trkpt><trkpt lat="13.2786818314" lon="38.1425153185"><ele>3681.51</ele><time>2015-04-01T08:13:08Z</time></trkpt><trkpt lat="13.2786923088" lon="38.1425145641"><ele>3681.03</ele><time>2015-04-01T08:13:45Z</time></trkpt><trkpt lat="13.2786824182" lon="38.1425195094"><ele>3681.03</ele><time>2015-04-01T08:14:22Z</time></trkpt><trkpt lat="13.2786841784" lon="38.1425326690"><ele>3681.03</ele><time>2015-04-01T08:15:03Z</time></trkpt><trkpt lat="13.2786793169" lon="38.1425207667"><ele>3681.03</ele><time>2015-04-01T08:15:36Z</time></trkpt><trkpt lat="13.2786835916" lon="38.1425220240"><ele>3681.03</ele><time>2015-04-01T08:16:10Z</time></trkpt><trkpt lat="13.2786920574" lon="38.1425201800"><ele>3680.54</ele><time>2015-04-01T08:16:31Z</time></trkpt><trkpt lat="13.2787026186" lon="38.1425129715"><ele>3681.99</ele><time>2015-04-01T08:16:52Z</time></trkpt><trkpt lat="13.2787070610" lon="38.1425110437"><ele>3681.03</ele><time>2015-04-01T08:17:23Z</time></trkpt><trkpt lat="13.2787025347" lon="38.1425097864"><ele>3683.43</ele><time>2015-04-01T08:17:59Z</time></trkpt><trkpt lat="13.2786952425" lon="38.1425066851"><ele>3684.39</ele><time>2015-04-01T08:18:15Z</time></trkpt><trkpt lat="13.2786631398" lon="38.1425076909"><ele>3681.99</ele><time>2015-04-01T08:18:29Z</time></trkpt><trkpt lat="13.2786271814" lon="38.1424884126"><ele>3682.47</ele><time>2015-04-01T08:18:46Z</time></trkpt><trkpt lat="13.2786094956" lon="38.1425225269"><ele>3681.51</ele><time>2015-04-01T08:18:59Z</time></trkpt><trkpt lat="13.2786437776" lon="38.1425464991"><ele>3680.06</ele><time>2015-04-01T08:19:16Z</time></trkpt><trkpt lat="13.2786556799" lon="38.1426103693"><ele>3679.58</ele><time>2015-04-01T08:19:31Z</time></trkpt><trkpt lat="13.2786643971" lon="38.1427290570"><ele>3676.22</ele><time>2015-04-01T08:19:47Z</time></trkpt><trkpt lat="13.2786971703" lon="38.1427851319"><ele>3673.33</ele><time>2015-04-01T08:19:58Z</time></trkpt><trkpt lat="13.2787086535" lon="38.1428992935"><ele>3670.45</ele><time>2015-04-01T08:20:12Z</time></trkpt><trkpt lat="13.2787024509" lon="38.1430126168"><ele>3667.57</ele><time>2015-04-01T08:20:26Z</time></trkpt><trkpt lat="13.2787021995" lon="38.1430685241"><ele>3666.61</ele><time>2015-04-01T08:20:32Z</time></trkpt><trkpt lat="13.2787282672" lon="38.1431922410"><ele>3665.16</ele><time>2015-04-01T08:20:47Z</time></trkpt><trkpt lat="13.2787649799" lon="38.1432826817"><ele>3663.72</ele><time>2015-04-01T08:20:59Z</time></trkpt><trkpt lat="13.2787833363" lon="38.1433765590"><ele>3662.28</ele><time>2015-04-01T08:21:10Z</time></trkpt><trkpt lat="13.2787852641" lon="38.1434692629"><ele>3660.84</ele><time>2015-04-01T08:21:25Z</time></trkpt><trkpt lat="13.2788159419" lon="38.1436047144"><ele>3659.40</ele><time>2015-04-01T08:21:40Z</time></trkpt><trkpt lat="13.2788377348" lon="38.1437824946"><ele>3658.92</ele><time>2015-04-01T08:21:55Z</time></trkpt><trkpt lat="13.2788728550" lon="38.1438891124"><ele>3656.99</ele><time>2015-04-01T08:22:10Z</time></trkpt><trkpt lat="13.2788979169" lon="38.1440440938"><ele>3655.55</ele><time>2015-04-01T08:22:27Z</time></trkpt><trkpt lat="13.2789469510" lon="38.1441984046"><ele>3655.07</ele><time>2015-04-01T08:22:42Z</time></trkpt><trkpt lat="13.2789506391" lon="38.1442179345"><ele>3655.07</ele><time>2015-04-01T08:22:44Z</time></trkpt><trkpt lat="13.2789629605" lon="38.1442438345"><ele>3655.55</ele><time>2015-04-01T08:22:47Z</time></trkpt><trkpt lat="13.2789655589" lon="38.1443753466"><ele>3656.03</ele><time>2015-04-01T08:23:02Z</time></trkpt><trkpt lat="13.2789875194" lon="38.1444658712"><ele>3656.51</ele><time>2015-04-01T08:23:12Z</time></trkpt><trkpt lat="13.2789883576" lon="38.1445129775"><ele>3656.51</ele><time>2015-04-01T08:23:17Z</time></trkpt><trkpt lat="13.2790165208" lon="38.1446523685"><ele>3655.55</ele><time>2015-04-01T08:23:32Z</time></trkpt><trkpt lat="13.2790133357" lon="38.1446846388"><ele>3655.55</ele><time>2015-04-01T08:23:36Z</time></trkpt><trkpt lat="13.2790257409" lon="38.1448094454"><ele>3654.11</ele><time>2015-04-01T08:23:50Z</time></trkpt><trkpt lat="13.2790422533" lon="38.1448651012"><ele>3653.63</ele><time>2015-04-01T08:23:56Z</time></trkpt><trkpt lat="13.2790021878" lon="38.1450499222"><ele>3651.22</ele><time>2015-04-01T08:24:14Z</time></trkpt><trkpt lat="13.2790152635" lon="38.1451948453"><ele>3650.26</ele><time>2015-04-01T08:24:29Z</time></trkpt><trkpt lat="13.2790427562" lon="38.1452453043"><ele>3648.82</ele><time>2015-04-01T08:24:34Z</time></trkpt><trkpt lat="13.2790498808" lon="38.1452656724"><ele>3648.34</ele><time>2015-04-01T08:24:36Z</time></trkpt><trkpt lat="13.2790636271" lon="38.1453137845"><ele>3647.38</ele><time>2015-04-01T08:24:42Z</time></trkpt><trkpt lat="13.2790663093" lon="38.1454276107"><ele>3642.57</ele><time>2015-04-01T08:24:56Z</time></trkpt><trkpt lat="13.2790807262" lon="38.1455071550"><ele>3640.65</ele><time>2015-04-01T08:25:13Z</time></trkpt><trkpt lat="13.2790849172" lon="38.1455939915"><ele>3638.73</ele><time>2015-04-01T08:25:29Z</time></trkpt><trkpt lat="13.2790617831" lon="38.1456969213"><ele>3635.84</ele><time>2015-04-01T08:25:40Z</time></trkpt><trkpt lat="13.2790568378" lon="38.1457161997"><ele>3635.84</ele><time>2015-04-01T08:25:42Z</time></trkpt><trkpt lat="13.2790618669" lon="38.1457488053"><ele>3635.36</ele><time>2015-04-01T08:25:45Z</time></trkpt><trkpt lat="13.2790507190" lon="38.1459319498"><ele>3635.36</ele><time>2015-04-01T08:26:02Z</time></trkpt><trkpt lat="13.2790361345" lon="38.1460700836"><ele>3634.88</ele><time>2015-04-01T08:26:17Z</time></trkpt><trkpt lat="13.2789786346" lon="38.1462356262"><ele>3634.40</ele><time>2015-04-01T08:26:34Z</time></trkpt><trkpt lat="13.2789389044" lon="38.1463291682"><ele>3632.96</ele><time>2015-04-01T08:26:44Z</time></trkpt><trkpt lat="13.2789254095" lon="38.1464508735"><ele>3630.56</ele><time>2015-04-01T08:26:58Z</time></trkpt><trkpt lat="13.2788727712" lon="38.1466144044"><ele>3629.11</ele><time>2015-04-01T08:27:13Z</time></trkpt><trkpt lat="13.2788372319" lon="38.1467583217"><ele>3628.63</ele><time>2015-04-01T08:27:28Z</time></trkpt><trkpt lat="13.2788143493" lon="38.1468716450"><ele>3628.15</ele><time>2015-04-01T08:27:40Z</time></trkpt><trkpt lat="13.2788326219" lon="38.1469971221"><ele>3626.71</ele><time>2015-04-01T08:27:54Z</time></trkpt><trkpt lat="13.2788694184" lon="38.1471188273"><ele>3625.27</ele><time>2015-04-01T08:28:07Z</time></trkpt><trkpt lat="13.2788873557" lon="38.1471734773"><ele>3625.27</ele><time>2015-04-01T08:28:12Z</time></trkpt><trkpt lat="13.2789173629" lon="38.1472407002"><ele>3624.31</ele><time>2015-04-01T08:28:19Z</time></trkpt><trkpt lat="13.2789213862" lon="38.1472971942"><ele>3623.83</ele><time>2015-04-01T08:28:24Z</time></trkpt><trkpt lat="13.2789353840" lon="38.1474413630"><ele>3622.38</ele><time>2015-04-01T08:28:40Z</time></trkpt><trkpt lat="13.2789414190" lon="38.1474885531"><ele>3621.90</ele><time>2015-04-01T08:28:44Z</time></trkpt><trkpt lat="13.2789286785" lon="38.1476262677"><ele>3621.42</ele><time>2015-04-01T08:28:57Z</time></trkpt><trkpt lat="13.2788866851" lon="38.1477613002"><ele>3619.02</ele><time>2015-04-01T08:29:12Z</time></trkpt><trkpt lat="13.2788608689" lon="38.1478579435"><ele>3618.54</ele><time>2015-04-01T08:29:23Z</time></trkpt><trkpt lat="13.2787923887" lon="38.1480115000"><ele>3617.58</ele><time>2015-04-01T08:29:40Z</time></trkpt><trkpt lat="13.2786872797" lon="38.1481547467"><ele>3617.58</ele><time>2015-04-01T08:29:54Z</time></trkpt><trkpt lat="13.2785524987" lon="38.1482433435"><ele>3618.54</ele><time>2015-04-01T08:30:09Z</time></trkpt><trkpt lat="13.2784405164" lon="38.1482759491"><ele>3618.54</ele><time>2015-04-01T08:30:21Z</time></trkpt><trkpt lat="13.2783824299" lon="38.1483064592"><ele>3617.58</ele><time>2015-04-01T08:30:27Z</time></trkpt><trkpt lat="13.2782383449" lon="38.1483839918"><ele>3617.10</ele><time>2015-04-01T08:30:43Z</time></trkpt><trkpt lat="13.2782010455" lon="38.1484061200"><ele>3618.54</ele><time>2015-04-01T08:30:52Z</time></trkpt><trkpt lat="13.2781642489" lon="38.1484317686"><ele>3619.02</ele><time>2015-04-01T08:30:56Z</time></trkpt><trkpt lat="13.2780610677" lon="38.1485331059"><ele>3620.94</ele><time>2015-04-01T08:31:10Z</time></trkpt><trkpt lat="13.2779512648" lon="38.1485942937"><ele>3623.83</ele><time>2015-04-01T08:31:24Z</time></trkpt><trkpt lat="13.2778357621" lon="38.1486610137"><ele>3624.79</ele><time>2015-04-01T08:31:37Z</time></trkpt><trkpt lat="13.2777889911" lon="38.1486952119"><ele>3625.27</ele><time>2015-04-01T08:31:42Z</time></trkpt><trkpt lat="13.2777083572" lon="38.1487175915"><ele>3626.71</ele><time>2015-04-01T08:31:56Z</time></trkpt><trkpt lat="13.2775874902" lon="38.1487589143"><ele>3627.67</ele><time>2015-04-01T08:32:15Z</time></trkpt><trkpt lat="13.2775595784" lon="38.1487629376"><ele>3627.67</ele><time>2015-04-01T08:32:20Z</time></trkpt><trkpt lat="13.2774795312" lon="38.1487341039"><ele>3630.08</ele><time>2015-04-01T08:32:33Z</time></trkpt><trkpt lat="13.2774612587" lon="38.1487349421"><ele>3630.08</ele><time>2015-04-01T08:32:35Z</time></trkpt><trkpt lat="13.2773880009" lon="38.1487623509"><ele>3631.52</ele><time>2015-04-01T08:32:45Z</time></trkpt><trkpt lat="13.2772972248" lon="38.1487997342"><ele>3635.84</ele><time>2015-04-01T08:32:59Z</time></trkpt><trkpt lat="13.2772193570" lon="38.1488410570"><ele>3638.25</ele><time>2015-04-01T08:33:10Z</time></trkpt><trkpt lat="13.2771074586" lon="38.1488134805"><ele>3640.65</ele><time>2015-04-01T08:33:27Z</time></trkpt><trkpt lat="13.2770010084" lon="38.1488238741"><ele>3641.61</ele><time>2015-04-01T08:33:43Z</time></trkpt><trkpt lat="13.2768785488" lon="38.1488127261"><ele>3643.05</ele><time>2015-04-01T08:33:58Z</time></trkpt><trkpt lat="13.2767931372" lon="38.1488016620"><ele>3643.53</ele><time>2015-04-01T08:34:12Z</time></trkpt><trkpt lat="13.2767373137" lon="38.1488318369"><ele>3644.50</ele><time>2015-04-01T08:34:27Z</time></trkpt><trkpt lat="13.2767367270" lon="38.1488295738"><ele>3644.01</ele><time>2015-04-01T08:34:44Z</time></trkpt><trkpt lat="13.2767454442" lon="38.1488195993"><ele>3642.57</ele><time>2015-04-01T08:35:05Z</time></trkpt><trkpt lat="13.2767252438" lon="38.1488185935"><ele>3643.53</ele><time>2015-04-01T08:35:31Z</time></trkpt><trkpt lat="13.2766450290" lon="38.1487698108"><ele>3644.01</ele><time>2015-04-01T08:35:45Z</time></trkpt><trkpt lat="13.2765363157" lon="38.1487588305"><ele>3646.90</ele><time>2015-04-01T08:36:02Z</time></trkpt><trkpt lat="13.2764342241" lon="38.1487648655"><ele>3649.30</ele><time>2015-04-01T08:36:17Z</time></trkpt><trkpt lat="13.2763550151" lon="38.1487455033"><ele>3652.67</ele><time>2015-04-01T08:36:29Z</time></trkpt><trkpt lat="13.2762540970" lon="38.1486940384"><ele>3657.95</ele><time>2015-04-01T08:36:44Z</time></trkpt><trkpt lat="13.2761997823" lon="38.1486843154"><ele>3659.88</ele><time>2015-04-01T08:36:58Z</time></trkpt><trkpt lat="13.2761381753" lon="38.1486709043"><ele>3661.80</ele><time>2015-04-01T08:37:11Z</time></trkpt><trkpt lat="13.2760488242" lon="38.1486385502"><ele>3663.72</ele><time>2015-04-01T08:37:24Z</time></trkpt><trkpt lat="13.2759276219" lon="38.1486197747"><ele>3667.57</ele><time>2015-04-01T08:37:39Z</time></trkpt><trkpt lat="13.2758191600" lon="38.1486092135"><ele>3669.01</ele><time>2015-04-01T08:37:53Z</time></trkpt><trkpt lat="13.2757258695" lon="38.1485508755"><ele>3671.41</ele><time>2015-04-01T08:38:06Z</time></trkpt><trkpt lat="13.2756340038" lon="38.1485466845"><ele>3673.33</ele><time>2015-04-01T08:38:18Z</time></trkpt><trkpt lat="13.2755511906" lon="38.1484955549"><ele>3674.30</ele><time>2015-04-01T08:38:30Z</time></trkpt><trkpt lat="13.2754465006" lon="38.1484411564"><ele>3673.33</ele><time>2015-04-01T08:38:42Z</time></trkpt><trkpt lat="13.2753496896" lon="38.1483860034"><ele>3674.78</ele><time>2015-04-01T08:38:56Z</time></trkpt><trkpt lat="13.2752879988" lon="38.1483597681"><ele>3676.70</ele><time>2015-04-01T08:39:10Z</time></trkpt><trkpt lat="13.2752148248" lon="38.1482944731"><ele>3679.10</ele><time>2015-04-01T08:39:22Z</time></trkpt><trkpt lat="13.2751191035" lon="38.1482366379"><ele>3681.03</ele><time>2015-04-01T08:39:38Z</time></trkpt><trkpt lat="13.2750236336" lon="38.1482133362"><ele>3681.51</ele><time>2015-04-01T08:39:53Z</time></trkpt><trkpt lat="13.2749259006" lon="38.1481680740"><ele>3682.95</ele><time>2015-04-01T08:40:07Z</time></trkpt><trkpt lat="13.2748414949" lon="38.1480964925"><ele>3683.43</ele><time>2015-04-01T08:40:23Z</time></trkpt><trkpt lat="13.2747634593" lon="38.1481063832"><ele>3686.79</ele><time>2015-04-01T08:40:37Z</time></trkpt><trkpt lat="13.2747066300" lon="38.1480812375"><ele>3688.72</ele><time>2015-04-01T08:40:49Z</time></trkpt><trkpt lat="13.2746084780" lon="38.1480306108"><ele>3690.64</ele><time>2015-04-01T08:41:06Z</time></trkpt><trkpt lat="13.2745352201" lon="38.1480223127"><ele>3690.64</ele><time>2015-04-01T08:41:20Z</time></trkpt><trkpt lat="13.2744413428" lon="38.1479859352"><ele>3691.60</ele><time>2015-04-01T08:41:39Z</time></trkpt><trkpt lat="13.2743821666" lon="38.1479753740"><ele>3694.96</ele><time>2015-04-01T08:41:57Z</time></trkpt><trkpt lat="13.2743074000" lon="38.1479599513"><ele>3695.93</ele><time>2015-04-01T08:42:15Z</time></trkpt><trkpt lat="13.2742285263" lon="38.1479275133"><ele>3695.93</ele><time>2015-04-01T08:42:29Z</time></trkpt><trkpt lat="13.2741455454" lon="38.1478826702"><ele>3697.85</ele><time>2015-04-01T08:42:44Z</time></trkpt><trkpt lat="13.2740598824" lon="38.1478200573"><ele>3700.73</ele><time>2015-04-01T08:43:01Z</time></trkpt><trkpt lat="13.2739712019" lon="38.1478289422"><ele>3702.17</ele><time>2015-04-01T08:43:19Z</time></trkpt><trkpt lat="13.2739077508" lon="38.1477905530"><ele>3704.10</ele><time>2015-04-01T08:43:33Z</time></trkpt><trkpt lat="13.2738319784" lon="38.1477342267"><ele>3706.02</ele><time>2015-04-01T08:43:49Z</time></trkpt><trkpt lat="13.2737650909" lon="38.1477291975"><ele>3707.94</ele><time>2015-04-01T08:44:05Z</time></trkpt><trkpt lat="13.2736850437" lon="38.1477290299"><ele>3709.38</ele><time>2015-04-01T08:44:19Z</time></trkpt><trkpt lat="13.2735887356" lon="38.1476845220"><ele>3711.31</ele><time>2015-04-01T08:44:37Z</time></trkpt><trkpt lat="13.2735350076" lon="38.1476725359"><ele>3713.23</ele><time>2015-04-01T08:44:51Z</time></trkpt><trkpt lat="13.2734792680" lon="38.1476269383"><ele>3715.15</ele><time>2015-04-01T08:45:01Z</time></trkpt><trkpt lat="13.2733589038" lon="38.1476126891"><ele>3717.56</ele><time>2015-04-01T08:45:19Z</time></trkpt><trkpt lat="13.2732439041" lon="38.1476116832"><ele>3719.48</ele><time>2015-04-01T08:45:34Z</time></trkpt><trkpt lat="13.2731507812" lon="38.1476001162"><ele>3721.40</ele><time>2015-04-01T08:45:52Z</time></trkpt><trkpt lat="13.2730356138" lon="38.1475601345"><ele>3722.36</ele><time>2015-04-01T08:46:09Z</time></trkpt><trkpt lat="13.2729476038" lon="38.1475323904"><ele>3723.32</ele><time>2015-04-01T08:46:25Z</time></trkpt><trkpt lat="13.2728677243" lon="38.1474813446"><ele>3722.84</ele><time>2015-04-01T08:46:38Z</time></trkpt><trkpt lat="13.2727548201" lon="38.1474690232"><ele>3722.36</ele><time>2015-04-01T08:46:55Z</time></trkpt><trkpt lat="13.2726606075" lon="38.1474559475"><ele>3723.80</ele><time>2015-04-01T08:47:11Z</time></trkpt><trkpt lat="13.2725832425" lon="38.1474197377"><ele>3724.28</ele><time>2015-04-01T08:47:26Z</time></trkpt><trkpt lat="13.2724855933" lon="38.1473960169"><ele>3725.25</ele><time>2015-04-01T08:47:43Z</time></trkpt><trkpt lat="13.2723512314" lon="38.1473938376"><ele>3725.73</ele><time>2015-04-01T08:48:00Z</time></trkpt><trkpt lat="13.2722949050" lon="38.1473200768"><ele>3725.73</ele><time>2015-04-01T08:48:14Z</time></trkpt><trkpt lat="13.2722667418" lon="38.1472462323"><ele>3726.21</ele><time>2015-04-01T08:48:29Z</time></trkpt><trkpt lat="13.2721647341" lon="38.1472018082"><ele>3726.69</ele><time>2015-04-01T08:48:46Z</time></trkpt><trkpt lat="13.2720714435" lon="38.1471395306"><ele>3725.73</ele><time>2015-04-01T08:49:03Z</time></trkpt><trkpt lat="13.2720199786" lon="38.1470691226"><ele>3726.21</ele><time>2015-04-01T08:49:19Z</time></trkpt><trkpt lat="13.2719489839" lon="38.1470241118"><ele>3727.65</ele><time>2015-04-01T08:49:34Z</time></trkpt><trkpt lat="13.2719328068" lon="38.1470028218"><ele>3728.61</ele><time>2015-04-01T08:49:37Z</time></trkpt><trkpt lat="13.2718669251" lon="38.1469183322"><ele>3731.01</ele><time>2015-04-01T08:49:51Z</time></trkpt><trkpt lat="13.2718253508" lon="38.1468353514"><ele>3731.49</ele><time>2015-04-01T08:50:05Z</time></trkpt><trkpt lat="13.2717464771" lon="38.1467490178"><ele>3732.46</ele><time>2015-04-01T08:50:19Z</time></trkpt><trkpt lat="13.2717443816" lon="38.1466715690"><ele>3734.38</ele><time>2015-04-01T08:50:33Z</time></trkpt><trkpt lat="13.2717181463" lon="38.1466000713"><ele>3735.34</ele><time>2015-04-01T08:50:50Z</time></trkpt><trkpt lat="13.2716864627" lon="38.1465047691"><ele>3737.26</ele><time>2015-04-01T08:51:06Z</time></trkpt><trkpt lat="13.2716524322" lon="38.1464018393"><ele>3738.70</ele><time>2015-04-01T08:51:20Z</time></trkpt><trkpt lat="13.2716100197" lon="38.1463110633"><ele>3739.19</ele><time>2015-04-01T08:51:36Z</time></trkpt><trkpt lat="13.2716644183" lon="38.1462625321"><ele>3742.07</ele><time>2015-04-01T08:51:49Z</time></trkpt><trkpt lat="13.2716098521" lon="38.1461827364"><ele>3743.51</ele><time>2015-04-01T08:52:03Z</time></trkpt><trkpt lat="13.2715432160" lon="38.1461216323"><ele>3744.95</ele><time>2015-04-01T08:52:17Z</time></trkpt><trkpt lat="13.2715001330" lon="38.1461324450"><ele>3745.43</ele><time>2015-04-01T08:52:34Z</time></trkpt><trkpt lat="13.2714876439" lon="38.1461419165"><ele>3747.84</ele><time>2015-04-01T08:52:46Z</time></trkpt><trkpt lat="13.2714969479" lon="38.1461342890"><ele>3750.72</ele><time>2015-04-01T08:53:22Z</time></trkpt><trkpt lat="13.2714913320" lon="38.1461447664"><ele>3751.68</ele><time>2015-04-01T08:53:56Z</time></trkpt><trkpt lat="13.2715163101" lon="38.1461695768"><ele>3750.72</ele><time>2015-04-01T08:54:28Z</time></trkpt><trkpt lat="13.2715210877" lon="38.1461632065"><ele>3749.28</ele><time>2015-04-01T08:55:00Z</time></trkpt><trkpt lat="13.2715336606" lon="38.1461609434"><ele>3748.80</ele><time>2015-04-01T08:55:34Z</time></trkpt><trkpt lat="13.2715122867" lon="38.1461736839"><ele>3749.76</ele><time>2015-04-01T08:55:58Z</time></trkpt><trkpt lat="13.2714966126" lon="38.1461550761"><ele>3748.32</ele><time>2015-04-01T08:56:19Z</time></trkpt><trkpt lat="13.2714955229" lon="38.1461408269"><ele>3747.36</ele><time>2015-04-01T08:56:44Z</time></trkpt><trkpt lat="13.2714480814" lon="38.1461010128"><ele>3746.40</ele><time>2015-04-01T08:57:11Z</time></trkpt><trkpt lat="13.2713708840" lon="38.1461466104"><ele>3746.88</ele><time>2015-04-01T08:57:29Z</time></trkpt><trkpt lat="13.2712740730" lon="38.1462083850"><ele>3749.28</ele><time>2015-04-01T08:57:46Z</time></trkpt><trkpt lat="13.2711541280" lon="38.1462206226"><ele>3751.68</ele><time>2015-04-01T08:58:02Z</time></trkpt><trkpt lat="13.2710385416" lon="38.1462530605"><ele>3755.05</ele><time>2015-04-01T08:58:23Z</time></trkpt><trkpt lat="13.2709341031" lon="38.1462665554"><ele>3757.45</ele><time>2015-04-01T08:58:41Z</time></trkpt><trkpt lat="13.2708290778" lon="38.1462801341"><ele>3760.33</ele><time>2015-04-01T08:58:58Z</time></trkpt><trkpt lat="13.2707662135" lon="38.1463384721"><ele>3762.26</ele><time>2015-04-01T08:59:16Z</time></trkpt><trkpt lat="13.2706930395" lon="38.1463634502"><ele>3764.18</ele><time>2015-04-01T08:59:32Z</time></trkpt><trkpt lat="13.2706082985" lon="38.1463606842"><ele>3766.58</ele><time>2015-04-01T08:59:49Z</time></trkpt><trkpt lat="13.2705326099" lon="38.1463849917"><ele>3768.51</ele><time>2015-04-01T09:00:02Z</time></trkpt><trkpt lat="13.2704664767" lon="38.1464357022"><ele>3770.43</ele><time>2015-04-01T09:00:15Z</time></trkpt><trkpt lat="13.2704372238" lon="38.1464326009"><ele>3772.83</ele><time>2015-04-01T09:00:33Z</time></trkpt><trkpt lat="13.2703093998" lon="38.1464287452"><ele>3776.20</ele><time>2015-04-01T09:00:52Z</time></trkpt><trkpt lat="13.2702244911" lon="38.1464188546"><ele>3780.04</ele><time>2015-04-01T09:01:08Z</time></trkpt><trkpt lat="13.2701647282" lon="38.1464312598"><ele>3780.52</ele><time>2015-04-01T09:01:23Z</time></trkpt><trkpt lat="13.2700609602" lon="38.1464787852"><ele>3781.96</ele><time>2015-04-01T09:01:38Z</time></trkpt><trkpt lat="13.2699628081" lon="38.1465296634"><ele>3785.33</ele><time>2015-04-01T09:01:54Z</time></trkpt><trkpt lat="13.2698824257" lon="38.1465639453"><ele>3787.25</ele><time>2015-04-01T09:02:09Z</time></trkpt><trkpt lat="13.2698111795" lon="38.1466149073"><ele>3788.21</ele><time>2015-04-01T09:02:23Z</time></trkpt><trkpt lat="13.2697187271" lon="38.1466579065"><ele>3790.13</ele><time>2015-04-01T09:02:39Z</time></trkpt><trkpt lat="13.2696398534" lon="38.1467144005"><ele>3792.54</ele><time>2015-04-01T09:02:55Z</time></trkpt><trkpt lat="13.2695452217" lon="38.1467206031"><ele>3794.46</ele><time>2015-04-01T09:03:13Z</time></trkpt><trkpt lat="13.2693885639" lon="38.1467239559"><ele>3797.83</ele><time>2015-04-01T09:03:32Z</time></trkpt><trkpt lat="13.2692892384" lon="38.1467371993"><ele>3799.27</ele><time>2015-04-01T09:03:49Z</time></trkpt><trkpt lat="13.2691797707" lon="38.1467085332"><ele>3800.71</ele><time>2015-04-01T09:04:08Z</time></trkpt><trkpt lat="13.2691196725" lon="38.1466936972"><ele>3801.67</ele><time>2015-04-01T09:04:18Z</time></trkpt><trkpt lat="13.2689817902" lon="38.1466677971"><ele>3802.63</ele><time>2015-04-01T09:04:34Z</time></trkpt><trkpt lat="13.2688782737" lon="38.1466743350"><ele>3805.04</ele><time>2015-04-01T09:04:47Z</time></trkpt><trkpt lat="13.2687727455" lon="38.1467322540"><ele>3808.88</ele><time>2015-04-01T09:05:03Z</time></trkpt><trkpt lat="13.2687279861" lon="38.1467738282"><ele>3810.80</ele><time>2015-04-01T09:05:19Z</time></trkpt><trkpt lat="13.2686715759" lon="38.1467988063"><ele>3811.76</ele><time>2015-04-01T09:05:34Z</time></trkpt><trkpt lat="13.2685610186" lon="38.1468607485"><ele>3813.21</ele><time>2015-04-01T09:05:52Z</time></trkpt><trkpt lat="13.2684680633" lon="38.1469252054"><ele>3815.13</ele><time>2015-04-01T09:06:07Z</time></trkpt><trkpt lat="13.2683824841" lon="38.1469962839"><ele>3817.53</ele><time>2015-04-01T09:06:21Z</time></trkpt><trkpt lat="13.2682789676" lon="38.1470770855"><ele>3818.97</ele><time>2015-04-01T09:06:36Z</time></trkpt><trkpt lat="13.2681511436" lon="38.1471352559"><ele>3820.42</ele><time>2015-04-01T09:06:53Z</time></trkpt><trkpt lat="13.2680087350" lon="38.1471741479"><ele>3822.34</ele><time>2015-04-01T09:07:08Z</time></trkpt><trkpt lat="13.2678996865" lon="38.1472249422"><ele>3824.26</ele><time>2015-04-01T09:07:23Z</time></trkpt><trkpt lat="13.2677692641" lon="38.1472654268"><ele>3826.67</ele><time>2015-04-01T09:07:38Z</time></trkpt><trkpt lat="13.2676523365" lon="38.1472914945"><ele>3830.51</ele><time>2015-04-01T09:07:52Z</time></trkpt><trkpt lat="13.2675926574" lon="38.1473045703"><ele>3833.39</ele><time>2015-04-01T09:08:08Z</time></trkpt><trkpt lat="13.2675714511" lon="38.1473184004"><ele>3832.91</ele><time>2015-04-01T09:08:26Z</time></trkpt><trkpt lat="13.2675406896" lon="38.1473372597"><ele>3832.91</ele><time>2015-04-01T09:08:59Z</time></trkpt><trkpt lat="13.2675105147" lon="38.1473744754"><ele>3832.91</ele><time>2015-04-01T09:09:11Z</time></trkpt><trkpt lat="13.2674435433" lon="38.1474271137"><ele>3833.88</ele><time>2015-04-01T09:09:23Z</time></trkpt><trkpt lat="13.2674128655" lon="38.1474415306"><ele>3834.36</ele><time>2015-04-01T09:09:27Z</time></trkpt><trkpt lat="13.2673232630" lon="38.1474746391"><ele>3836.28</ele><time>2015-04-01T09:09:41Z</time></trkpt><trkpt lat="13.2672634162" lon="38.1475432869"><ele>3837.24</ele><time>2015-04-01T09:09:55Z</time></trkpt><trkpt lat="13.2671701256" lon="38.1475881301"><ele>3838.20</ele><time>2015-04-01T09:10:11Z</time></trkpt><trkpt lat="13.2670850493" lon="38.1476496533"><ele>3838.68</ele><time>2015-04-01T09:10:26Z</time></trkpt><trkpt lat="13.2669824548" lon="38.1476763915"><ele>3839.16</ele><time>2015-04-01T09:10:43Z</time></trkpt><trkpt lat="13.2668710593" lon="38.1477151997"><ele>3840.60</ele><time>2015-04-01T09:11:01Z</time></trkpt><trkpt lat="13.2667822111" lon="38.1477462128"><ele>3842.53</ele><time>2015-04-01T09:11:16Z</time></trkpt><trkpt lat="13.2666784432" lon="38.1478007790"><ele>3844.45</ele><time>2015-04-01T09:11:32Z</time></trkpt><trkpt lat="13.2665985636" lon="38.1478607934"><ele>3844.93</ele><time>2015-04-01T09:11:44Z</time></trkpt><trkpt lat="13.2665822189" lon="38.1478694268"><ele>3844.93</ele><time>2015-04-01T09:11:46Z</time></trkpt><trkpt lat="13.2664711587" lon="38.1478905492"><ele>3847.33</ele><time>2015-04-01T09:12:01Z</time></trkpt><trkpt lat="13.2663760241" lon="38.1479446962"><ele>3849.26</ele><time>2015-04-01T09:12:16Z</time></trkpt><trkpt lat="13.2662866730" lon="38.1479602028"><ele>3852.14</ele><time>2015-04-01T09:12:33Z</time></trkpt><trkpt lat="13.2662709150" lon="38.1479722727"><ele>3854.54</ele><time>2015-04-01T09:12:52Z</time></trkpt><trkpt lat="13.2661872637" lon="38.1479602866"><ele>3855.02</ele><time>2015-04-01T09:13:07Z</time></trkpt><trkpt lat="13.2660874352" lon="38.1479514856"><ele>3857.43</ele><time>2015-04-01T09:13:23Z</time></trkpt><trkpt lat="13.2659928873" lon="38.1479395833"><ele>3861.27</ele><time>2015-04-01T09:13:39Z</time></trkpt><trkpt lat="13.2658945676" lon="38.1479788106"><ele>3863.68</ele><time>2015-04-01T09:13:52Z</time></trkpt><trkpt lat="13.2658037916" lon="38.1480211392"><ele>3865.60</ele><time>2015-04-01T09:14:07Z</time></trkpt><trkpt lat="13.2657190505" lon="38.1479876954"><ele>3866.08</ele><time>2015-04-01T09:14:21Z</time></trkpt><trkpt lat="13.2656036317" lon="38.1479876116"><ele>3868.00</ele><time>2015-04-01T09:14:36Z</time></trkpt><trkpt lat="13.2654730417" lon="38.1479959097"><ele>3870.41</ele><time>2015-04-01T09:14:51Z</time></trkpt><trkpt lat="13.2654002868" lon="38.1480674073"><ele>3871.85</ele><time>2015-04-01T09:15:05Z</time></trkpt><trkpt lat="13.2653012965" lon="38.1481098197"><ele>3873.29</ele><time>2015-04-01T09:15:22Z</time></trkpt><trkpt lat="13.2651947625" lon="38.1481417548"><ele>3875.69</ele><time>2015-04-01T09:15:38Z</time></trkpt><trkpt lat="13.2651070040" lon="38.1481897831"><ele>3877.62</ele><time>2015-04-01T09:15:50Z</time></trkpt><trkpt lat="13.2650127076" lon="38.1482316926"><ele>3878.58</ele><time>2015-04-01T09:16:02Z</time></trkpt><trkpt lat="13.2649208419" lon="38.1482342910"><ele>3878.58</ele><time>2015-04-01T09:16:16Z</time></trkpt><trkpt lat="13.2647798583" lon="38.1482550781"><ele>3879.54</ele><time>2015-04-01T09:16:34Z</time></trkpt><trkpt lat="13.2646535430" lon="38.1482896116"><ele>3881.94</ele><time>2015-04-01T09:16:50Z</time></trkpt><trkpt lat="13.2645293232" lon="38.1483066268"><ele>3884.34</ele><time>2015-04-01T09:17:06Z</time></trkpt><trkpt lat="13.2644062769" lon="38.1483149249"><ele>3886.27</ele><time>2015-04-01T09:17:23Z</time></trkpt><trkpt lat="13.2643043529" lon="38.1483248994"><ele>3885.79</ele><time>2015-04-01T09:17:39Z</time></trkpt><trkpt lat="13.2641926222" lon="38.1483663060"><ele>3887.71</ele><time>2015-04-01T09:17:53Z</time></trkpt><trkpt lat="13.2640948053" lon="38.1484401505"><ele>3890.11</ele><time>2015-04-01T09:18:08Z</time></trkpt><trkpt lat="13.2639942225" lon="38.1485051941"><ele>3891.55</ele><time>2015-04-01T09:18:21Z</time></trkpt><trkpt lat="13.2639498822" lon="38.1486057770"><ele>3893.96</ele><time>2015-04-01T09:18:34Z</time></trkpt><trkpt lat="13.2639225572" lon="38.1486417353"><ele>3895.40</ele><time>2015-04-01T09:18:44Z</time></trkpt><trkpt lat="13.2638667338" lon="38.1486998219"><ele>3895.88</ele><time>2015-04-01T09:18:56Z</time></trkpt><trkpt lat="13.2638276741" lon="38.1487588305"><ele>3897.32</ele><time>2015-04-01T09:19:09Z</time></trkpt><trkpt lat="13.2637701742" lon="38.1487596687"><ele>3899.24</ele><time>2015-04-01T09:19:25Z</time></trkpt><trkpt lat="13.2636469603" lon="38.1487500295"><ele>3900.69</ele><time>2015-04-01T09:19:42Z</time></trkpt><trkpt lat="13.2635268476" lon="38.1487699784"><ele>3902.61</ele><time>2015-04-01T09:19:57Z</time></trkpt><trkpt lat="13.2634130213" lon="38.1487847306"><ele>3905.01</ele><time>2015-04-01T09:20:13Z</time></trkpt><trkpt lat="13.2632996980" lon="38.1487653684"><ele>3906.94</ele><time>2015-04-01T09:20:28Z</time></trkpt><trkpt lat="13.2631904818" lon="38.1487574894"><ele>3908.86</ele><time>2015-04-01T09:20:42Z</time></trkpt><trkpt lat="13.2630725484" lon="38.1487452518"><ele>3911.74</ele><time>2015-04-01T09:20:57Z</time></trkpt><trkpt lat="13.2630088460" lon="38.1487434078"><ele>3913.66</ele><time>2015-04-01T09:21:06Z</time></trkpt><trkpt lat="13.2628968637" lon="38.1487231236"><ele>3917.51</ele><time>2015-04-01T09:21:20Z</time></trkpt><trkpt lat="13.2627733983" lon="38.1486743409"><ele>3919.91</ele><time>2015-04-01T09:21:35Z</time></trkpt><trkpt lat="13.2627456542" lon="38.1486618519"><ele>3920.87</ele><time>2015-04-01T09:21:39Z</time></trkpt><trkpt lat="13.2626333367" lon="38.1486509554"><ele>3921.84</ele><time>2015-04-01T09:21:55Z</time></trkpt><trkpt lat="13.2625164092" lon="38.1486466806"><ele>3928.56</ele><time>2015-04-01T09:22:12Z</time></trkpt><trkpt lat="13.2623993140" lon="38.1486423220"><ele>3934.33</ele><time>2015-04-01T09:22:29Z</time></trkpt><trkpt lat="13.2622943725" lon="38.1485816371"><ele>3936.74</ele><time>2015-04-01T09:22:43Z</time></trkpt><trkpt lat="13.2622019202" lon="38.1485269032"><ele>3935.29</ele><time>2015-04-01T09:22:56Z</time></trkpt><trkpt lat="13.2622247189" lon="38.1485374644"><ele>3925.20</ele><time>2015-04-01T09:23:11Z</time></trkpt><trkpt lat="13.2621744275" lon="38.1485084631"><ele>3921.35</ele><time>2015-04-01T09:23:23Z</time></trkpt><trkpt lat="13.2621497847" lon="38.1485083792"><ele>3914.63</ele><time>2015-04-01T09:23:34Z</time></trkpt><trkpt lat="13.2621319313" lon="38.1484856643"><ele>3906.94</ele><time>2015-04-01T09:23:51Z</time></trkpt><trkpt lat="13.2621334400" lon="38.1485060323"><ele>3903.09</ele><time>2015-04-01T09:24:15Z</time></trkpt><trkpt lat="13.2621165924" lon="38.1485010870"><ele>3909.82</ele><time>2015-04-01T09:24:49Z</time></trkpt><trkpt lat="13.2621284109" lon="38.1484937109"><ele>3915.11</ele><time>2015-04-01T09:25:18Z</time></trkpt><trkpt lat="13.2621217892" lon="38.1485020928"><ele>3913.18</ele><time>2015-04-01T09:25:56Z</time></trkpt><trkpt lat="13.2621276565" lon="38.1484930404"><ele>3912.70</ele><time>2015-04-01T09:26:32Z</time></trkpt><trkpt lat="13.2621411514" lon="38.1485142466"><ele>3913.18</ele><time>2015-04-01T09:27:08Z</time></trkpt><trkpt lat="13.2621170953" lon="38.1484947167"><ele>3911.26</ele><time>2015-04-01T09:27:39Z</time></trkpt><trkpt lat="13.2621465996" lon="38.1485198624"><ele>3911.74</ele><time>2015-04-01T09:28:10Z</time></trkpt><trkpt lat="13.2621097192" lon="38.1485037692"><ele>3912.70</ele><time>2015-04-01T09:28:39Z</time></trkpt><trkpt lat="13.2620699052" lon="38.1484781206"><ele>3914.15</ele><time>2015-04-01T09:29:01Z</time></trkpt><trkpt lat="13.2620601822" lon="38.1484736782"><ele>3914.15</ele><time>2015-04-01T09:29:24Z</time></trkpt><trkpt lat="13.2620653789" lon="38.1484792102"><ele>3917.51</ele><time>2015-04-01T09:29:56Z</time></trkpt><trkpt lat="13.2620745152" lon="38.1484857481"><ele>3919.43</ele><time>2015-04-01T09:30:27Z</time></trkpt><trkpt lat="13.2620552368" lon="38.1484885979"><ele>3919.91</ele><time>2015-04-01T09:30:57Z</time></trkpt><trkpt lat="13.2620212063" lon="38.1485010870"><ele>3921.35</ele><time>2015-04-01T09:31:13Z</time></trkpt><trkpt lat="13.2619560789" lon="38.1485367939"><ele>3923.28</ele><time>2015-04-01T09:31:29Z</time></trkpt><trkpt lat="13.2617933024" lon="38.1485804636"><ele>3926.64</ele><time>2015-04-01T09:31:48Z</time></trkpt><trkpt lat="13.2616998442" lon="38.1486160867"><ele>3929.05</ele><time>2015-04-01T09:32:02Z</time></trkpt><trkpt lat="13.2616016921" lon="38.1486422382"><ele>3932.41</ele><time>2015-04-01T09:32:19Z</time></trkpt><trkpt lat="13.2615236565" lon="38.1486893445"><ele>3935.77</ele><time>2015-04-01T09:32:35Z</time></trkpt><trkpt lat="13.2614817470" lon="38.1487256382"><ele>3941.06</ele><time>2015-04-01T09:32:52Z</time></trkpt><trkpt lat="13.2614125963" lon="38.1487762649"><ele>3943.47</ele><time>2015-04-01T09:33:06Z</time></trkpt><trkpt lat="13.2613259275" lon="38.1488098763"><ele>3944.91</ele><time>2015-04-01T09:33:21Z</time></trkpt><trkpt lat="13.2612441201" lon="38.1488744169"><ele>3948.27</ele><time>2015-04-01T09:33:37Z</time></trkpt><trkpt lat="13.2611482311" lon="38.1489400472"><ele>3951.16</ele><time>2015-04-01T09:33:53Z</time></trkpt><trkpt lat="13.2610744704" lon="38.1490034144"><ele>3953.56</ele><time>2015-04-01T09:34:06Z</time></trkpt><trkpt lat="13.2610178925" lon="38.1490762532"><ele>3954.52</ele><time>2015-04-01T09:34:19Z</time></trkpt><trkpt lat="13.2609256916" lon="38.1491268799"><ele>3958.85</ele><time>2015-04-01T09:34:35Z</time></trkpt><trkpt lat="13.2609107718" lon="38.1491541211"><ele>3959.81</ele><time>2015-04-01T09:34:50Z</time></trkpt><trkpt lat="13.2608907390" lon="38.1492338330"><ele>3959.33</ele><time>2015-04-01T09:35:04Z</time></trkpt><trkpt lat="13.2608961035" lon="38.1493197475"><ele>3959.33</ele><time>2015-04-01T09:35:18Z</time></trkpt><trkpt lat="13.2608836982" lon="38.1494085956"><ele>3960.29</ele><time>2015-04-01T09:35:35Z</time></trkpt><trkpt lat="13.2609007135" lon="38.1494893134"><ele>3961.25</ele><time>2015-04-01T09:35:59Z</time></trkpt><trkpt lat="13.2609819341" lon="38.1495754793"><ele>3962.69</ele><time>2015-04-01T09:36:14Z</time></trkpt><trkpt lat="13.2610401884" lon="38.1496632379"><ele>3964.13</ele><time>2015-04-01T09:36:27Z</time></trkpt><trkpt lat="13.2610576227" lon="38.1497784890"><ele>3966.54</ele><time>2015-04-01T09:36:44Z</time></trkpt><trkpt lat="13.2610151265" lon="38.1498705223"><ele>3969.42</ele><time>2015-04-01T09:36:59Z</time></trkpt><trkpt lat="13.2609351631" lon="38.1499602925"><ele>3972.30</ele><time>2015-04-01T09:37:15Z</time></trkpt><trkpt lat="13.2608845364" lon="38.1500409264"><ele>3975.19</ele><time>2015-04-01T09:37:30Z</time></trkpt><trkpt lat="13.2608469017" lon="38.1501738634"><ele>3978.07</ele><time>2015-04-01T09:37:47Z</time></trkpt><trkpt lat="13.2608122844" lon="38.1502746139"><ele>3980.48</ele><time>2015-04-01T09:38:02Z</time></trkpt><trkpt lat="13.2607691176" lon="38.1503815670"><ele>3982.40</ele><time>2015-04-01T09:38:19Z</time></trkpt><trkpt lat="13.2607216761" lon="38.1505030207"><ele>3984.32</ele><time>2015-04-01T09:38:34Z</time></trkpt><trkpt lat="13.2607123721" lon="38.1506060343"><ele>3986.24</ele><time>2015-04-01T09:38:49Z</time></trkpt><trkpt lat="13.2607235201" lon="38.1506906077"><ele>3988.17</ele><time>2015-04-01T09:39:04Z</time></trkpt><trkpt lat="13.2607002184" lon="38.1508236285"><ele>3990.09</ele><time>2015-04-01T09:39:20Z</time></trkpt><trkpt lat="13.2606582250" lon="38.1509715691"><ele>3991.53</ele><time>2015-04-01T09:39:38Z</time></trkpt><trkpt lat="13.2606529444" lon="38.1509947032"><ele>3991.53</ele><time>2015-04-01T09:39:41Z</time></trkpt><trkpt lat="13.2606270444" lon="38.1511559710"><ele>3993.93</ele><time>2015-04-01T09:39:58Z</time></trkpt><trkpt lat="13.2606170699" lon="38.1512825377"><ele>3996.34</ele><time>2015-04-01T09:40:13Z</time></trkpt><trkpt lat="13.2606141362" lon="38.1514047459"><ele>3998.74</ele><time>2015-04-01T09:40:28Z</time></trkpt><trkpt lat="13.2606268767" lon="38.1515298039"><ele>4000.18</ele><time>2015-04-01T09:40:43Z</time></trkpt><trkpt lat="13.2606026530" lon="38.1516529340"><ele>4002.11</ele><time>2015-04-01T09:40:57Z</time></trkpt><trkpt lat="13.2605873141" lon="38.1516883895"><ele>4001.14</ele><time>2015-04-01T09:41:12Z</time></trkpt><trkpt lat="13.2605409622" lon="38.1517450511"><ele>4001.14</ele><time>2015-04-01T09:41:25Z</time></trkpt><trkpt lat="13.2605390344" lon="38.1517636590"><ele>4001.14</ele><time>2015-04-01T09:41:45Z</time></trkpt><trkpt lat="13.2605288085" lon="38.1518318038"><ele>4000.18</ele><time>2015-04-01T09:42:04Z</time></trkpt><trkpt lat="13.2604599930" lon="38.1519577000"><ele>4000.66</ele><time>2015-04-01T09:42:22Z</time></trkpt><trkpt lat="13.2604172453" lon="38.1520666648"><ele>4002.59</ele><time>2015-04-01T09:42:36Z</time></trkpt><trkpt lat="13.2603677921" lon="38.1522148568"><ele>4004.99</ele><time>2015-04-01T09:42:54Z</time></trkpt><trkpt lat="13.2603406347" lon="38.1523241568"><ele>4007.39</ele><time>2015-04-01T09:43:09Z</time></trkpt><trkpt lat="13.2603332587" lon="38.1524126697"><ele>4008.83</ele><time>2015-04-01T09:43:22Z</time></trkpt><trkpt lat="13.2603174169" lon="38.1524556689"><ele>4009.80</ele><time>2015-04-01T09:43:38Z</time></trkpt><trkpt lat="13.2603051793" lon="38.1525592692"><ele>4010.28</ele><time>2015-04-01T09:43:52Z</time></trkpt><trkpt lat="13.2603184227" lon="38.1526376400"><ele>4011.24</ele><time>2015-04-01T09:44:02Z</time></trkpt><trkpt lat="13.2603418082" lon="38.1527567469"><ele>4011.72</ele><time>2015-04-01T09:44:16Z</time></trkpt><trkpt lat="13.2603552192" lon="38.1528629456"><ele>4012.20</ele><time>2015-04-01T09:44:29Z</time></trkpt><trkpt lat="13.2603429817" lon="38.1529924460"><ele>4012.68</ele><time>2015-04-01T09:44:44Z</time></trkpt><trkpt lat="13.2603450771" lon="38.1531288195"><ele>4014.12</ele><time>2015-04-01T09:44:58Z</time></trkpt><trkpt lat="13.2603630982" lon="38.1532627624"><ele>4016.04</ele><time>2015-04-01T09:45:12Z</time></trkpt><trkpt lat="13.2603730727" lon="38.1533762533"><ele>4016.53</ele><time>2015-04-01T09:45:24Z</time></trkpt><trkpt lat="13.2603910100" lon="38.1535041612"><ele>4015.56</ele><time>2015-04-01T09:45:37Z</time></trkpt><trkpt lat="13.2604171615" lon="38.1536287162"><ele>4014.12</ele><time>2015-04-01T09:45:51Z</time></trkpt><trkpt lat="13.2604298182" lon="38.1537598092"><ele>4013.16</ele><time>2015-04-01T09:46:04Z</time></trkpt><trkpt lat="13.2604375295" lon="38.1539403554"><ele>4013.16</ele><time>2015-04-01T09:46:21Z</time></trkpt><trkpt lat="13.2604367752" lon="38.1540373340"><ele>4014.12</ele><time>2015-04-01T09:46:31Z</time></trkpt><trkpt lat="13.2604009006" lon="38.1542306207"><ele>4016.53</ele><time>2015-04-01T09:46:50Z</time></trkpt><trkpt lat="13.2604042534" lon="38.1543467939"><ele>4018.45</ele><time>2015-04-01T09:47:02Z</time></trkpt><trkpt lat="13.2604185864" lon="38.1545244064"><ele>4020.37</ele><time>2015-04-01T09:47:19Z</time></trkpt><trkpt lat="13.2604233641" lon="38.1546498835"><ele>4024.22</ele><time>2015-04-01T09:47:35Z</time></trkpt><trkpt lat="13.2604389545" lon="38.1547600217"><ele>4026.62</ele><time>2015-04-01T09:47:47Z</time></trkpt><trkpt lat="13.2604510244" lon="38.1548963115"><ele>4027.58</ele><time>2015-04-01T09:48:00Z</time></trkpt><trkpt lat="13.2604863960" lon="38.1550229620"><ele>4029.02</ele><time>2015-04-01T09:48:13Z</time></trkpt><trkpt lat="13.2605173253" lon="38.1551851518"><ele>4030.95</ele><time>2015-04-01T09:48:29Z</time></trkpt><trkpt lat="13.2605470810" lon="38.1553493533"><ele>4031.91</ele><time>2015-04-01T09:48:45Z</time></trkpt><trkpt lat="13.2605966181" lon="38.1554901693"><ele>4032.87</ele><time>2015-04-01T09:49:00Z</time></trkpt><trkpt lat="13.2606007252" lon="38.1555003114"><ele>4032.87</ele><time>2015-04-01T09:49:01Z</time></trkpt><trkpt lat="13.2606324088" lon="38.1556500122"><ele>4033.35</ele><time>2015-04-01T09:49:16Z</time></trkpt><trkpt lat="13.2606513519" lon="38.1557465717"><ele>4034.31</ele><time>2015-04-01T09:49:32Z</time></trkpt><trkpt lat="13.2606363483" lon="38.1557573006"><ele>4033.83</ele><time>2015-04-01T09:49:49Z</time></trkpt><trkpt lat="13.2606439758" lon="38.1557643414"><ele>4032.87</ele><time>2015-04-01T09:50:10Z</time></trkpt><trkpt lat="13.2606560457" lon="38.1557644252"><ele>4031.91</ele><time>2015-04-01T09:50:43Z</time></trkpt><trkpt lat="13.2606434729" lon="38.1557567976"><ele>4031.43</ele><time>2015-04-01T09:51:16Z</time></trkpt><trkpt lat="13.2606463227" lon="38.1557514332"><ele>4032.87</ele><time>2015-04-01T09:51:42Z</time></trkpt><trkpt lat="13.2606419642" lon="38.1557552889"><ele>4033.35</ele><time>2015-04-01T09:52:13Z</time></trkpt><trkpt lat="13.2606496755" lon="38.1557598151"><ele>4031.91</ele><time>2015-04-01T09:52:44Z</time></trkpt><trkpt lat="13.2606489211" lon="38.1557614077"><ele>4030.95</ele><time>2015-04-01T09:53:20Z</time></trkpt><trkpt lat="13.2606497593" lon="38.1557558756"><ele>4030.46</ele><time>2015-04-01T09:53:56Z</time></trkpt><trkpt lat="13.2606662717" lon="38.1558203325"><ele>4030.46</ele><time>2015-04-01T09:54:17Z</time></trkpt><trkpt lat="13.2606711332" lon="38.1558335759"><ele>4030.46</ele><time>2015-04-01T09:54:19Z</time></trkpt><trkpt lat="13.2606880646" lon="38.1559101865"><ele>4032.39</ele><time>2015-04-01T09:54:32Z</time></trkpt><trkpt lat="13.2606834546" lon="38.1559968553"><ele>4035.75</ele><time>2015-04-01T09:54:46Z</time></trkpt><trkpt lat="13.2607367635" lon="38.1560624018"><ele>4038.16</ele><time>2015-04-01T09:55:00Z</time></trkpt><trkpt lat="13.2607477438" lon="38.1561589614"><ele>4040.56</ele><time>2015-04-01T09:55:14Z</time></trkpt><trkpt lat="13.2607821934" lon="38.1562569458"><ele>4041.52</ele><time>2015-04-01T09:55:28Z</time></trkpt><trkpt lat="13.2607784215" lon="38.1563707720"><ele>4043.44</ele><time>2015-04-01T09:55:43Z</time></trkpt><trkpt lat="13.2608217560" lon="38.1564930640"><ele>4044.88</ele><time>2015-04-01T09:55:59Z</time></trkpt><trkpt lat="13.2608942594" lon="38.1565951556"><ele>4045.85</ele><time>2015-04-01T09:56:14Z</time></trkpt><trkpt lat="13.2609043177" lon="38.1566493865"><ele>4047.29</ele><time>2015-04-01T09:56:21Z</time></trkpt><trkpt lat="13.2609515078" lon="38.1567660626"><ele>4048.25</ele><time>2015-04-01T09:56:34Z</time></trkpt><trkpt lat="13.2610008772" lon="38.1568595208"><ele>4048.73</ele><time>2015-04-01T09:56:46Z</time></trkpt><trkpt lat="13.2610260230" lon="38.1569669768"><ele>4049.69</ele><time>2015-04-01T09:56:59Z</time></trkpt><trkpt lat="13.2610341534" lon="38.1570783723"><ele>4050.65</ele><time>2015-04-01T09:57:11Z</time></trkpt><trkpt lat="13.2610427868" lon="38.1571748480"><ele>4053.06</ele><time>2015-04-01T09:57:26Z</time></trkpt><trkpt lat="13.2611046452" lon="38.1572834775"><ele>4053.54</ele><time>2015-04-01T09:57:41Z</time></trkpt><trkpt lat="13.2611314673" lon="38.1573717389"><ele>4054.02</ele><time>2015-04-01T09:57:53Z</time></trkpt><trkpt lat="13.2611520868" lon="38.1574492715"><ele>4054.50</ele><time>2015-04-01T09:58:06Z</time></trkpt><trkpt lat="13.2611196488" lon="38.1575213559"><ele>4055.46</ele><time>2015-04-01T09:58:19Z</time></trkpt><trkpt lat="13.2611026336" lon="38.1575356890"><ele>4055.46</ele><time>2015-04-01T09:58:22Z</time></trkpt><trkpt lat="13.2610060740" lon="38.1575627625"><ele>4057.86</ele><time>2015-04-01T09:58:37Z</time></trkpt><trkpt lat="13.2609277871" lon="38.1575619243"><ele>4058.82</ele><time>2015-04-01T09:58:55Z</time></trkpt><trkpt lat="13.2609365042" lon="38.1575672049"><ele>4058.34</ele><time>2015-04-01T09:59:15Z</time></trkpt><trkpt lat="13.2609341573" lon="38.1575657800"><ele>4058.34</ele><time>2015-04-01T09:59:32Z</time></trkpt><trkpt lat="13.2609537710" lon="38.1575657800"><ele>4057.38</ele><time>2015-04-01T10:00:06Z</time></trkpt><trkpt lat="13.2609355822" lon="38.1575694680"><ele>4057.38</ele><time>2015-04-01T10:00:24Z</time></trkpt><trkpt lat="13.2609397732" lon="38.1575611699"><ele>4057.86</ele><time>2015-04-01T10:00:44Z</time></trkpt><trkpt lat="13.2609317265" lon="38.1575645227"><ele>4061.23</ele><time>2015-04-01T10:01:20Z</time></trkpt><trkpt lat="13.2609422039" lon="38.1575603317"><ele>4060.75</ele><time>2015-04-01T10:01:50Z</time></trkpt><trkpt lat="13.2609397732" lon="38.1575646065"><ele>4061.23</ele><time>2015-04-01T10:02:23Z</time></trkpt><trkpt lat="13.2609411143" lon="38.1575608347"><ele>4064.11</ele><time>2015-04-01T10:02:57Z</time></trkpt><trkpt lat="13.2609349955" lon="38.1575653609"><ele>4065.55</ele><time>2015-04-01T10:03:33Z</time></trkpt><trkpt lat="13.2609036472" lon="38.1575683784"><ele>4064.11</ele><time>2015-04-01T10:04:04Z</time></trkpt><trkpt lat="13.2609145436" lon="38.1575714797"><ele>4061.71</ele><time>2015-04-01T10:04:37Z</time></trkpt><trkpt lat="13.2609469816" lon="38.1575606670"><ele>4063.15</ele><time>2015-04-01T10:05:09Z</time></trkpt><trkpt lat="13.2609815989" lon="38.1575537100"><ele>4061.71</ele><time>2015-04-01T10:05:41Z</time></trkpt><trkpt lat="13.2609629072" lon="38.1575595774"><ele>4061.23</ele><time>2015-04-01T10:06:09Z</time></trkpt><trkpt lat="13.2609211653" lon="38.1575591583"><ele>4062.67</ele><time>2015-04-01T10:06:38Z</time></trkpt><trkpt lat="13.2609101012" lon="38.1575526204"><ele>4063.15</ele><time>2015-04-01T10:07:11Z</time></trkpt><trkpt lat="13.2609330676" lon="38.1575538777"><ele>4061.71</ele><time>2015-04-01T10:07:36Z</time></trkpt><trkpt lat="13.2609021384" lon="38.1575770956"><ele>4063.15</ele><time>2015-04-01T10:08:12Z</time></trkpt><trkpt lat="13.2609047368" lon="38.1575796101"><ele>4062.19</ele><time>2015-04-01T10:08:51Z</time></trkpt><trkpt lat="13.2609019708" lon="38.1575813703"><ele>4058.34</ele><time>2015-04-01T10:09:23Z</time></trkpt><trkpt lat="13.2609038986" lon="38.1575720664"><ele>4059.30</ele><time>2015-04-01T10:09:56Z</time></trkpt><trkpt lat="13.2609007135" lon="38.1575989723"><ele>4061.71</ele><time>2015-04-01T10:10:22Z</time></trkpt><trkpt lat="13.2609427907" lon="38.1575794425"><ele>4061.23</ele><time>2015-04-01T10:10:52Z</time></trkpt><trkpt lat="13.2609244343" lon="38.1575641874"><ele>4063.15</ele><time>2015-04-01T10:11:20Z</time></trkpt><trkpt lat="13.2609266974" lon="38.1575714797"><ele>4064.59</ele><time>2015-04-01T10:11:47Z</time></trkpt><trkpt lat="13.2608971093" lon="38.1575784367"><ele>4062.67</ele><time>2015-04-01T10:12:18Z</time></trkpt><trkpt lat="13.2609243505" lon="38.1575911772"><ele>4060.75</ele><time>2015-04-01T10:12:44Z</time></trkpt><trkpt lat="13.2609132864" lon="38.1575873215"><ele>4063.15</ele><time>2015-04-01T10:13:12Z</time></trkpt><trkpt lat="13.2609243505" lon="38.1575595774"><ele>4064.11</ele><time>2015-04-01T10:13:46Z</time></trkpt><trkpt lat="13.2608871348" lon="38.1575703062"><ele>4058.82</ele><time>2015-04-01T10:14:13Z</time></trkpt><trkpt lat="13.2609118614" lon="38.1575839687"><ele>4055.94</ele><time>2015-04-01T10:14:47Z</time></trkpt><trkpt lat="13.2609068323" lon="38.1575789396"><ele>4058.82</ele><time>2015-04-01T10:15:07Z</time></trkpt><trkpt lat="13.2608404476" lon="38.1575920992"><ele>4058.82</ele><time>2015-04-01T10:15:32Z</time></trkpt><trkpt lat="13.2607288845" lon="38.1575817056"><ele>4058.82</ele><time>2015-04-01T10:15:55Z</time></trkpt><trkpt lat="13.2607099414" lon="38.1575859804"><ele>4058.82</ele><time>2015-04-01T10:16:00Z</time></trkpt><trkpt lat="13.2606754918" lon="38.1575953681"><ele>4059.30</ele><time>2015-04-01T10:16:21Z</time></trkpt><trkpt lat="13.2607987896" lon="38.1575837173"><ele>4058.34</ele><time>2015-04-01T10:16:41Z</time></trkpt><trkpt lat="13.2608714607" lon="38.1575511955"><ele>4053.06</ele><time>2015-04-01T10:25:02Z</time></trkpt><trkpt lat="13.2609339897" lon="38.1575782690"><ele>4054.98</ele><time>2015-04-01T10:25:19Z</time></trkpt><trkpt lat="13.2609323133" lon="38.1575690489"><ele>4054.50</ele><time>2015-04-01T10:25:46Z</time></trkpt><trkpt lat="13.2609211653" lon="38.1575596612"><ele>4054.50</ele><time>2015-04-01T10:26:20Z</time></trkpt><trkpt lat="13.2609064970" lon="38.1575662829"><ele>4054.50</ele><time>2015-04-01T10:26:36Z</time></trkpt><trkpt lat="13.2609189861" lon="38.1575472560"><ele>4055.46</ele><time>2015-04-01T10:26:53Z</time></trkpt><trkpt lat="13.2609040663" lon="38.1575620919"><ele>4057.86</ele><time>2015-04-01T10:27:18Z</time></trkpt><trkpt lat="13.2608914934" lon="38.1575698871"><ele>4062.19</ele><time>2015-04-01T10:28:03Z</time></trkpt><trkpt lat="13.2608776633" lon="38.1575775985"><ele>4064.59</ele><time>2015-04-01T10:28:36Z</time></trkpt><trkpt lat="13.2608918287" lon="38.1575822085"><ele>4064.11</ele><time>2015-04-01T10:29:15Z</time></trkpt><trkpt lat="13.2609064970" lon="38.1575847231"><ele>4064.59</ele><time>2015-04-01T10:29:53Z</time></trkpt><trkpt lat="13.2609001268" lon="38.1575610023"><ele>4064.59</ele><time>2015-04-01T10:30:21Z</time></trkpt><trkpt lat="13.2608988695" lon="38.1575822923"><ele>4062.67</ele><time>2015-04-01T10:30:49Z</time></trkpt><trkpt lat="13.2608915772" lon="38.1575933564"><ele>4064.59</ele><time>2015-04-01T10:31:22Z</time></trkpt><trkpt lat="13.2608919125" lon="38.1575822923"><ele>4065.07</ele><time>2015-04-01T10:31:56Z</time></trkpt><trkpt lat="13.2608982828" lon="38.1575597450"><ele>4065.55</ele><time>2015-04-01T10:32:34Z</time></trkpt><trkpt lat="13.2609020546" lon="38.1575718150"><ele>4065.07</ele><time>2015-04-01T10:33:16Z</time></trkpt><trkpt lat="13.2609031443" lon="38.1575810350"><ele>4065.55</ele><time>2015-04-01T10:33:47Z</time></trkpt><trkpt lat="13.2608964387" lon="38.1576057617"><ele>4066.03</ele><time>2015-04-01T10:34:31Z</time></trkpt><trkpt lat="13.2609038986" lon="38.1576183345"><ele>4066.99</ele><time>2015-04-01T10:35:08Z</time></trkpt><trkpt lat="13.2609100174" lon="38.1575788558"><ele>4067.96</ele><time>2015-04-01T10:35:46Z</time></trkpt><trkpt lat="13.2609008811" lon="38.1575889979"><ele>4067.48</ele><time>2015-04-01T10:36:23Z</time></trkpt><trkpt lat="13.2608979475" lon="38.1575765926"><ele>4068.44</ele><time>2015-04-01T10:37:04Z</time></trkpt><trkpt lat="13.2608942594" lon="38.1575754192"><ele>4066.51</ele><time>2015-04-01T10:37:45Z</time></trkpt><trkpt lat="13.2608970255" lon="38.1575767603"><ele>4064.59</ele><time>2015-04-01T10:38:34Z</time></trkpt><trkpt lat="13.2608969416" lon="38.1575708091"><ele>4063.63</ele><time>2015-04-01T10:39:27Z</time></trkpt><trkpt lat="13.2608856261" lon="38.1575891655"><ele>4063.15</ele><time>2015-04-01T10:40:07Z</time></trkpt><trkpt lat="13.2608771604" lon="38.1575813703"><ele>4063.63</ele><time>2015-04-01T10:40:52Z</time></trkpt><trkpt lat="13.2608795911" lon="38.1575904228"><ele>4063.63</ele><time>2015-04-01T10:41:32Z</time></trkpt><trkpt lat="13.2608796749" lon="38.1575813703"><ele>4063.15</ele><time>2015-04-01T10:42:17Z</time></trkpt><trkpt lat="13.2608779147" lon="38.1575895846"><ele>4064.59</ele><time>2015-04-01T10:43:00Z</time></trkpt><trkpt lat="13.2608610671" lon="38.1576135568"><ele>4066.51</ele><time>2015-04-01T10:43:27Z</time></trkpt><trkpt lat="13.2608883083" lon="38.1576273032"><ele>4063.63</ele><time>2015-04-01T10:44:12Z</time></trkpt><trkpt lat="13.2608808484" lon="38.1576083601"><ele>4062.67</ele><time>2015-04-01T10:45:01Z</time></trkpt><trkpt lat="13.2608894818" lon="38.1576046720"><ele>4063.15</ele><time>2015-04-01T10:45:44Z</time></trkpt><trkpt lat="13.2608938403" lon="38.1575998105"><ele>4062.67</ele><time>2015-04-01T10:46:25Z</time></trkpt><trkpt lat="13.2608867157" lon="38.1575855613"><ele>4061.71</ele><time>2015-04-01T10:47:01Z</time></trkpt><trkpt lat="13.2608877216" lon="38.1575885788"><ele>4060.27</ele><time>2015-04-01T10:47:32Z</time></trkpt><trkpt lat="13.2608963549" lon="38.1575792748"><ele>4059.30</ele><time>2015-04-01T10:48:04Z</time></trkpt><trkpt lat="13.2608945947" lon="38.1575981341"><ele>4059.30</ele><time>2015-04-01T10:48:40Z</time></trkpt><trkpt lat="13.2608836144" lon="38.1575969607"><ele>4063.63</ele><time>2015-04-01T10:49:08Z</time></trkpt><trkpt lat="13.2608722989" lon="38.1575586554"><ele>4065.07</ele><time>2015-04-01T10:49:41Z</time></trkpt><trkpt lat="13.2608752325" lon="38.1575751677"><ele>4066.99</ele><time>2015-04-01T10:50:12Z</time></trkpt><trkpt lat="13.2608972769" lon="38.1575777661"><ele>4067.48</ele><time>2015-04-01T10:50:35Z</time></trkpt><trkpt lat="13.2608862128" lon="38.1575728208"><ele>4067.96</ele><time>2015-04-01T10:51:04Z</time></trkpt><trkpt lat="13.2609023899" lon="38.1575796101"><ele>4065.07</ele><time>2015-04-01T10:51:38Z</time></trkpt><trkpt lat="13.2608927507" lon="38.1575805321"><ele>4063.15</ele><time>2015-04-01T10:52:01Z</time></trkpt><trkpt lat="13.2609093469" lon="38.1575728208"><ele>4062.67</ele><time>2015-04-01T10:52:15Z</time></trkpt><trkpt lat="13.2609106880" lon="38.1575727370"><ele>4062.19</ele><time>2015-04-01T10:52:51Z</time></trkpt><trkpt lat="13.2609126158" lon="38.1575740781"><ele>4060.27</ele><time>2015-04-01T10:53:38Z</time></trkpt><trkpt lat="13.2609137055" lon="38.1575818732"><ele>4061.23</ele><time>2015-04-01T10:54:09Z</time></trkpt><trkpt lat="13.2609092630" lon="38.1575814541"><ele>4059.79</ele><time>2015-04-01T10:54:30Z</time></trkpt><trkpt lat="13.2609102689" lon="38.1575811189"><ele>4059.30</ele><time>2015-04-01T10:55:12Z</time></trkpt><trkpt lat="13.2609071676" lon="38.1575814541"><ele>4058.82</ele><time>2015-04-01T10:55:51Z</time></trkpt><trkpt lat="13.2609080896" lon="38.1575810350"><ele>4059.79</ele><time>2015-04-01T10:56:08Z</time></trkpt><trkpt lat="13.2608957682" lon="38.1575701386"><ele>4061.23</ele><time>2015-04-01T10:56:35Z</time></trkpt><trkpt lat="13.2608889788" lon="38.1575723179"><ele>4060.27</ele><time>2015-04-01T10:56:58Z</time></trkpt><trkpt lat="13.2609183155" lon="38.1575817894"><ele>4061.23</ele><time>2015-04-01T10:57:09Z</time></trkpt><trkpt lat="13.2609272841" lon="38.1575621758"><ele>4061.71</ele><time>2015-04-01T10:57:27Z</time></trkpt><trkpt lat="13.2609189022" lon="38.1575990561"><ele>4061.71</ele><time>2015-04-01T10:57:41Z</time></trkpt><trkpt lat="13.2609277032" lon="38.1576143112"><ele>4061.23</ele><time>2015-04-01T10:57:43Z</time></trkpt><trkpt lat="13.2608401123" lon="38.1577137206"><ele>4058.82</ele><time>2015-04-01T10:57:58Z</time></trkpt><trkpt lat="13.2608246058" lon="38.1577280536"><ele>4058.34</ele><time>2015-04-01T10:58:00Z</time></trkpt><trkpt lat="13.2608135417" lon="38.1577428058"><ele>4056.90</ele><time>2015-04-01T10:58:14Z</time></trkpt><trkpt lat="13.2608082611" lon="38.1577484217"><ele>4057.86</ele><time>2015-04-01T10:58:38Z</time></trkpt><trkpt lat="13.2608018909" lon="38.1577489246"><ele>4058.82</ele><time>2015-04-01T10:58:50Z</time></trkpt><trkpt lat="13.2607087679" lon="38.1579148024"><ele>4056.42</ele><time>2015-04-01T10:59:05Z</time></trkpt><trkpt lat="13.2606119569" lon="38.1580833625"><ele>4054.50</ele><time>2015-04-01T10:59:19Z</time></trkpt><trkpt lat="13.2604602445" lon="38.1582721230"><ele>4053.06</ele><time>2015-04-01T10:59:36Z</time></trkpt><trkpt lat="13.2603777666" lon="38.1584240869"><ele>4053.06</ele><time>2015-04-01T10:59:50Z</time></trkpt><trkpt lat="13.2603750844" lon="38.1584353186"><ele>4053.06</ele><time>2015-04-01T10:59:51Z</time></trkpt><trkpt lat="13.2603387907" lon="38.1584830116"><ele>4053.06</ele><time>2015-04-01T10:59:56Z</time></trkpt><trkpt lat="13.2602290716" lon="38.1586343888"><ele>4052.09</ele><time>2015-04-01T11:00:11Z</time></trkpt><trkpt lat="13.2600818854" lon="38.1588208023"><ele>4050.17</ele><time>2015-04-01T11:00:29Z</time></trkpt><trkpt lat="13.2600543089" lon="38.1588651426"><ele>4049.69</ele><time>2015-04-01T11:00:33Z</time></trkpt><trkpt lat="13.2600201108" lon="38.1589185353"><ele>4049.69</ele><time>2015-04-01T11:00:38Z</time></trkpt><trkpt lat="13.2599997427" lon="38.1589670666"><ele>4049.21</ele><time>2015-04-01T11:00:42Z</time></trkpt><trkpt lat="13.2599637844" lon="38.1590166036"><ele>4048.25</ele><time>2015-04-01T11:00:47Z</time></trkpt><trkpt lat="13.2598761097" lon="38.1592070404"><ele>4046.81</ele><time>2015-04-01T11:01:04Z</time></trkpt><trkpt lat="13.2598143350" lon="38.1592735089"><ele>4046.33</ele><time>2015-04-01T11:01:12Z</time></trkpt><trkpt lat="13.2597978227" lon="38.1592994090"><ele>4046.33</ele><time>2015-04-01T11:01:15Z</time></trkpt><trkpt lat="13.2597739343" lon="38.1593348645"><ele>4045.36</ele><time>2015-04-01T11:01:22Z</time></trkpt><trkpt lat="13.2596687414" lon="38.1594759319"><ele>4043.92</ele><time>2015-04-01T11:01:37Z</time></trkpt><trkpt lat="13.2595243212" lon="38.1596506108"><ele>4043.44</ele><time>2015-04-01T11:01:55Z</time></trkpt><trkpt lat="13.2594436873" lon="38.1598336715"><ele>4042.48</ele><time>2015-04-01T11:02:12Z</time></trkpt><trkpt lat="13.2593829185" lon="38.1600213423"><ele>4042.96</ele><time>2015-04-01T11:02:28Z</time></trkpt><trkpt lat="13.2593043800" lon="38.1602159701"><ele>4044.40</ele><time>2015-04-01T11:02:45Z</time></trkpt><trkpt lat="13.2592333015" lon="38.1604766473"><ele>4045.36</ele><time>2015-04-01T11:03:04Z</time></trkpt><trkpt lat="13.2592180464" lon="38.1605630647"><ele>4045.36</ele><time>2015-04-01T11:03:11Z</time></trkpt><trkpt lat="13.2591626421" lon="38.1608616281"><ele>4044.88</ele><time>2015-04-01T11:03:33Z</time></trkpt><trkpt lat="13.2591083273" lon="38.1611055415"><ele>4046.33</ele><time>2015-04-01T11:03:50Z</time></trkpt><trkpt lat="13.2590514142" lon="38.1612963136"><ele>4046.81</ele><time>2015-04-01T11:04:05Z</time></trkpt><trkpt lat="13.2589418627" lon="38.1614896003"><ele>4045.85</ele><time>2015-04-01T11:04:21Z</time></trkpt><trkpt lat="13.2587943412" lon="38.1617272273"><ele>4046.33</ele><time>2015-04-01T11:04:40Z</time></trkpt><trkpt lat="13.2586982846" lon="38.1619322486"><ele>4046.81</ele><time>2015-04-01T11:04:56Z</time></trkpt><trkpt lat="13.2585661020" lon="38.1621403713"><ele>4047.77</ele><time>2015-04-01T11:05:13Z</time></trkpt><trkpt lat="13.2585014775" lon="38.1623531878"><ele>4048.73</ele><time>2015-04-01T11:05:28Z</time></trkpt><trkpt lat="13.2584526110" lon="38.1624836102"><ele>4049.69</ele><time>2015-04-01T11:05:38Z</time></trkpt><trkpt lat="13.2583482563" lon="38.1626497395"><ele>4049.69</ele><time>2015-04-01T11:05:52Z</time></trkpt><trkpt lat="13.2582472544" lon="38.1628832594"><ele>4049.21</ele><time>2015-04-01T11:06:10Z</time></trkpt><trkpt lat="13.2581267226" lon="38.1630855147"><ele>4046.81</ele><time>2015-04-01T11:06:26Z</time></trkpt><trkpt lat="13.2580324262" lon="38.1632189546"><ele>4046.81</ele><time>2015-04-01T11:06:38Z</time></trkpt><trkpt lat="13.2580206916" lon="38.1632622890"><ele>4046.81</ele><time>2015-04-01T11:06:42Z</time></trkpt><trkpt lat="13.2579588331" lon="38.1634021830"><ele>4044.40</ele><time>2015-04-01T11:06:55Z</time></trkpt><trkpt lat="13.2579306699" lon="38.1635198649"><ele>4042.96</ele><time>2015-04-01T11:07:04Z</time></trkpt><trkpt lat="13.2578094676" lon="38.1636873353"><ele>4042.00</ele><time>2015-04-01T11:07:20Z</time></trkpt><trkpt lat="13.2576934621" lon="38.1638369523"><ele>4041.52</ele><time>2015-04-01T11:07:34Z</time></trkpt><trkpt lat="13.2576443441" lon="38.1640089490"><ele>4040.08</ele><time>2015-04-01T11:07:51Z</time></trkpt><trkpt lat="13.2576170191" lon="38.1640520319"><ele>4038.64</ele><time>2015-04-01T11:07:55Z</time></trkpt><trkpt lat="13.2575471979" lon="38.1640860625"><ele>4036.71</ele><time>2015-04-01T11:08:02Z</time></trkpt><trkpt lat="13.2573569287" lon="38.1641799398"><ele>4032.87</ele><time>2015-04-01T11:08:17Z</time></trkpt><trkpt lat="13.2571798190" lon="38.1643018965"><ele>4030.95</ele><time>2015-04-01T11:08:33Z</time></trkpt><trkpt lat="13.2570537552" lon="38.1644752342"><ele>4029.02</ele><time>2015-04-01T11:08:49Z</time></trkpt><trkpt lat="13.2569455449" lon="38.1646317244"><ele>4027.10</ele><time>2015-04-01T11:09:04Z</time></trkpt><trkpt lat="13.2568555232" lon="38.1647298764"><ele>4024.70</ele><time>2015-04-01T11:09:19Z</time></trkpt><trkpt lat="13.2568101771" lon="38.1647448801"><ele>4023.25</ele><time>2015-04-01T11:09:25Z</time></trkpt><trkpt lat="13.2566162199" lon="38.1647910643"><ele>4017.49</ele><time>2015-04-01T11:09:42Z</time></trkpt><trkpt lat="13.2564599812" lon="38.1648255978"><ele>4014.12</ele><time>2015-04-01T11:09:58Z</time></trkpt><trkpt lat="13.2564510964" lon="38.1648243405"><ele>4014.12</ele><time>2015-04-01T11:09:59Z</time></trkpt><trkpt lat="13.2562517747" lon="38.1648630649"><ele>4010.76</ele><time>2015-04-01T11:10:20Z</time></trkpt><trkpt lat="13.2561019063" lon="38.1649340596"><ele>4007.87</ele><time>2015-04-01T11:10:37Z</time></trkpt><trkpt lat="13.2559685502" lon="38.1649623066"><ele>4004.03</ele><time>2015-04-01T11:10:55Z</time></trkpt><trkpt lat="13.2559085358" lon="38.1649530027"><ele>4002.59</ele><time>2015-04-01T11:11:02Z</time></trkpt><trkpt lat="13.2558329310" lon="38.1649509910"><ele>4001.14</ele><time>2015-04-01T11:11:11Z</time></trkpt><trkpt lat="13.2557445019" lon="38.1650106702"><ele>3999.70</ele><time>2015-04-01T11:11:21Z</time></trkpt><trkpt lat="13.2556503732" lon="38.1649913080"><ele>3998.74</ele><time>2015-04-01T11:11:36Z</time></trkpt><trkpt lat="13.2555852458" lon="38.1650323793"><ele>3996.34</ele><time>2015-04-01T11:11:50Z</time></trkpt><trkpt lat="13.2555619441" lon="38.1650577765"><ele>3995.38</ele><time>2015-04-01T11:11:57Z</time></trkpt><trkpt lat="13.2554109022" lon="38.1651094090"><ele>3993.45</ele><time>2015-04-01T11:12:13Z</time></trkpt><trkpt lat="13.2553819008" lon="38.1651089061"><ele>3992.97</ele><time>2015-04-01T11:12:16Z</time></trkpt><trkpt lat="13.2552936394" lon="38.1651986763"><ele>3990.09</ele><time>2015-04-01T11:12:26Z</time></trkpt><trkpt lat="13.2551612053" lon="38.1653548311"><ele>3988.65</ele><time>2015-04-01T11:12:44Z</time></trkpt><trkpt lat="13.2550636400" lon="38.1655144226"><ele>3987.21</ele><time>2015-04-01T11:13:00Z</time></trkpt><trkpt lat="13.2549966685" lon="38.1656273268"><ele>3985.28</ele><time>2015-04-01T11:13:11Z</time></trkpt><trkpt lat="13.2548968401" lon="38.1658132374"><ele>3982.88</ele><time>2015-04-01T11:13:29Z</time></trkpt><trkpt lat="13.2548381668" lon="38.1659877487"><ele>3981.44</ele><time>2015-04-01T11:13:45Z</time></trkpt><trkpt lat="13.2546907291" lon="38.1660362799"><ele>3978.07</ele><time>2015-04-01T11:13:59Z</time></trkpt><trkpt lat="13.2545639947" lon="38.1661015749"><ele>3976.63</ele><time>2015-04-01T11:14:14Z</time></trkpt><trkpt lat="13.2545458898" lon="38.1661009882"><ele>3976.63</ele><time>2015-04-01T11:14:16Z</time></trkpt><trkpt lat="13.2544976939" lon="38.1661715638"><ele>3976.15</ele><time>2015-04-01T11:14:30Z</time></trkpt><trkpt lat="13.2544474024" lon="38.1662057620"><ele>3974.71</ele><time>2015-04-01T11:14:45Z</time></trkpt><trkpt lat="13.2544393558" lon="38.1662208494"><ele>3973.75</ele><time>2015-04-01T11:14:59Z</time></trkpt><trkpt lat="13.2544365898" lon="38.1662806962"><ele>3972.79</ele><time>2015-04-01T11:15:13Z</time></trkpt><trkpt lat="13.2544310577" lon="38.1663236115"><ele>3971.82</ele><time>2015-04-01T11:15:26Z</time></trkpt><trkpt lat="13.2544282079" lon="38.1663391180"><ele>3971.82</ele><time>2015-04-01T11:15:28Z</time></trkpt><trkpt lat="13.2544940896" lon="38.1664667744"><ele>3969.42</ele><time>2015-04-01T11:15:42Z</time></trkpt><trkpt lat="13.2545036450" lon="38.1664846279"><ele>3968.94</ele><time>2015-04-01T11:15:44Z</time></trkpt><trkpt lat="13.2546178903" lon="38.1666246895"><ele>3967.98</ele><time>2015-04-01T11:15:59Z</time></trkpt><trkpt lat="13.2547284476" lon="38.1667396892"><ele>3966.54</ele><time>2015-04-01T11:16:13Z</time></trkpt><trkpt lat="13.2547659986" lon="38.1667985301"><ele>3962.69</ele><time>2015-04-01T11:16:27Z</time></trkpt><trkpt lat="13.2548224088" lon="38.1668291241"><ele>3960.29</ele><time>2015-04-01T11:16:37Z</time></trkpt><trkpt lat="13.2548997737" lon="38.1668597180"><ele>3959.33</ele><time>2015-04-01T11:16:45Z</time></trkpt><trkpt lat="13.2549459580" lon="38.1669028848"><ele>3959.33</ele><time>2015-04-01T11:16:51Z</time></trkpt><trkpt lat="13.2549757976" lon="38.1669205707"><ele>3959.33</ele><time>2015-04-01T11:16:54Z</time></trkpt><trkpt lat="13.2550308667" lon="38.1669531763"><ele>3959.81</ele><time>2015-04-01T11:17:12Z</time></trkpt><trkpt lat="13.2550177909" lon="38.1669752207"><ele>3959.81</ele><time>2015-04-01T11:17:40Z</time></trkpt><trkpt lat="13.2550302800" lon="38.1669841893"><ele>3956.92</ele><time>2015-04-01T11:17:54Z</time></trkpt><trkpt lat="13.2550259214" lon="38.1669841893"><ele>3955.96</ele><time>2015-04-01T11:18:09Z</time></trkpt><trkpt lat="13.2550244965" lon="38.1670359056"><ele>3955.00</ele><time>2015-04-01T11:18:28Z</time></trkpt><trkpt lat="13.2550216466" lon="38.1671374105"><ele>3952.12</ele><time>2015-04-01T11:18:39Z</time></trkpt><trkpt lat="13.2550409250" lon="38.1672093272"><ele>3953.08</ele><time>2015-04-01T11:18:47Z</time></trkpt><trkpt lat="13.2550851814" lon="38.1673869397"><ele>3953.56</ele><time>2015-04-01T11:19:04Z</time></trkpt><trkpt lat="13.2550925575" lon="38.1674174499"><ele>3953.56</ele><time>2015-04-01T11:19:07Z</time></trkpt><trkpt lat="13.2551202178" lon="38.1676347926"><ele>3951.64</ele><time>2015-04-01T11:19:27Z</time></trkpt><trkpt lat="13.2551013585" lon="38.1678279955"><ele>3950.67</ele><time>2015-04-01T11:19:43Z</time></trkpt><trkpt lat="13.2551002689" lon="38.1679922808"><ele>3950.19</ele><time>2015-04-01T11:19:58Z</time></trkpt><trkpt lat="13.2550742850" lon="38.1681749225"><ele>3949.71</ele><time>2015-04-01T11:20:15Z</time></trkpt><trkpt lat="13.2550414279" lon="38.1683760043"><ele>3949.71</ele><time>2015-04-01T11:20:33Z</time></trkpt><trkpt lat="13.2550396677" lon="38.1685702130"><ele>3949.71</ele><time>2015-04-01T11:20:51Z</time></trkpt><trkpt lat="13.2550367340" lon="38.1686297245"><ele>3949.71</ele><time>2015-04-01T11:20:56Z</time></trkpt><trkpt lat="13.2550366502" lon="38.1686531100"><ele>3949.71</ele><time>2015-04-01T11:20:58Z</time></trkpt><trkpt lat="13.2549767196" lon="38.1688491628"><ele>3949.23</ele><time>2015-04-01T11:21:18Z</time></trkpt><trkpt lat="13.2549592014" lon="38.1689831894"><ele>3949.71</ele><time>2015-04-01T11:21:32Z</time></trkpt><trkpt lat="13.2549112570" lon="38.1691365782"><ele>3948.27</ele><time>2015-04-01T11:21:46Z</time></trkpt><trkpt lat="13.2548761368" lon="38.1692232471"><ele>3948.75</ele><time>2015-04-01T11:21:54Z</time></trkpt><trkpt lat="13.2548749633" lon="38.1693588663"><ele>3948.75</ele><time>2015-04-01T11:22:07Z</time></trkpt><trkpt lat="13.2548288628" lon="38.1695447769"><ele>3949.23</ele><time>2015-04-01T11:22:24Z</time></trkpt><trkpt lat="13.2548085786" lon="38.1697542407"><ele>3949.71</ele><time>2015-04-01T11:22:43Z</time></trkpt><trkpt lat="13.2548285276" lon="38.1699292548"><ele>3950.67</ele><time>2015-04-01T11:23:01Z</time></trkpt><trkpt lat="13.2548636477" lon="38.1700588390"><ele>3949.71</ele><time>2015-04-01T11:23:18Z</time></trkpt><trkpt lat="13.2548996899" lon="38.1701116450"><ele>3948.75</ele><time>2015-04-01T11:23:31Z</time></trkpt><trkpt lat="13.2549569383" lon="38.1701926980"><ele>3946.35</ele><time>2015-04-01T11:23:44Z</time></trkpt><trkpt lat="13.2550009433" lon="38.1702735834"><ele>3945.39</ele><time>2015-04-01T11:23:59Z</time></trkpt><trkpt lat="13.2550127618" lon="38.1702835578"><ele>3944.91</ele><time>2015-04-01T11:24:07Z</time></trkpt><trkpt lat="13.2550732791" lon="38.1704110466"><ele>3942.98</ele><time>2015-04-01T11:24:23Z</time></trkpt><trkpt lat="13.2551023643" lon="38.1704805326"><ele>3941.54</ele><time>2015-04-01T11:24:39Z</time></trkpt><trkpt lat="13.2551357243" lon="38.1705177482"><ele>3938.66</ele><time>2015-04-01T11:24:53Z</time></trkpt><trkpt lat="13.2552065514" lon="38.1706063449"><ele>3934.81</ele><time>2015-04-01T11:25:07Z</time></trkpt><trkpt lat="13.2552533224" lon="38.1706466619"><ele>3935.29</ele><time>2015-04-01T11:25:31Z</time></trkpt><trkpt lat="13.2552964892" lon="38.1707607396"><ele>3930.01</ele><time>2015-04-01T11:25:47Z</time></trkpt><trkpt lat="13.2552955672" lon="38.1707748212"><ele>3929.53</ele><time>2015-04-01T11:25:49Z</time></trkpt><trkpt lat="13.2553191204" lon="38.1709112786"><ele>3925.20</ele><time>2015-04-01T11:26:05Z</time></trkpt><trkpt lat="13.2553600240" lon="38.1710929982"><ele>3922.80</ele><time>2015-04-01T11:26:20Z</time></trkpt><trkpt lat="13.2554264925" lon="38.1711812597"><ele>3921.35</ele><time>2015-04-01T11:26:33Z</time></trkpt><trkpt lat="13.2555227168" lon="38.1713472214"><ele>3919.91</ele><time>2015-04-01T11:26:48Z</time></trkpt><trkpt lat="13.2555444259" lon="38.1714757159"><ele>3917.03</ele><time>2015-04-01T11:27:02Z</time></trkpt><trkpt lat="13.2555116527" lon="38.1715353951"><ele>3915.11</ele><time>2015-04-01T11:27:14Z</time></trkpt><trkpt lat="13.2554710004" lon="38.1716350559"><ele>3913.66</ele><time>2015-04-01T11:27:26Z</time></trkpt><trkpt lat="13.2554482855" lon="38.1717397459"><ele>3913.66</ele><time>2015-04-01T11:27:35Z</time></trkpt><trkpt lat="13.2553368900" lon="38.1718225591"><ele>3911.74</ele><time>2015-04-01T11:27:49Z</time></trkpt><trkpt lat="13.2552871853" lon="38.1719167717"><ele>3913.18</ele><time>2015-04-01T11:28:02Z</time></trkpt><trkpt lat="13.2552815694" lon="38.1719643809"><ele>3914.63</ele><time>2015-04-01T11:28:09Z</time></trkpt><trkpt lat="13.2552754506" lon="38.1721016765"><ele>3913.18</ele><time>2015-04-01T11:28:24Z</time></trkpt><trkpt lat="13.2552527357" lon="38.1721910276"><ele>3911.74</ele><time>2015-04-01T11:28:33Z</time></trkpt><trkpt lat="13.2552520651" lon="38.1722445041"><ele>3911.26</ele><time>2015-04-01T11:28:37Z</time></trkpt><trkpt lat="13.2552428450" lon="38.1723755132"><ele>3910.78</ele><time>2015-04-01T11:28:50Z</time></trkpt><trkpt lat="13.2552273385" lon="38.1724647805"><ele>3910.30</ele><time>2015-04-01T11:29:04Z</time></trkpt><trkpt lat="13.2551891170" lon="38.1725797802"><ele>3907.90</ele><time>2015-04-01T11:29:16Z</time></trkpt><trkpt lat="13.2551358081" lon="38.1727630086"><ele>3906.45</ele><time>2015-04-01T11:29:31Z</time></trkpt><trkpt lat="13.2551043760" lon="38.1729432195"><ele>3905.49</ele><time>2015-04-01T11:29:47Z</time></trkpt><trkpt lat="13.2551092375" lon="38.1730974466"><ele>3905.01</ele><time>2015-04-01T11:30:03Z</time></trkpt><trkpt lat="13.2551032025" lon="38.1731495820"><ele>3904.53</ele><time>2015-04-01T11:30:08Z</time></trkpt><trkpt lat="13.2551208884" lon="38.1732313056"><ele>3904.05</ele><time>2015-04-01T11:30:23Z</time></trkpt><trkpt lat="13.2551009394" lon="38.1732589658"><ele>3904.53</ele><time>2015-04-01T11:30:46Z</time></trkpt><trkpt lat="13.2550950721" lon="38.1732669286"><ele>3904.53</ele><time>2015-04-01T11:30:49Z</time></trkpt><trkpt lat="13.2550713513" lon="38.1733948365"><ele>3905.49</ele><time>2015-04-01T11:31:05Z</time></trkpt><trkpt lat="13.2550659869" lon="38.1733899750"><ele>3904.05</ele><time>2015-04-01T11:31:18Z</time></trkpt><trkpt lat="13.2551744487" lon="38.1734617241"><ele>3905.01</ele><time>2015-04-01T11:31:33Z</time></trkpt><trkpt lat="13.2552129216" lon="38.1734995265"><ele>3905.01</ele><time>2015-04-01T11:31:47Z</time></trkpt><trkpt lat="13.2552614529" lon="38.1735341437"><ele>3905.01</ele><time>2015-04-01T11:31:57Z</time></trkpt><trkpt lat="13.2553779613" lon="38.1736102514"><ele>3902.61</ele><time>2015-04-01T11:32:14Z</time></trkpt><trkpt lat="13.2554223854" lon="38.1736566871"><ele>3900.21</ele><time>2015-04-01T11:32:27Z</time></trkpt><trkpt lat="13.2554737665" lon="38.1737009436"><ele>3897.80</ele><time>2015-04-01T11:32:41Z</time></trkpt><trkpt lat="13.2555514667" lon="38.1737599522"><ele>3895.88</ele><time>2015-04-01T11:32:57Z</time></trkpt><trkpt lat="13.2555674762" lon="38.1738091540"><ele>3891.55</ele><time>2015-04-01T11:33:10Z</time></trkpt><trkpt lat="13.2556100562" lon="38.1738603674"><ele>3887.71</ele><time>2015-04-01T11:33:25Z</time></trkpt><trkpt lat="13.2556466013" lon="38.1738996785"><ele>3886.27</ele><time>2015-04-01T11:33:39Z</time></trkpt><trkpt lat="13.2556849066" lon="38.1739575136"><ele>3882.90</ele><time>2015-04-01T11:33:52Z</time></trkpt><trkpt lat="13.2557168417" lon="38.1740238983"><ele>3880.02</ele><time>2015-04-01T11:34:04Z</time></trkpt><trkpt lat="13.2557541411" lon="38.1740622874"><ele>3878.10</ele><time>2015-04-01T11:34:16Z</time></trkpt><trkpt lat="13.2557782810" lon="38.1741115730"><ele>3876.65</ele><time>2015-04-01T11:34:29Z</time></trkpt><trkpt lat="13.2558242977" lon="38.1741788797"><ele>3874.25</ele><time>2015-04-01T11:34:44Z</time></trkpt><trkpt lat="13.2558310032" lon="38.1742094737"><ele>3871.85</ele><time>2015-04-01T11:34:53Z</time></trkpt><trkpt lat="13.2558825519" lon="38.1743044406"><ele>3870.41</ele><time>2015-04-01T11:35:08Z</time></trkpt><trkpt lat="13.2559004892" lon="38.1743529718"><ele>3867.04</ele><time>2015-04-01T11:35:23Z</time></trkpt><trkpt lat="13.2559105475" lon="38.1744087115"><ele>3864.16</ele><time>2015-04-01T11:35:37Z</time></trkpt><trkpt lat="13.2559683826" lon="38.1744907703"><ele>3861.75</ele><time>2015-04-01T11:35:51Z</time></trkpt><trkpt lat="13.2559944503" lon="38.1745582446"><ele>3859.83</ele><time>2015-04-01T11:36:02Z</time></trkpt><trkpt lat="13.2559802849" lon="38.1746084522"><ele>3855.99</ele><time>2015-04-01T11:36:17Z</time></trkpt><trkpt lat="13.2559734117" lon="38.1746470090"><ele>3853.10</ele><time>2015-04-01T11:36:31Z</time></trkpt><trkpt lat="13.2559646107" lon="38.1746863201"><ele>3851.66</ele><time>2015-04-01T11:36:46Z</time></trkpt><trkpt lat="13.2559682149" lon="38.1747149862"><ele>3850.22</ele><time>2015-04-01T11:37:07Z</time></trkpt><trkpt lat="13.2559403870" lon="38.1747204345"><ele>3847.33</ele><time>2015-04-01T11:37:20Z</time></trkpt><trkpt lat="13.2559154090" lon="38.1747286487"><ele>3845.41</ele><time>2015-04-01T11:37:33Z</time></trkpt><trkpt lat="13.2559227850" lon="38.1747670379"><ele>3843.97</ele><time>2015-04-01T11:37:48Z</time></trkpt><trkpt lat="13.2559041772" lon="38.1747874059"><ele>3841.57</ele><time>2015-04-01T11:38:01Z</time></trkpt><trkpt lat="13.2559086196" lon="38.1748427264"><ele>3839.16</ele><time>2015-04-01T11:38:16Z</time></trkpt><trkpt lat="13.2559012435" lon="38.1748680398"><ele>3838.20</ele><time>2015-04-01T11:38:30Z</time></trkpt><trkpt lat="13.2559073623" lon="38.1749203429"><ele>3836.76</ele><time>2015-04-01T11:38:45Z</time></trkpt><trkpt lat="13.2558771875" lon="38.1749271322"><ele>3834.36</ele><time>2015-04-01T11:38:57Z</time></trkpt><trkpt lat="13.2558821328" lon="38.1749727298"><ele>3832.91</ele><time>2015-04-01T11:39:11Z</time></trkpt><trkpt lat="13.2558621000" lon="38.1749803573"><ele>3830.99</ele><time>2015-04-01T11:39:25Z</time></trkpt><trkpt lat="13.2558485214" lon="38.1750013120"><ele>3829.07</ele><time>2015-04-01T11:39:43Z</time></trkpt><trkpt lat="13.2558263093" lon="38.1749728974"><ele>3828.11</ele><time>2015-04-01T11:39:57Z</time></trkpt><trkpt lat="13.2557998225" lon="38.1750091072"><ele>3827.15</ele><time>2015-04-01T11:40:11Z</time></trkpt><trkpt lat="13.2557539735" lon="38.1749890745"><ele>3824.74</ele><time>2015-04-01T11:40:25Z</time></trkpt><trkpt lat="13.2557072863" lon="38.1749677006"><ele>3821.86</ele><time>2015-04-01T11:40:39Z</time></trkpt><trkpt lat="13.2556698192" lon="38.1749491766"><ele>3819.94</ele><time>2015-04-01T11:40:53Z</time></trkpt><trkpt lat="13.2556440867" lon="38.1749936845"><ele>3818.01</ele><time>2015-04-01T11:41:08Z</time></trkpt><trkpt lat="13.2556552347" lon="38.1750584766"><ele>3814.65</ele><time>2015-04-01T11:41:21Z</time></trkpt><trkpt lat="13.2556456793" lon="38.1750869751"><ele>3814.17</ele><time>2015-04-01T11:41:36Z</time></trkpt><trkpt lat="13.2556215394" lon="38.1751167309"><ele>3812.73</ele><time>2015-04-01T11:41:48Z</time></trkpt><trkpt lat="13.2556609344" lon="38.1751912460"><ele>3810.32</ele><time>2015-04-01T11:42:02Z</time></trkpt><trkpt lat="13.2556611020" lon="38.1752273720"><ele>3806.00</ele><time>2015-04-01T11:42:17Z</time></trkpt><trkpt lat="13.2556069549" lon="38.1752570439"><ele>3802.15</ele><time>2015-04-01T11:42:31Z</time></trkpt><trkpt lat="13.2555766124" lon="38.1753208302"><ele>3799.75</ele><time>2015-04-01T11:42:45Z</time></trkpt><trkpt lat="13.2555537298" lon="38.1753668468"><ele>3797.35</ele><time>2015-04-01T11:43:00Z</time></trkpt><trkpt lat="13.2555316016" lon="38.1754165515"><ele>3796.86</ele><time>2015-04-01T11:43:13Z</time></trkpt><trkpt lat="13.2554958947" lon="38.1753883883"><ele>3793.98</ele><time>2015-04-01T11:43:31Z</time></trkpt><trkpt lat="13.2554435916" lon="38.1753292121"><ele>3791.58</ele><time>2015-04-01T11:43:44Z</time></trkpt><trkpt lat="13.2554141711" lon="38.1753869634"><ele>3791.10</ele><time>2015-04-01T11:43:57Z</time></trkpt><trkpt lat="13.2554000057" lon="38.1754227541"><ele>3790.13</ele><time>2015-04-01T11:44:14Z</time></trkpt><trkpt lat="13.2554083038" lon="38.1754507497"><ele>3788.69</ele><time>2015-04-01T11:44:30Z</time></trkpt><trkpt lat="13.2553722616" lon="38.1754760630"><ele>3784.37</ele><time>2015-04-01T11:44:45Z</time></trkpt><trkpt lat="13.2553608622" lon="38.1754959282"><ele>3783.89</ele><time>2015-04-01T11:45:01Z</time></trkpt><trkpt lat="13.2553723454" lon="38.1755509973"><ele>3781.48</ele><time>2015-04-01T11:45:17Z</time></trkpt><trkpt lat="13.2553754468" lon="38.1755974330"><ele>3781.00</ele><time>2015-04-01T11:45:33Z</time></trkpt><trkpt lat="13.2553964015" lon="38.1756577827"><ele>3781.48</ele><time>2015-04-01T11:45:48Z</time></trkpt><trkpt lat="13.2554373052" lon="38.1756931543"><ele>3781.00</ele><time>2015-04-01T11:46:00Z</time></trkpt><trkpt lat="13.2554206252" lon="38.1757696811"><ele>3777.64</ele><time>2015-04-01T11:46:15Z</time></trkpt><trkpt lat="13.2554173563" lon="38.1758238282"><ele>3774.75</ele><time>2015-04-01T11:46:32Z</time></trkpt><trkpt lat="13.2553884387" lon="38.1759045459"><ele>3771.39</ele><time>2015-04-01T11:46:49Z</time></trkpt><trkpt lat="13.2553942222" lon="38.1759918015"><ele>3769.95</ele><time>2015-04-01T11:47:04Z</time></trkpt><trkpt lat="13.2554060407" lon="38.1760713458"><ele>3767.54</ele><time>2015-04-01T11:47:18Z</time></trkpt><trkpt lat="13.2554019336" lon="38.1761310250"><ele>3765.14</ele><time>2015-04-01T11:47:33Z</time></trkpt><trkpt lat="13.2554149255" lon="38.1762001757"><ele>3763.22</ele><time>2015-04-01T11:47:47Z</time></trkpt><trkpt lat="13.2554197032" lon="38.1762428395"><ele>3760.33</ele><time>2015-04-01T11:48:02Z</time></trkpt><trkpt lat="13.2554445136" lon="38.1762914546"><ele>3760.81</ele><time>2015-04-01T11:48:18Z</time></trkpt><trkpt lat="13.2554081362" lon="38.1762978248"><ele>3758.41</ele><time>2015-04-01T11:48:32Z</time></trkpt><trkpt lat="13.2554140035" lon="38.1763281673"><ele>3756.49</ele><time>2015-04-01T11:48:45Z</time></trkpt><trkpt lat="13.2554429211" lon="38.1764020957"><ele>3755.53</ele><time>2015-04-01T11:49:01Z</time></trkpt><trkpt lat="13.2554759458" lon="38.1764616072"><ele>3756.49</ele><time>2015-04-01T11:49:16Z</time></trkpt><trkpt lat="13.2554750238" lon="38.1764875911"><ele>3756.01</ele><time>2015-04-01T11:49:33Z</time></trkpt><trkpt lat="13.2554933801" lon="38.1764838193"><ele>3757.93</ele><time>2015-04-01T11:49:52Z</time></trkpt><trkpt lat="13.2554870099" lon="38.1764896028"><ele>3756.01</ele><time>2015-04-01T11:50:10Z</time></trkpt><trkpt lat="13.2554808911" lon="38.1765050255"><ele>3753.12</ele><time>2015-04-01T11:50:37Z</time></trkpt><trkpt lat="13.2554845791" lon="38.1765349489"><ele>3753.12</ele><time>2015-04-01T11:50:50Z</time></trkpt><trkpt lat="13.2554926258" lon="38.1765690632"><ele>3754.09</ele><time>2015-04-01T11:51:19Z</time></trkpt><trkpt lat="13.2555000857" lon="38.1766701490"><ele>3752.16</ele><time>2015-04-01T11:51:34Z</time></trkpt><trkpt lat="13.2555015106" lon="38.1766903494"><ele>3751.68</ele><time>2015-04-01T11:51:37Z</time></trkpt><trkpt lat="13.2555096410" lon="38.1767981406"><ele>3750.24</ele><time>2015-04-01T11:51:53Z</time></trkpt><trkpt lat="13.2555117365" lon="38.1768630166"><ele>3750.24</ele><time>2015-04-01T11:52:01Z</time></trkpt><trkpt lat="13.2555036899" lon="38.1769001484"><ele>3749.76</ele><time>2015-04-01T11:52:04Z</time></trkpt><trkpt lat="13.2554982416" lon="38.1770438980"><ele>3749.28</ele><time>2015-04-01T11:52:20Z</time></trkpt><trkpt lat="13.2554866746" lon="38.1770914234"><ele>3747.36</ele><time>2015-04-01T11:52:38Z</time></trkpt><trkpt lat="13.2554795500" lon="38.1771143898"><ele>3745.91</ele><time>2015-04-01T11:52:44Z</time></trkpt><trkpt lat="13.2554615289" lon="38.1772044953"><ele>3745.91</ele><time>2015-04-01T11:53:00Z</time></trkpt><trkpt lat="13.2554616965" lon="38.1772311497"><ele>3746.40</ele><time>2015-04-01T11:53:14Z</time></trkpt><trkpt lat="13.2554368861" lon="38.1773132086"><ele>3744.95</ele><time>2015-04-01T11:53:29Z</time></trkpt><trkpt lat="13.2553888578" lon="38.1774185691"><ele>3744.47</ele><time>2015-04-01T11:53:44Z</time></trkpt><trkpt lat="13.2553543244" lon="38.1774865463"><ele>3741.11</ele><time>2015-04-01T11:54:00Z</time></trkpt><trkpt lat="13.2553429250" lon="38.1775093451"><ele>3739.67</ele><time>2015-04-01T11:54:07Z</time></trkpt><trkpt lat="13.2552623749" lon="38.1776836049"><ele>3736.78</ele><time>2015-04-01T11:54:24Z</time></trkpt><trkpt lat="13.2551858481" lon="38.1778376643"><ele>3735.34</ele><time>2015-04-01T11:54:39Z</time></trkpt><trkpt lat="13.2550857682" lon="38.1780020334"><ele>3735.34</ele><time>2015-04-01T11:54:55Z</time></trkpt><trkpt lat="13.2550660707" lon="38.1780350581"><ele>3734.86</ele><time>2015-04-01T11:55:00Z</time></trkpt><trkpt lat="13.2550382428" lon="38.1781001855"><ele>3735.34</ele><time>2015-04-01T11:55:06Z</time></trkpt><trkpt lat="13.2550124265" lon="38.1782262493"><ele>3736.30</ele><time>2015-04-01T11:55:22Z</time></trkpt><trkpt lat="13.2549788151" lon="38.1783774588"><ele>3736.78</ele><time>2015-04-01T11:55:39Z</time></trkpt><trkpt lat="13.2549619675" lon="38.1785173528"><ele>3737.74</ele><time>2015-04-01T11:55:55Z</time></trkpt><trkpt lat="13.2548825908" lon="38.1786641199"><ele>3739.19</ele><time>2015-04-01T11:56:08Z</time></trkpt><trkpt lat="13.2548864465" lon="38.1786795426"><ele>3735.34</ele><time>2015-04-01T11:56:25Z</time></trkpt><trkpt lat="13.2548815012" lon="38.1786963902"><ele>3733.90</ele><time>2015-04-01T11:56:54Z</time></trkpt><trkpt lat="13.2548485603" lon="38.1787788682"><ele>3736.78</ele><time>2015-04-01T11:57:06Z</time></trkpt><trkpt lat="13.2548835967" lon="38.1788606755"><ele>3738.70</ele><time>2015-04-01T11:57:20Z</time></trkpt><trkpt lat="13.2549280208" lon="38.1789081171"><ele>3739.67</ele><time>2015-04-01T11:57:33Z</time></trkpt><trkpt lat="13.2549656555" lon="38.1789635215"><ele>3739.67</ele><time>2015-04-01T11:57:41Z</time></trkpt><trkpt lat="13.2549886219" lon="38.1789907627"><ele>3739.19</ele><time>2015-04-01T11:57:44Z</time></trkpt><trkpt lat="13.2550861873" lon="38.1791505218"><ele>3740.15</ele><time>2015-04-01T11:58:01Z</time></trkpt><trkpt lat="13.2551778853" lon="38.1792651862"><ele>3741.59</ele><time>2015-04-01T11:58:16Z</time></trkpt><trkpt lat="13.2552483771" lon="38.1792810280"><ele>3741.59</ele><time>2015-04-01T11:58:32Z</time></trkpt><trkpt lat="13.2552753668" lon="38.1793418806"><ele>3739.67</ele><time>2015-04-01T11:58:46Z</time></trkpt><trkpt lat="13.2552854251" lon="38.1793795153"><ele>3736.78</ele><time>2015-04-01T11:59:00Z</time></trkpt><trkpt lat="13.2553054579" lon="38.1794612389"><ele>3735.82</ele><time>2015-04-01T11:59:15Z</time></trkpt><trkpt lat="13.2553336211" lon="38.1795668509"><ele>3733.90</ele><time>2015-04-01T11:59:29Z</time></trkpt><trkpt lat="13.2553495467" lon="38.1795874704"><ele>3733.42</ele><time>2015-04-01T11:59:33Z</time></trkpt><trkpt lat="13.2553803083" lon="38.1796408631"><ele>3731.01</ele><time>2015-04-01T11:59:46Z</time></trkpt><trkpt lat="13.2554260734" lon="38.1797307171"><ele>3728.61</ele><time>2015-04-01T12:00:00Z</time></trkpt><trkpt lat="13.2554991636" lon="38.1798111834"><ele>3727.65</ele><time>2015-04-01T12:00:18Z</time></trkpt><trkpt lat="13.2555891853" lon="38.1798904762"><ele>3729.09</ele><time>2015-04-01T12:00:33Z</time></trkpt><trkpt lat="13.2555951364" lon="38.1798975170"><ele>3729.57</ele><time>2015-04-01T12:00:34Z</time></trkpt><trkpt lat="13.2556955516" lon="38.1800063979"><ele>3727.17</ele><time>2015-04-01T12:00:51Z</time></trkpt><trkpt lat="13.2557795383" lon="38.1800809968"><ele>3724.77</ele><time>2015-04-01T12:01:06Z</time></trkpt><trkpt lat="13.2558341883" lon="38.1800929829"><ele>3724.77</ele><time>2015-04-01T12:01:20Z</time></trkpt><trkpt lat="13.2558937836" lon="38.1801301986"><ele>3723.32</ele><time>2015-04-01T12:01:35Z</time></trkpt><trkpt lat="13.2559697237" lon="38.1802153587"><ele>3720.92</ele><time>2015-04-01T12:01:50Z</time></trkpt><trkpt lat="13.2560022455" lon="38.1802515686"><ele>3720.92</ele><time>2015-04-01T12:02:05Z</time></trkpt><trkpt lat="13.2560153212" lon="38.1802822463"><ele>3718.04</ele><time>2015-04-01T12:02:18Z</time></trkpt><trkpt lat="13.2560514472" lon="38.1803052966"><ele>3717.56</ele><time>2015-04-01T12:02:33Z</time></trkpt><trkpt lat="13.2560213562" lon="38.1803301908"><ele>3714.67</ele><time>2015-04-01T12:02:50Z</time></trkpt><trkpt lat="13.2560426462" lon="38.1803591922"><ele>3714.67</ele><time>2015-04-01T12:03:06Z</time></trkpt><trkpt lat="13.2560672890" lon="38.1804128364"><ele>3712.27</ele><time>2015-04-01T12:03:20Z</time></trkpt><trkpt lat="13.2561217714" lon="38.1804744434"><ele>3709.38</ele><time>2015-04-01T12:03:36Z</time></trkpt><trkpt lat="13.2561866473" lon="38.1805398222"><ele>3706.98</ele><time>2015-04-01T12:03:51Z</time></trkpt><trkpt lat="13.2562395371" lon="38.1806193665"><ele>3705.06</ele><time>2015-04-01T12:04:04Z</time></trkpt><trkpt lat="13.2562564686" lon="38.1806423329"><ele>3703.62</ele><time>2015-04-01T12:04:21Z</time></trkpt><trkpt lat="13.2562651020" lon="38.1806518044"><ele>3702.17</ele><time>2015-04-01T12:04:36Z</time></trkpt><trkpt lat="13.2562514395" lon="38.1806666404"><ele>3697.85</ele><time>2015-04-01T12:04:42Z</time></trkpt><trkpt lat="13.2562246174" lon="38.1807303429"><ele>3694.48</ele><time>2015-04-01T12:04:56Z</time></trkpt><trkpt lat="13.2562200911" lon="38.1807699054"><ele>3692.08</ele><time>2015-04-01T12:05:12Z</time></trkpt><trkpt lat="13.2562463265" lon="38.1808280759"><ele>3689.68</ele><time>2015-04-01T12:05:28Z</time></trkpt><trkpt lat="13.2562441472" lon="38.1808746792"><ele>3686.79</ele><time>2015-04-01T12:05:43Z</time></trkpt><trkpt lat="13.2562544569" lon="38.1809542235"><ele>3682.95</ele><time>2015-04-01T12:05:56Z</time></trkpt><trkpt lat="13.2562975399" lon="38.1810648646"><ele>3680.06</ele><time>2015-04-01T12:06:11Z</time></trkpt><trkpt lat="13.2563030720" lon="38.1810724083"><ele>3680.06</ele><time>2015-04-01T12:06:12Z</time></trkpt><trkpt lat="13.2563495915" lon="38.1811962929"><ele>3678.14</ele><time>2015-04-01T12:06:27Z</time></trkpt><trkpt lat="13.2563862205" lon="38.1813159026"><ele>3678.14</ele><time>2015-04-01T12:06:43Z</time></trkpt><trkpt lat="13.2564095221" lon="38.1814474985"><ele>3676.22</ele><time>2015-04-01T12:06:58Z</time></trkpt><trkpt lat="13.2564872224" lon="38.1816489156"><ele>3675.26</ele><time>2015-04-01T12:07:17Z</time></trkpt><trkpt lat="13.2564959396" lon="38.1816932559"><ele>3675.26</ele><time>2015-04-01T12:07:21Z</time></trkpt><trkpt lat="13.2565087639" lon="38.1817111094"><ele>3674.78</ele><time>2015-04-01T12:07:23Z</time></trkpt><trkpt lat="13.2565532718" lon="38.1818789989"><ele>3675.74</ele><time>2015-04-01T12:07:40Z</time></trkpt><trkpt lat="13.2565876376" lon="38.1819967646"><ele>3675.26</ele><time>2015-04-01T12:07:53Z</time></trkpt><trkpt lat="13.2566495799" lon="38.1821007002"><ele>3675.26</ele><time>2015-04-01T12:08:08Z</time></trkpt><trkpt lat="13.2567045651" lon="38.1821841840"><ele>3673.82</ele><time>2015-04-01T12:08:23Z</time></trkpt><trkpt lat="13.2567455526" lon="38.1822576094"><ele>3671.89</ele><time>2015-04-01T12:08:37Z</time></trkpt><trkpt lat="13.2568242587" lon="38.1823195517"><ele>3669.97</ele><time>2015-04-01T12:08:51Z</time></trkpt><trkpt lat="13.2569024619" lon="38.1823705975"><ele>3667.57</ele><time>2015-04-01T12:09:05Z</time></trkpt><trkpt lat="13.2569684274" lon="38.1824614573"><ele>3667.09</ele><time>2015-04-01T12:09:19Z</time></trkpt><trkpt lat="13.2569753844" lon="38.1825233158"><ele>3665.16</ele><time>2015-04-01T12:09:36Z</time></trkpt><trkpt lat="13.2569816709" lon="38.1825470366"><ele>3664.68</ele><time>2015-04-01T12:09:39Z</time></trkpt><trkpt lat="13.2570888754" lon="38.1826847512"><ele>3662.28</ele><time>2015-04-01T12:09:56Z</time></trkpt><trkpt lat="13.2571379934" lon="38.1827565841"><ele>3659.40</ele><time>2015-04-01T12:10:08Z</time></trkpt><trkpt lat="13.2571938168" lon="38.1828580052"><ele>3655.55</ele><time>2015-04-01T12:10:22Z</time></trkpt><trkpt lat="13.2572845928" lon="38.1829801295"><ele>3653.15</ele><time>2015-04-01T12:10:36Z</time></trkpt><trkpt lat="13.2572885323" lon="38.1829890981"><ele>3653.15</ele><time>2015-04-01T12:10:37Z</time></trkpt><trkpt lat="13.2573510613" lon="38.1831295788"><ele>3648.82</ele><time>2015-04-01T12:10:53Z</time></trkpt><trkpt lat="13.2574419212" lon="38.1832618453"><ele>3646.42</ele><time>2015-04-01T12:11:10Z</time></trkpt><trkpt lat="13.2575000077" lon="38.1833319180"><ele>3644.50</ele><time>2015-04-01T12:11:24Z</time></trkpt><trkpt lat="13.2575569209" lon="38.1834173296"><ele>3642.57</ele><time>2015-04-01T12:11:39Z</time></trkpt><trkpt lat="13.2575829886" lon="38.1834677886"><ele>3643.05</ele><time>2015-04-01T12:11:55Z</time></trkpt><trkpt lat="13.2575906999" lon="38.1834820379"><ele>3642.09</ele><time>2015-04-01T12:11:57Z</time></trkpt><trkpt lat="13.2576316036" lon="38.1836167350"><ele>3640.17</ele><time>2015-04-01T12:12:11Z</time></trkpt><trkpt lat="13.2576519717" lon="38.1836516876"><ele>3639.69</ele><time>2015-04-01T12:12:15Z</time></trkpt><trkpt lat="13.2577614393" lon="38.1837802660"><ele>3636.81</ele><time>2015-04-01T12:12:32Z</time></trkpt><trkpt lat="13.2578034326" lon="38.1838584691"><ele>3636.81</ele><time>2015-04-01T12:12:45Z</time></trkpt><trkpt lat="13.2578878384" lon="38.1839770731"><ele>3636.32</ele><time>2015-04-01T12:12:58Z</time></trkpt><trkpt lat="13.2579212822" lon="38.1841197331"><ele>3635.84</ele><time>2015-04-01T12:13:13Z</time></trkpt><trkpt lat="13.2579592522" lon="38.1842065696"><ele>3635.36</ele><time>2015-04-01T12:13:28Z</time></trkpt><trkpt lat="13.2579740882" lon="38.1842607167"><ele>3632.48</ele><time>2015-04-01T12:13:42Z</time></trkpt><trkpt lat="13.2579818834" lon="38.1843168754"><ele>3630.08</ele><time>2015-04-01T12:13:56Z</time></trkpt><trkpt lat="13.2579972222" lon="38.1844077352"><ele>3629.59</ele><time>2015-04-01T12:14:11Z</time></trkpt><trkpt lat="13.2580218650" lon="38.1844757963"><ele>3629.11</ele><time>2015-04-01T12:14:29Z</time></trkpt><trkpt lat="13.2580700610" lon="38.1845686678"><ele>3627.67</ele><time>2015-04-01T12:14:44Z</time></trkpt><trkpt lat="13.2580973860" lon="38.1847066339"><ele>3626.23</ele><time>2015-04-01T12:15:01Z</time></trkpt><trkpt lat="13.2581206039" lon="38.1847833283"><ele>3627.67</ele><time>2015-04-01T12:15:12Z</time></trkpt><trkpt lat="13.2581252977" lon="38.1847913750"><ele>3627.67</ele><time>2015-04-01T12:15:13Z</time></trkpt><trkpt lat="13.2581615914" lon="38.1849311013"><ele>3623.83</ele><time>2015-04-01T12:15:29Z</time></trkpt><trkpt lat="13.2581669558" lon="38.1849476136"><ele>3623.83</ele><time>2015-04-01T12:15:33Z</time></trkpt><trkpt lat="13.2582072727" lon="38.1850394793"><ele>3621.42</ele><time>2015-04-01T12:15:48Z</time></trkpt><trkpt lat="13.2582495175" lon="38.1850791257"><ele>3621.42</ele><time>2015-04-01T12:16:02Z</time></trkpt><trkpt lat="13.2582667843" lon="38.1851150002"><ele>3619.98</ele><time>2015-04-01T12:16:15Z</time></trkpt><trkpt lat="13.2582778484" lon="38.1851395592"><ele>3618.54</ele><time>2015-04-01T12:16:43Z</time></trkpt><trkpt lat="13.2582729869" lon="38.1851657946"><ele>3618.54</ele><time>2015-04-01T12:16:46Z</time></trkpt><trkpt lat="13.2582932711" lon="38.1852658745"><ele>3619.02</ele><time>2015-04-01T12:16:58Z</time></trkpt><trkpt lat="13.2583741564" lon="38.1853948720"><ele>3620.46</ele><time>2015-04-01T12:17:15Z</time></trkpt><trkpt lat="13.2583640981" lon="38.1854024157"><ele>3620.46</ele><time>2015-04-01T12:17:33Z</time></trkpt><trkpt lat="13.2583624218" lon="38.1854048464"><ele>3621.42</ele><time>2015-04-01T12:17:48Z</time></trkpt><trkpt lat="13.2583372761" lon="38.1854377035"><ele>3619.02</ele><time>2015-04-01T12:17:58Z</time></trkpt><trkpt lat="13.2583364379" lon="38.1853727438"><ele>3618.54</ele><time>2015-04-01T12:18:13Z</time></trkpt><trkpt lat="13.2583354320" lon="38.1853572372"><ele>3620.46</ele><time>2015-04-01T12:18:31Z</time></trkpt><trkpt lat="13.2583358511" lon="38.1853781920"><ele>3620.94</ele><time>2015-04-01T12:18:48Z</time></trkpt><trkpt lat="13.2583489269" lon="38.1854161620"><ele>3621.42</ele><time>2015-04-01T12:19:04Z</time></trkpt><trkpt lat="13.2583666965" lon="38.1854143180"><ele>3624.31</ele><time>2015-04-01T12:19:22Z</time></trkpt><trkpt lat="13.2583673671" lon="38.1854272261"><ele>3626.71</ele><time>2015-04-01T12:19:53Z</time></trkpt><trkpt lat="13.2583710551" lon="38.1854104623"><ele>3624.31</ele><time>2015-04-01T12:20:08Z</time></trkpt><trkpt lat="13.2583865616" lon="38.1854159944"><ele>3617.58</ele><time>2015-04-01T12:20:22Z</time></trkpt><trkpt lat="13.2584079355" lon="38.1854273938"><ele>3618.06</ele><time>2015-04-01T12:20:37Z</time></trkpt><trkpt lat="13.2583821192" lon="38.1854198501"><ele>3617.10</ele><time>2015-04-01T12:20:53Z</time></trkpt><trkpt lat="13.2583397068" lon="38.1855072733"><ele>3616.62</ele><time>2015-04-01T12:21:07Z</time></trkpt><trkpt lat="13.2583599910" lon="38.1856168248"><ele>3617.10</ele><time>2015-04-01T12:21:20Z</time></trkpt><trkpt lat="13.2583822031" lon="38.1857070979"><ele>3617.58</ele><time>2015-04-01T12:21:28Z</time></trkpt><trkpt lat="13.2583899982" lon="38.1857419666"><ele>3617.58</ele><time>2015-04-01T12:21:31Z</time></trkpt><trkpt lat="13.2583832089" lon="38.1858933438"><ele>3617.58</ele><time>2015-04-01T12:21:47Z</time></trkpt><trkpt lat="13.2583809458" lon="38.1860015541"><ele>3617.10</ele><time>2015-04-01T12:21:59Z</time></trkpt><trkpt lat="13.2583226077" lon="38.1861846987"><ele>3614.21</ele><time>2015-04-01T12:22:15Z</time></trkpt><trkpt lat="13.2583412994" lon="38.1862041447"><ele>3614.69</ele><time>2015-04-01T12:22:27Z</time></trkpt><trkpt lat="13.2583101187" lon="38.1862037256"><ele>3614.69</ele><time>2015-04-01T12:22:59Z</time></trkpt><trkpt lat="13.2583328336" lon="38.1863155402"><ele>3614.21</ele><time>2015-04-01T12:23:16Z</time></trkpt><trkpt lat="13.2583301514" lon="38.1863362435"><ele>3614.21</ele><time>2015-04-01T12:23:23Z</time></trkpt><trkpt lat="13.2582432311" lon="38.1864932366"><ele>3613.73</ele><time>2015-04-01T12:23:38Z</time></trkpt><trkpt lat="13.2582379505" lon="38.1865965016"><ele>3614.69</ele><time>2015-04-01T12:23:46Z</time></trkpt><trkpt lat="13.2582325023" lon="38.1866175402"><ele>3614.69</ele><time>2015-04-01T12:23:48Z</time></trkpt><trkpt lat="13.2581910118" lon="38.1867770478"><ele>3615.66</ele><time>2015-04-01T12:24:03Z</time></trkpt><trkpt lat="13.2581945322" lon="38.1868803967"><ele>3614.21</ele><time>2015-04-01T12:24:17Z</time></trkpt><trkpt lat="13.2581667043" lon="38.1868810672"><ele>3611.81</ele><time>2015-04-01T12:24:30Z</time></trkpt><trkpt lat="13.2581491023" lon="38.1868668180"><ele>3609.41</ele><time>2015-04-01T12:24:46Z</time></trkpt><trkpt lat="13.2581349369" lon="38.1869708374"><ele>3606.52</ele><time>2015-04-01T12:25:00Z</time></trkpt><trkpt lat="13.2581290696" lon="38.1871379726"><ele>3604.60</ele><time>2015-04-01T12:25:15Z</time></trkpt><trkpt lat="13.2581705600" lon="38.1873074546"><ele>3602.20</ele><time>2015-04-01T12:25:31Z</time></trkpt><trkpt lat="13.2582029980" lon="38.1874029245"><ele>3598.83</ele><time>2015-04-01T12:25:47Z</time></trkpt><trkpt lat="13.2582557201" lon="38.1875159964"><ele>3595.95</ele><time>2015-04-01T12:26:05Z</time></trkpt><trkpt lat="13.2582549658" lon="38.1875667069"><ele>3592.58</ele><time>2015-04-01T12:26:21Z</time></trkpt><trkpt lat="13.2582801953" lon="38.1876385398"><ele>3592.10</ele><time>2015-04-01T12:26:36Z</time></trkpt><trkpt lat="13.2583012339" lon="38.1877415534"><ele>3591.14</ele><time>2015-04-01T12:26:48Z</time></trkpt><trkpt lat="13.2583220210" lon="38.1877741590"><ele>3591.14</ele><time>2015-04-01T12:26:52Z</time></trkpt><trkpt lat="13.2583594043" lon="38.1879013125"><ele>3588.74</ele><time>2015-04-01T12:27:09Z</time></trkpt><trkpt lat="13.2583873160" lon="38.1879791804"><ele>3587.30</ele><time>2015-04-01T12:27:27Z</time></trkpt><trkpt lat="13.2584174071" lon="38.1880775001"><ele>3586.34</ele><time>2015-04-01T12:27:41Z</time></trkpt><trkpt lat="13.2584427204" lon="38.1881929189"><ele>3583.93</ele><time>2015-04-01T12:27:57Z</time></trkpt><trkpt lat="13.2584459055" lon="38.1883010454"><ele>3582.97</ele><time>2015-04-01T12:28:12Z</time></trkpt><trkpt lat="13.2584500127" lon="38.1883748900"><ele>3580.57</ele><time>2015-04-01T12:28:23Z</time></trkpt><trkpt lat="13.2584896591" lon="38.1884749699"><ele>3577.68</ele><time>2015-04-01T12:28:36Z</time></trkpt><trkpt lat="13.2584778406" lon="38.1885123532"><ele>3576.72</ele><time>2015-04-01T12:28:50Z</time></trkpt><trkpt lat="13.2585189957" lon="38.1885462161"><ele>3576.24</ele><time>2015-04-01T12:29:03Z</time></trkpt><trkpt lat="13.2585324068" lon="38.1885678414"><ele>3575.76</ele><time>2015-04-01T12:29:06Z</time></trkpt><trkpt lat="13.2586014736" lon="38.1886731181"><ele>3575.76</ele><time>2015-04-01T12:29:21Z</time></trkpt><trkpt lat="13.2586248592" lon="38.1887330487"><ele>3573.36</ele><time>2015-04-01T12:29:31Z</time></trkpt><trkpt lat="13.2587025594" lon="38.1888363138"><ele>3571.92</ele><time>2015-04-01T12:29:46Z</time></trkpt><trkpt lat="13.2588330656" lon="38.1889933906"><ele>3569.03</ele><time>2015-04-01T12:30:04Z</time></trkpt><trkpt lat="13.2589219138" lon="38.1891430076"><ele>3565.19</ele><time>2015-04-01T12:30:19Z</time></trkpt><trkpt lat="13.2589328941" lon="38.1891979091"><ele>3565.19</ele><time>2015-04-01T12:30:22Z</time></trkpt><trkpt lat="13.2589344028" lon="38.1892223004"><ele>3565.19</ele><time>2015-04-01T12:30:24Z</time></trkpt><trkpt lat="13.2589464728" lon="38.1892392319"><ele>3565.19</ele><time>2015-04-01T12:30:26Z</time></trkpt><trkpt lat="13.2590397634" lon="38.1893174350"><ele>3566.15</ele><time>2015-04-01T12:30:35Z</time></trkpt><trkpt lat="13.2590901386" lon="38.1893502921"><ele>3566.63</ele><time>2015-04-01T12:30:40Z</time></trkpt><trkpt lat="13.2591133565" lon="38.1893614400"><ele>3567.11</ele><time>2015-04-01T12:30:42Z</time></trkpt><trkpt lat="13.2591752987" lon="38.1894403137"><ele>3567.59</ele><time>2015-04-01T12:30:52Z</time></trkpt><trkpt lat="13.2593267597" lon="38.1895859074"><ele>3571.44</ele><time>2015-04-01T12:31:10Z</time></trkpt><trkpt lat="13.2593907975" lon="38.1896359473"><ele>3573.84</ele><time>2015-04-01T12:31:17Z</time></trkpt><trkpt lat="13.2594612055" lon="38.1898263004"><ele>3579.61</ele><time>2015-04-01T12:31:34Z</time></trkpt><trkpt lat="13.2594988402" lon="38.1898600794"><ele>3582.49</ele><time>2015-04-01T12:31:49Z</time></trkpt><trkpt lat="13.2595000137" lon="38.1898923498"><ele>3580.57</ele><time>2015-04-01T12:32:08Z</time></trkpt><trkpt lat="13.2595030311" lon="38.1898874883"><ele>3579.61</ele><time>2015-04-01T12:32:31Z</time></trkpt><trkpt lat="13.2595540769" lon="38.1899438147"><ele>3576.72</ele><time>2015-04-01T12:32:55Z</time></trkpt><trkpt lat="13.2597102318" lon="38.1901229359"><ele>3580.57</ele><time>2015-04-01T12:33:15Z</time></trkpt><trkpt lat="13.2598556578" lon="38.1902939267"><ele>3583.45</ele><time>2015-04-01T12:33:32Z</time></trkpt><trkpt lat="13.2598946337" lon="38.1903814338"><ele>3585.37</ele><time>2015-04-01T12:33:48Z</time></trkpt><trkpt lat="13.2599455118" lon="38.1904308032"><ele>3585.85</ele><time>2015-04-01T12:34:08Z</time></trkpt><trkpt lat="13.2600177638" lon="38.1905135326"><ele>3584.89</ele><time>2015-04-01T12:34:19Z</time></trkpt><trkpt lat="13.2601548918" lon="38.1907108426"><ele>3590.18</ele><time>2015-04-01T12:34:38Z</time></trkpt><trkpt lat="13.2602822129" lon="38.1908826716"><ele>3594.99</ele><time>2015-04-01T12:34:55Z</time></trkpt><trkpt lat="13.2604230288" lon="38.1910400838"><ele>3597.87</ele><time>2015-04-01T12:35:12Z</time></trkpt><trkpt lat="13.2605120447" lon="38.1911998428"><ele>3601.72</ele><time>2015-04-01T12:35:27Z</time></trkpt><trkpt lat="13.2606282178" lon="38.1913646311"><ele>3605.56</ele><time>2015-04-01T12:35:44Z</time></trkpt><trkpt lat="13.2607443072" lon="38.1915342808"><ele>3610.85</ele><time>2015-04-01T12:36:01Z</time></trkpt><trkpt lat="13.2608384360" lon="38.1917341892"><ele>3611.81</ele><time>2015-04-01T12:36:19Z</time></trkpt><trkpt lat="13.2608733047" lon="38.1917870790"><ele>3612.29</ele><time>2015-04-01T12:36:25Z</time></trkpt><trkpt lat="13.2609706186" lon="38.1919667032"><ele>3614.21</ele><time>2015-04-01T12:36:43Z</time></trkpt><trkpt lat="13.2609811798" lon="38.1919827126"><ele>3614.21</ele><time>2015-04-01T12:36:45Z</time></trkpt><trkpt lat="13.2610161323" lon="38.1920780987"><ele>3615.66</ele><time>2015-04-01T12:36:55Z</time></trkpt><trkpt lat="13.2610362489" lon="38.1921040826"><ele>3615.66</ele><time>2015-04-01T12:36:58Z</time></trkpt><trkpt lat="13.2611157931" lon="38.1922982074"><ele>3617.58</ele><time>2015-04-01T12:37:16Z</time></trkpt><trkpt lat="13.2611986063" lon="38.1924790051"><ele>3619.50</ele><time>2015-04-01T12:37:33Z</time></trkpt><trkpt lat="13.2612837665" lon="38.1926542707"><ele>3621.90</ele><time>2015-04-01T12:37:49Z</time></trkpt><trkpt lat="13.2613545936" lon="38.1928175502"><ele>3624.79</ele><time>2015-04-01T12:38:04Z</time></trkpt><trkpt lat="13.2614194695" lon="38.1929876190"><ele>3627.19</ele><time>2015-04-01T12:38:20Z</time></trkpt><trkpt lat="13.2614446990" lon="38.1930265110"><ele>3627.67</ele><time>2015-04-01T12:38:24Z</time></trkpt><trkpt lat="13.2615130115" lon="38.1931962445"><ele>3629.11</ele><time>2015-04-01T12:38:40Z</time></trkpt><trkpt lat="13.2615910470" lon="38.1933415867"><ele>3630.08</ele><time>2015-04-01T12:38:55Z</time></trkpt><trkpt lat="13.2616090681" lon="38.1933873519"><ele>3630.56</ele><time>2015-04-01T12:39:00Z</time></trkpt><trkpt lat="13.2616405003" lon="38.1934478693"><ele>3630.08</ele><time>2015-04-01T12:39:17Z</time></trkpt><trkpt lat="13.2616412546" lon="38.1934744399"><ele>3628.63</ele><time>2015-04-01T12:39:21Z</time></trkpt><trkpt lat="13.2616448589" lon="38.1935174391"><ele>3627.67</ele><time>2015-04-01T12:39:26Z</time></trkpt><trkpt lat="13.2615597825" lon="38.1935548224"><ele>3627.67</ele><time>2015-04-01T12:39:35Z</time></trkpt><trkpt lat="13.2615411747" lon="38.1936669722"><ele>3626.71</ele><time>2015-04-01T12:39:48Z</time></trkpt><trkpt lat="13.2614651509" lon="38.1937942933"><ele>3627.67</ele><time>2015-04-01T12:40:03Z</time></trkpt><trkpt lat="13.2614581939" lon="38.1938895117"><ele>3628.15</ele><time>2015-04-01T12:40:18Z</time></trkpt><trkpt lat="13.2614551764" lon="38.1938860752"><ele>3628.15</ele><time>2015-04-01T12:40:35Z</time></trkpt><trkpt lat="13.2614572719" lon="38.1938946247"><ele>3629.11</ele><time>2015-04-01T12:40:53Z</time></trkpt><trkpt lat="13.2614414301" lon="38.1938985642"><ele>3629.11</ele><time>2015-04-01T12:41:20Z</time></trkpt><trkpt lat="13.2614536677" lon="38.1938955467"><ele>3616.62</ele><time>2015-04-01T15:26:46Z</time></trkpt><trkpt lat="13.2615993451" lon="38.1938311737"><ele>3621.90</ele><time>2015-04-01T15:27:10Z</time></trkpt><trkpt lat="13.2615980040" lon="38.1938046869"><ele>3621.42</ele><time>2015-04-01T15:27:41Z</time></trkpt><trkpt lat="13.2615968306" lon="38.1938021723"><ele>3620.94</ele><time>2015-04-01T15:28:04Z</time></trkpt><trkpt lat="13.2615955733" lon="38.1938087940"><ele>3621.42</ele><time>2015-04-01T15:28:30Z</time></trkpt><trkpt lat="13.2615942322" lon="38.1938195229"><ele>3622.38</ele><time>2015-04-01T15:28:49Z</time></trkpt><trkpt lat="13.2616004348" lon="38.1938013341"><ele>3622.38</ele><time>2015-04-01T15:29:14Z</time></trkpt><trkpt lat="13.2615884487" lon="38.1938099675"><ele>3622.38</ele><time>2015-04-01T15:29:37Z</time></trkpt><trkpt lat="13.2615949027" lon="38.1938067824"><ele>3622.38</ele><time>2015-04-01T15:30:06Z</time></trkpt><trkpt lat="13.2615900412" lon="38.1938014179"><ele>3620.94</ele><time>2015-04-01T15:30:30Z</time></trkpt><trkpt lat="13.2615913823" lon="38.1938144937"><ele>3620.94</ele><time>2015-04-01T15:31:11Z</time></trkpt><trkpt lat="13.2615894545" lon="38.1938099675"><ele>3621.42</ele><time>2015-04-01T15:31:44Z</time></trkpt><trkpt lat="13.2615887001" lon="38.1938104704"><ele>3622.38</ele><time>2015-04-01T15:32:05Z</time></trkpt><trkpt lat="13.2615827490" lon="38.1937986519"><ele>3620.94</ele><time>2015-04-01T15:32:31Z</time></trkpt></trkseg></trk></gpx>